<?xml version="1.0" encoding="UTF-8" standalone="no" ?>
<gpx xmlns="http://www.topografix.com/GPX/1/1" xmlns:xsi="http://www.w3.org/2001/XMLSchema-instance" xsi:schemaLocation="http://www.topografix.com/GPX/1/1 http://www.topografix.com/GPX/1/1/gpx.xsd" version="1.1" creator="VisuGPX - https://www.visugpx.com">
  <metadata>
    <name>FD23 FIN SECTEUR 01</name>
  </metadata>
  <trk>
    <name><![CDATA[FD23 FIN SECTEUR 01_1]]></name>
    <trkseg>
      <trkpt lat="50.58855" lon="2.93473">
        <ele>25.4</ele>
        <time>2023-08-05T16:13:07Z</time>
      </trkpt>
      <trkpt lat="50.58895" lon="2.93512">
        <ele>25.8</ele>
        <time>2023-08-05T16:13:15Z</time>
      </trkpt>
      <trkpt lat="50.58915" lon="2.93535">
        <ele>25.4</ele>
        <time>2023-08-05T16:13:19Z</time>
      </trkpt>
      <trkpt lat="50.58928" lon="2.93556">
        <ele>25.4</ele>
        <time>2023-08-05T16:13:22Z</time>
      </trkpt>
      <trkpt lat="50.58953" lon="2.93595">
        <ele>25.4</ele>
        <time>2023-08-05T16:13:27Z</time>
      </trkpt>
      <trkpt lat="50.58958" lon="2.93603">
        <ele>25.4</ele>
        <time>2023-08-05T16:13:28Z</time>
      </trkpt>
      <trkpt lat="50.59001" lon="2.93668">
        <ele>25.6</ele>
        <time>2023-08-05T16:13:36Z</time>
      </trkpt>
      <trkpt lat="50.59012" lon="2.93684">
        <ele>25.6</ele>
        <time>2023-08-05T16:13:38Z</time>
      </trkpt>
      <trkpt lat="50.59048" lon="2.93739">
        <ele>25.8</ele>
        <time>2023-08-05T16:13:45Z</time>
      </trkpt>
      <trkpt lat="50.59054" lon="2.93747">
        <ele>26</ele>
        <time>2023-08-05T16:13:46Z</time>
      </trkpt>
      <trkpt lat="50.59064" lon="2.93762">
        <ele>26</ele>
        <time>2023-08-05T16:13:48Z</time>
      </trkpt>
      <trkpt lat="50.59105" lon="2.93817">
        <ele>26</ele>
        <time>2023-08-05T16:13:55Z</time>
      </trkpt>
      <trkpt lat="50.59119" lon="2.93829">
        <ele>25.8</ele>
        <time>2023-08-05T16:13:57Z</time>
      </trkpt>
      <trkpt lat="50.59132" lon="2.93836">
        <ele>25.6</ele>
        <time>2023-08-05T16:13:59Z</time>
      </trkpt>
      <trkpt lat="50.5917" lon="2.93856">
        <ele>25.2</ele>
        <time>2023-08-05T16:14:04Z</time>
      </trkpt>
      <trkpt lat="50.59193" lon="2.93869">
        <ele>24.8</ele>
        <time>2023-08-05T16:14:07Z</time>
      </trkpt>
      <trkpt lat="50.59229" lon="2.93889">
        <ele>24.8</ele>
        <time>2023-08-05T16:14:12Z</time>
      </trkpt>
      <trkpt lat="50.59242" lon="2.93896">
        <ele>24.8</ele>
        <time>2023-08-05T16:14:14Z</time>
      </trkpt>
      <trkpt lat="50.59257" lon="2.93905">
        <ele>24.6</ele>
        <time>2023-08-05T16:14:16Z</time>
      </trkpt>
      <trkpt lat="50.59263" lon="2.93909">
        <ele>24.6</ele>
        <time>2023-08-05T16:14:17Z</time>
      </trkpt>
      <trkpt lat="50.59268" lon="2.93912">
        <ele>24.6</ele>
        <time>2023-08-05T16:14:18Z</time>
      </trkpt>
      <trkpt lat="50.59275" lon="2.93915">
        <ele>24.6</ele>
        <time>2023-08-05T16:14:19Z</time>
      </trkpt>
      <trkpt lat="50.59281" lon="2.9392">
        <ele>24.6</ele>
        <time>2023-08-05T16:14:20Z</time>
      </trkpt>
      <trkpt lat="50.59287" lon="2.93927">
        <ele>24.6</ele>
        <time>2023-08-05T16:14:21Z</time>
      </trkpt>
      <trkpt lat="50.5929" lon="2.93935">
        <ele>24.6</ele>
        <time>2023-08-05T16:14:22Z</time>
      </trkpt>
      <trkpt lat="50.59292" lon="2.93944">
        <ele>24.6</ele>
        <time>2023-08-05T16:14:23Z</time>
      </trkpt>
      <trkpt lat="50.59292" lon="2.93952">
        <ele>24.6</ele>
        <time>2023-08-05T16:14:24Z</time>
      </trkpt>
      <trkpt lat="50.59291" lon="2.93962">
        <ele>24.6</ele>
        <time>2023-08-05T16:14:25Z</time>
      </trkpt>
      <trkpt lat="50.59291" lon="2.93962">
        <ele>24.6</ele>
        <time>2023-08-05T16:14:26Z</time>
      </trkpt>
      <trkpt lat="50.59288" lon="2.93983">
        <ele>24.6</ele>
        <time>2023-08-05T16:14:27Z</time>
      </trkpt>
      <trkpt lat="50.59287" lon="2.93993">
        <ele>24.6</ele>
        <time>2023-08-05T16:14:28Z</time>
      </trkpt>
      <trkpt lat="50.59286" lon="2.94">
        <ele>24.8</ele>
        <time>2023-08-05T16:14:29Z</time>
      </trkpt>
      <trkpt lat="50.59284" lon="2.94009">
        <ele>24.8</ele>
        <time>2023-08-05T16:14:30Z</time>
      </trkpt>
      <trkpt lat="50.59283" lon="2.94019">
        <ele>24.8</ele>
        <time>2023-08-05T16:14:31Z</time>
      </trkpt>
      <trkpt lat="50.59281" lon="2.94031">
        <ele>25</ele>
        <time>2023-08-05T16:14:32Z</time>
      </trkpt>
      <trkpt lat="50.5927" lon="2.94108">
        <ele>25.2</ele>
        <time>2023-08-05T16:14:40Z</time>
      </trkpt>
      <trkpt lat="50.59258" lon="2.94198">
        <ele>24.8</ele>
        <time>2023-08-05T16:14:49Z</time>
      </trkpt>
      <trkpt lat="50.59257" lon="2.94206">
        <ele>24.8</ele>
        <time>2023-08-05T16:14:50Z</time>
      </trkpt>
      <trkpt lat="50.59257" lon="2.94216">
        <ele>24.8</ele>
        <time>2023-08-05T16:14:51Z</time>
      </trkpt>
      <trkpt lat="50.59258" lon="2.94228">
        <ele>24.6</ele>
        <time>2023-08-05T16:14:52Z</time>
      </trkpt>
      <trkpt lat="50.59262" lon="2.94247">
        <ele>24.6</ele>
        <time>2023-08-05T16:14:54Z</time>
      </trkpt>
      <trkpt lat="50.5928" lon="2.9433">
        <ele>24.2</ele>
        <time>2023-08-05T16:15:02Z</time>
      </trkpt>
      <trkpt lat="50.59283" lon="2.94341">
        <ele>24</ele>
        <time>2023-08-05T16:15:04Z</time>
      </trkpt>
      <trkpt lat="50.59302" lon="2.94429">
        <ele>24.2</ele>
        <time>2023-08-05T16:15:11Z</time>
      </trkpt>
      <trkpt lat="50.59304" lon="2.9444">
        <ele>24.2</ele>
        <time>2023-08-05T16:15:12Z</time>
      </trkpt>
      <trkpt lat="50.59318" lon="2.9453">
        <ele>24.2</ele>
        <time>2023-08-05T16:15:20Z</time>
      </trkpt>
      <trkpt lat="50.5932" lon="2.94541">
        <ele>24.2</ele>
        <time>2023-08-05T16:15:21Z</time>
      </trkpt>
      <trkpt lat="50.59322" lon="2.94552">
        <ele>24.2</ele>
        <time>2023-08-05T16:15:22Z</time>
      </trkpt>
      <trkpt lat="50.59324" lon="2.94562">
        <ele>24.2</ele>
        <time>2023-08-05T16:15:23Z</time>
      </trkpt>
      <trkpt lat="50.59325" lon="2.94573">
        <ele>24</ele>
        <time>2023-08-05T16:15:24Z</time>
      </trkpt>
      <trkpt lat="50.59327" lon="2.94583">
        <ele>24</ele>
        <time>2023-08-05T16:15:25Z</time>
      </trkpt>
      <trkpt lat="50.59328" lon="2.94593">
        <ele>24</ele>
        <time>2023-08-05T16:15:26Z</time>
      </trkpt>
      <trkpt lat="50.59328" lon="2.94604">
        <ele>24</ele>
        <time>2023-08-05T16:15:27Z</time>
      </trkpt>
      <trkpt lat="50.59326" lon="2.94614">
        <ele>24</ele>
        <time>2023-08-05T16:15:28Z</time>
      </trkpt>
      <trkpt lat="50.59322" lon="2.94621">
        <ele>24</ele>
        <time>2023-08-05T16:15:29Z</time>
      </trkpt>
      <trkpt lat="50.59318" lon="2.94627">
        <ele>24</ele>
        <time>2023-08-05T16:15:30Z</time>
      </trkpt>
      <trkpt lat="50.59313" lon="2.94631">
        <ele>24</ele>
        <time>2023-08-05T16:15:31Z</time>
      </trkpt>
      <trkpt lat="50.59308" lon="2.94636">
        <ele>24</ele>
        <time>2023-08-05T16:15:32Z</time>
      </trkpt>
      <trkpt lat="50.59304" lon="2.9464">
        <ele>24</ele>
        <time>2023-08-05T16:15:33Z</time>
      </trkpt>
      <trkpt lat="50.59298" lon="2.94646">
        <ele>24</ele>
        <time>2023-08-05T16:15:34Z</time>
      </trkpt>
      <trkpt lat="50.59288" lon="2.94654">
        <ele>23.8</ele>
        <time>2023-08-05T16:15:36Z</time>
      </trkpt>
      <trkpt lat="50.59283" lon="2.94658">
        <ele>23.8</ele>
        <time>2023-08-05T16:15:37Z</time>
      </trkpt>
      <trkpt lat="50.59278" lon="2.94662">
        <ele>23.8</ele>
        <time>2023-08-05T16:15:38Z</time>
      </trkpt>
      <trkpt lat="50.59273" lon="2.94668">
        <ele>23.6</ele>
        <time>2023-08-05T16:15:39Z</time>
      </trkpt>
      <trkpt lat="50.59268" lon="2.94673">
        <ele>23.6</ele>
        <time>2023-08-05T16:15:40Z</time>
      </trkpt>
      <trkpt lat="50.5926" lon="2.94682">
        <ele>23.4</ele>
        <time>2023-08-05T16:15:42Z</time>
      </trkpt>
      <trkpt lat="50.59256" lon="2.94687">
        <ele>23.4</ele>
        <time>2023-08-05T16:15:43Z</time>
      </trkpt>
      <trkpt lat="50.59251" lon="2.94693">
        <ele>23.4</ele>
        <time>2023-08-05T16:15:44Z</time>
      </trkpt>
      <trkpt lat="50.59246" lon="2.94698">
        <ele>23.4</ele>
        <time>2023-08-05T16:15:45Z</time>
      </trkpt>
      <trkpt lat="50.59243" lon="2.94702">
        <ele>23.4</ele>
        <time>2023-08-05T16:15:46Z</time>
      </trkpt>
      <trkpt lat="50.59239" lon="2.94708">
        <ele>23.4</ele>
        <time>2023-08-05T16:15:47Z</time>
      </trkpt>
      <trkpt lat="50.59235" lon="2.94713">
        <ele>23.4</ele>
        <time>2023-08-05T16:15:48Z</time>
      </trkpt>
      <trkpt lat="50.59229" lon="2.94719">
        <ele>23</ele>
        <time>2023-08-05T16:15:49Z</time>
      </trkpt>
      <trkpt lat="50.59225" lon="2.94724">
        <ele>23</ele>
        <time>2023-08-05T16:15:50Z</time>
      </trkpt>
      <trkpt lat="50.59222" lon="2.94728">
        <ele>23</ele>
        <time>2023-08-05T16:15:51Z</time>
      </trkpt>
      <trkpt lat="50.59217" lon="2.94733">
        <ele>23</ele>
        <time>2023-08-05T16:15:52Z</time>
      </trkpt>
      <trkpt lat="50.59213" lon="2.94738">
        <ele>23</ele>
        <time>2023-08-05T16:15:53Z</time>
      </trkpt>
      <trkpt lat="50.59208" lon="2.94744">
        <ele>22.8</ele>
        <time>2023-08-05T16:15:54Z</time>
      </trkpt>
      <trkpt lat="50.59205" lon="2.94749">
        <ele>22.8</ele>
        <time>2023-08-05T16:15:55Z</time>
      </trkpt>
      <trkpt lat="50.59194" lon="2.94764">
        <ele>22.6</ele>
        <time>2023-08-05T16:15:58Z</time>
      </trkpt>
      <trkpt lat="50.59189" lon="2.9477">
        <ele>22.6</ele>
        <time>2023-08-05T16:15:59Z</time>
      </trkpt>
      <trkpt lat="50.59185" lon="2.94776">
        <ele>22.6</ele>
        <time>2023-08-05T16:16:00Z</time>
      </trkpt>
      <trkpt lat="50.59182" lon="2.94782">
        <ele>22.6</ele>
        <time>2023-08-05T16:16:01Z</time>
      </trkpt>
      <trkpt lat="50.59179" lon="2.94788">
        <ele>22.6</ele>
        <time>2023-08-05T16:16:02Z</time>
      </trkpt>
      <trkpt lat="50.59175" lon="2.94801">
        <ele>22.4</ele>
        <time>2023-08-05T16:16:04Z</time>
      </trkpt>
      <trkpt lat="50.59174" lon="2.94808">
        <ele>22.4</ele>
        <time>2023-08-05T16:16:05Z</time>
      </trkpt>
      <trkpt lat="50.59175" lon="2.94815">
        <ele>22.8</ele>
        <time>2023-08-05T16:16:06Z</time>
      </trkpt>
      <trkpt lat="50.59176" lon="2.9482">
        <ele>22.8</ele>
        <time>2023-08-05T16:16:07Z</time>
      </trkpt>
      <trkpt lat="50.59177" lon="2.94826">
        <ele>22.8</ele>
        <time>2023-08-05T16:16:08Z</time>
      </trkpt>
      <trkpt lat="50.59181" lon="2.94832">
        <ele>23</ele>
        <time>2023-08-05T16:16:09Z</time>
      </trkpt>
      <trkpt lat="50.59184" lon="2.94837">
        <ele>23</ele>
        <time>2023-08-05T16:16:10Z</time>
      </trkpt>
      <trkpt lat="50.59186" lon="2.94843">
        <ele>23</ele>
        <time>2023-08-05T16:16:11Z</time>
      </trkpt>
      <trkpt lat="50.59188" lon="2.94849">
        <ele>23</ele>
        <time>2023-08-05T16:16:12Z</time>
      </trkpt>
      <trkpt lat="50.59188" lon="2.94856">
        <ele>23</ele>
        <time>2023-08-05T16:16:13Z</time>
      </trkpt>
      <trkpt lat="50.59187" lon="2.94865">
        <ele>23</ele>
        <time>2023-08-05T16:16:14Z</time>
      </trkpt>
      <trkpt lat="50.59184" lon="2.94872">
        <ele>23</ele>
        <time>2023-08-05T16:16:15Z</time>
      </trkpt>
      <trkpt lat="50.59178" lon="2.94886">
        <ele>23</ele>
        <time>2023-08-05T16:16:17Z</time>
      </trkpt>
      <trkpt lat="50.59175" lon="2.94891">
        <ele>23</ele>
        <time>2023-08-05T16:16:18Z</time>
      </trkpt>
      <trkpt lat="50.5917" lon="2.94898">
        <ele>23</ele>
        <time>2023-08-05T16:16:19Z</time>
      </trkpt>
      <trkpt lat="50.59161" lon="2.9491">
        <ele>22.6</ele>
        <time>2023-08-05T16:16:21Z</time>
      </trkpt>
      <trkpt lat="50.59129" lon="2.94945">
        <ele>22</ele>
        <time>2023-08-05T16:16:28Z</time>
      </trkpt>
      <trkpt lat="50.5912" lon="2.94954">
        <ele>22</ele>
        <time>2023-08-05T16:16:30Z</time>
      </trkpt>
      <trkpt lat="50.59085" lon="2.95">
        <ele>21.6</ele>
        <time>2023-08-05T16:16:38Z</time>
      </trkpt>
      <trkpt lat="50.59049" lon="2.95055">
        <ele>21.8</ele>
        <time>2023-08-05T16:16:47Z</time>
      </trkpt>
      <trkpt lat="50.59042" lon="2.95066">
        <ele>22</ele>
        <time>2023-08-05T16:16:49Z</time>
      </trkpt>
      <trkpt lat="50.59039" lon="2.95073">
        <ele>22</ele>
        <time>2023-08-05T16:16:50Z</time>
      </trkpt>
      <trkpt lat="50.59035" lon="2.95081">
        <ele>22</ele>
        <time>2023-08-05T16:16:51Z</time>
      </trkpt>
      <trkpt lat="50.59032" lon="2.95088">
        <ele>22</ele>
        <time>2023-08-05T16:16:52Z</time>
      </trkpt>
      <trkpt lat="50.59028" lon="2.95094">
        <ele>22</ele>
        <time>2023-08-05T16:16:53Z</time>
      </trkpt>
      <trkpt lat="50.59025" lon="2.951">
        <ele>22</ele>
        <time>2023-08-05T16:16:54Z</time>
      </trkpt>
      <trkpt lat="50.59021" lon="2.95107">
        <ele>22</ele>
        <time>2023-08-05T16:16:55Z</time>
      </trkpt>
      <trkpt lat="50.58981" lon="2.95173">
        <ele>22.4</ele>
        <time>2023-08-05T16:17:05Z</time>
      </trkpt>
      <trkpt lat="50.5895" lon="2.95209">
        <ele>22.6</ele>
        <time>2023-08-05T16:17:12Z</time>
      </trkpt>
      <trkpt lat="50.58945" lon="2.95213">
        <ele>22.6</ele>
        <time>2023-08-05T16:17:13Z</time>
      </trkpt>
      <trkpt lat="50.58941" lon="2.95218">
        <ele>22.6</ele>
        <time>2023-08-05T16:17:14Z</time>
      </trkpt>
      <trkpt lat="50.58936" lon="2.95222">
        <ele>22.6</ele>
        <time>2023-08-05T16:17:15Z</time>
      </trkpt>
      <trkpt lat="50.58932" lon="2.95227">
        <ele>22.6</ele>
        <time>2023-08-05T16:17:16Z</time>
      </trkpt>
      <trkpt lat="50.58927" lon="2.95232">
        <ele>22.6</ele>
        <time>2023-08-05T16:17:17Z</time>
      </trkpt>
      <trkpt lat="50.58923" lon="2.95236">
        <ele>22.6</ele>
        <time>2023-08-05T16:17:18Z</time>
      </trkpt>
      <trkpt lat="50.58914" lon="2.95246">
        <ele>22.6</ele>
        <time>2023-08-05T16:17:20Z</time>
      </trkpt>
      <trkpt lat="50.58909" lon="2.9525">
        <ele>22.8</ele>
        <time>2023-08-05T16:17:21Z</time>
      </trkpt>
      <trkpt lat="50.58905" lon="2.95254">
        <ele>22.8</ele>
        <time>2023-08-05T16:17:22Z</time>
      </trkpt>
      <trkpt lat="50.589" lon="2.95259">
        <ele>22.8</ele>
        <time>2023-08-05T16:17:23Z</time>
      </trkpt>
      <trkpt lat="50.58896" lon="2.95263">
        <ele>22.8</ele>
        <time>2023-08-05T16:17:24Z</time>
      </trkpt>
      <trkpt lat="50.58892" lon="2.95267">
        <ele>22.8</ele>
        <time>2023-08-05T16:17:25Z</time>
      </trkpt>
      <trkpt lat="50.58888" lon="2.95272">
        <ele>22.8</ele>
        <time>2023-08-05T16:17:26Z</time>
      </trkpt>
      <trkpt lat="50.58883" lon="2.95276">
        <ele>22.8</ele>
        <time>2023-08-05T16:17:27Z</time>
      </trkpt>
      <trkpt lat="50.58879" lon="2.95281">
        <ele>22.8</ele>
        <time>2023-08-05T16:17:28Z</time>
      </trkpt>
      <trkpt lat="50.58875" lon="2.95285">
        <ele>22.8</ele>
        <time>2023-08-05T16:17:29Z</time>
      </trkpt>
      <trkpt lat="50.58826" lon="2.95331">
        <ele>23</ele>
        <time>2023-08-05T16:17:40Z</time>
      </trkpt>
      <trkpt lat="50.58816" lon="2.95339">
        <ele>23</ele>
        <time>2023-08-05T16:17:42Z</time>
      </trkpt>
      <trkpt lat="50.58798" lon="2.95354">
        <ele>23</ele>
        <time>2023-08-05T16:17:46Z</time>
      </trkpt>
      <trkpt lat="50.58784" lon="2.95368">
        <ele>23.2</ele>
        <time>2023-08-05T16:17:49Z</time>
      </trkpt>
      <trkpt lat="50.58752" lon="2.95409">
        <ele>23</ele>
        <time>2023-08-05T16:17:57Z</time>
      </trkpt>
      <trkpt lat="50.58728" lon="2.9544">
        <ele>23</ele>
        <time>2023-08-05T16:18:03Z</time>
      </trkpt>
      <trkpt lat="50.58724" lon="2.95445">
        <ele>23</ele>
        <time>2023-08-05T16:18:04Z</time>
      </trkpt>
      <trkpt lat="50.5872" lon="2.9545">
        <ele>23</ele>
        <time>2023-08-05T16:18:05Z</time>
      </trkpt>
      <trkpt lat="50.58709" lon="2.95466">
        <ele>23</ele>
        <time>2023-08-05T16:18:08Z</time>
      </trkpt>
      <trkpt lat="50.58705" lon="2.95471">
        <ele>23</ele>
        <time>2023-08-05T16:18:09Z</time>
      </trkpt>
      <trkpt lat="50.58702" lon="2.95476">
        <ele>23</ele>
        <time>2023-08-05T16:18:10Z</time>
      </trkpt>
      <trkpt lat="50.58698" lon="2.95481">
        <ele>23</ele>
        <time>2023-08-05T16:18:11Z</time>
      </trkpt>
      <trkpt lat="50.58695" lon="2.95485">
        <ele>23</ele>
        <time>2023-08-05T16:18:12Z</time>
      </trkpt>
      <trkpt lat="50.58691" lon="2.9549">
        <ele>23</ele>
        <time>2023-08-05T16:18:13Z</time>
      </trkpt>
      <trkpt lat="50.58657" lon="2.95529">
        <ele>23</ele>
        <time>2023-08-05T16:18:21Z</time>
      </trkpt>
      <trkpt lat="50.58639" lon="2.95546">
        <ele>23</ele>
        <time>2023-08-05T16:18:25Z</time>
      </trkpt>
      <trkpt lat="50.58629" lon="2.95553">
        <ele>22.8</ele>
        <time>2023-08-05T16:18:27Z</time>
      </trkpt>
      <trkpt lat="50.58624" lon="2.95554">
        <ele>22.6</ele>
        <time>2023-08-05T16:18:28Z</time>
      </trkpt>
      <trkpt lat="50.58619" lon="2.95554">
        <ele>22.4</ele>
        <time>2023-08-05T16:18:29Z</time>
      </trkpt>
      <trkpt lat="50.58614" lon="2.95553">
        <ele>22.4</ele>
        <time>2023-08-05T16:18:30Z</time>
      </trkpt>
      <trkpt lat="50.58609" lon="2.9555">
        <ele>22.2</ele>
        <time>2023-08-05T16:18:31Z</time>
      </trkpt>
      <trkpt lat="50.58605" lon="2.95546">
        <ele>22.2</ele>
        <time>2023-08-05T16:18:32Z</time>
      </trkpt>
      <trkpt lat="50.58601" lon="2.95541">
        <ele>22.2</ele>
        <time>2023-08-05T16:18:33Z</time>
      </trkpt>
      <trkpt lat="50.58598" lon="2.95536">
        <ele>22</ele>
        <time>2023-08-05T16:18:34Z</time>
      </trkpt>
      <trkpt lat="50.58594" lon="2.95531">
        <ele>21.8</ele>
        <time>2023-08-05T16:18:35Z</time>
      </trkpt>
      <trkpt lat="50.58591" lon="2.95525">
        <ele>21.8</ele>
        <time>2023-08-05T16:18:36Z</time>
      </trkpt>
      <trkpt lat="50.58587" lon="2.95521">
        <ele>21.8</ele>
        <time>2023-08-05T16:18:37Z</time>
      </trkpt>
      <trkpt lat="50.58583" lon="2.95518">
        <ele>21.6</ele>
        <time>2023-08-05T16:18:38Z</time>
      </trkpt>
      <trkpt lat="50.58578" lon="2.95516">
        <ele>21.6</ele>
        <time>2023-08-05T16:18:39Z</time>
      </trkpt>
      <trkpt lat="50.58574" lon="2.95515">
        <ele>21.6</ele>
        <time>2023-08-05T16:18:40Z</time>
      </trkpt>
      <trkpt lat="50.58569" lon="2.95515">
        <ele>21.6</ele>
        <time>2023-08-05T16:18:41Z</time>
      </trkpt>
      <trkpt lat="50.58565" lon="2.95518">
        <ele>21.6</ele>
        <time>2023-08-05T16:18:42Z</time>
      </trkpt>
      <trkpt lat="50.58561" lon="2.95521">
        <ele>21.6</ele>
        <time>2023-08-05T16:18:43Z</time>
      </trkpt>
      <trkpt lat="50.58557" lon="2.95525">
        <ele>21.6</ele>
        <time>2023-08-05T16:18:44Z</time>
      </trkpt>
      <trkpt lat="50.58553" lon="2.9553">
        <ele>21.6</ele>
        <time>2023-08-05T16:18:45Z</time>
      </trkpt>
      <trkpt lat="50.58549" lon="2.95534">
        <ele>21.6</ele>
        <time>2023-08-05T16:18:46Z</time>
      </trkpt>
      <trkpt lat="50.58542" lon="2.95542">
        <ele>21.6</ele>
        <time>2023-08-05T16:18:48Z</time>
      </trkpt>
      <trkpt lat="50.58534" lon="2.9555">
        <ele>21.8</ele>
        <time>2023-08-05T16:18:50Z</time>
      </trkpt>
      <trkpt lat="50.58531" lon="2.95554">
        <ele>21.8</ele>
        <time>2023-08-05T16:18:51Z</time>
      </trkpt>
      <trkpt lat="50.58527" lon="2.95558">
        <ele>22</ele>
        <time>2023-08-05T16:18:52Z</time>
      </trkpt>
      <trkpt lat="50.58511" lon="2.95574">
        <ele>22.2</ele>
        <time>2023-08-05T16:18:56Z</time>
      </trkpt>
      <trkpt lat="50.5848" lon="2.95607">
        <ele>22.2</ele>
        <time>2023-08-05T16:19:04Z</time>
      </trkpt>
      <trkpt lat="50.58468" lon="2.95618">
        <ele>21.8</ele>
        <time>2023-08-05T16:19:07Z</time>
      </trkpt>
      <trkpt lat="50.5846" lon="2.95627">
        <ele>21.6</ele>
        <time>2023-08-05T16:19:09Z</time>
      </trkpt>
      <trkpt lat="50.58448" lon="2.95638">
        <ele>21.4</ele>
        <time>2023-08-05T16:19:12Z</time>
      </trkpt>
      <trkpt lat="50.58438" lon="2.95643">
        <ele>21.4</ele>
        <time>2023-08-05T16:19:14Z</time>
      </trkpt>
      <trkpt lat="50.58429" lon="2.95639">
        <ele>21.4</ele>
        <time>2023-08-05T16:19:16Z</time>
      </trkpt>
      <trkpt lat="50.58427" lon="2.95634">
        <ele>21.4</ele>
        <time>2023-08-05T16:19:17Z</time>
      </trkpt>
      <trkpt lat="50.58418" lon="2.95617">
        <ele>21.4</ele>
        <time>2023-08-05T16:19:20Z</time>
      </trkpt>
      <trkpt lat="50.58415" lon="2.95612">
        <ele>21.4</ele>
        <time>2023-08-05T16:19:21Z</time>
      </trkpt>
      <trkpt lat="50.58412" lon="2.95607">
        <ele>21.4</ele>
        <time>2023-08-05T16:19:22Z</time>
      </trkpt>
      <trkpt lat="50.58409" lon="2.95601">
        <ele>21.4</ele>
        <time>2023-08-05T16:19:23Z</time>
      </trkpt>
      <trkpt lat="50.58406" lon="2.95596">
        <ele>21.4</ele>
        <time>2023-08-05T16:19:24Z</time>
      </trkpt>
      <trkpt lat="50.58403" lon="2.95591">
        <ele>21.4</ele>
        <time>2023-08-05T16:19:25Z</time>
      </trkpt>
      <trkpt lat="50.58399" lon="2.95585">
        <ele>21.4</ele>
        <time>2023-08-05T16:19:26Z</time>
      </trkpt>
      <trkpt lat="50.58396" lon="2.9558">
        <ele>21.4</ele>
        <time>2023-08-05T16:19:27Z</time>
      </trkpt>
      <trkpt lat="50.5839" lon="2.9557">
        <ele>21.2</ele>
        <time>2023-08-05T16:19:29Z</time>
      </trkpt>
      <trkpt lat="50.58386" lon="2.95569">
        <ele>21.2</ele>
        <time>2023-08-05T16:19:30Z</time>
      </trkpt>
      <trkpt lat="50.58381" lon="2.95569">
        <ele>21.2</ele>
        <time>2023-08-05T16:19:31Z</time>
      </trkpt>
      <trkpt lat="50.58373" lon="2.95576">
        <ele>21.2</ele>
        <time>2023-08-05T16:19:33Z</time>
      </trkpt>
      <trkpt lat="50.58367" lon="2.95586">
        <ele>21.2</ele>
        <time>2023-08-05T16:19:35Z</time>
      </trkpt>
      <trkpt lat="50.58364" lon="2.95592">
        <ele>21</ele>
        <time>2023-08-05T16:19:36Z</time>
      </trkpt>
      <trkpt lat="50.58361" lon="2.95597">
        <ele>21</ele>
        <time>2023-08-05T16:19:37Z</time>
      </trkpt>
      <trkpt lat="50.58359" lon="2.95603">
        <ele>20.8</ele>
        <time>2023-08-05T16:19:38Z</time>
      </trkpt>
      <trkpt lat="50.58356" lon="2.95608">
        <ele>20.8</ele>
        <time>2023-08-05T16:19:39Z</time>
      </trkpt>
      <trkpt lat="50.58354" lon="2.95613">
        <ele>20.6</ele>
        <time>2023-08-05T16:19:40Z</time>
      </trkpt>
      <trkpt lat="50.58352" lon="2.95619">
        <ele>20.4</ele>
        <time>2023-08-05T16:19:41Z</time>
      </trkpt>
      <trkpt lat="50.58346" lon="2.9563">
        <ele>20</ele>
        <time>2023-08-05T16:19:43Z</time>
      </trkpt>
      <trkpt lat="50.5834" lon="2.95638">
        <ele>20</ele>
        <time>2023-08-05T16:19:45Z</time>
      </trkpt>
      <trkpt lat="50.58337" lon="2.95643">
        <ele>19.8</ele>
        <time>2023-08-05T16:19:46Z</time>
      </trkpt>
      <trkpt lat="50.5832" lon="2.95665">
        <ele>19.8</ele>
        <time>2023-08-05T16:19:51Z</time>
      </trkpt>
      <trkpt lat="50.5831" lon="2.95679">
        <ele>19.8</ele>
        <time>2023-08-05T16:19:54Z</time>
      </trkpt>
      <trkpt lat="50.58288" lon="2.95707">
        <ele>20</ele>
        <time>2023-08-05T16:20:00Z</time>
      </trkpt>
      <trkpt lat="50.58284" lon="2.9571">
        <ele>20</ele>
        <time>2023-08-05T16:20:01Z</time>
      </trkpt>
      <trkpt lat="50.58252" lon="2.95724">
        <ele>19.8</ele>
        <time>2023-08-05T16:20:08Z</time>
      </trkpt>
      <trkpt lat="50.58226" lon="2.95737">
        <ele>20.2</ele>
        <time>2023-08-05T16:20:14Z</time>
      </trkpt>
      <trkpt lat="50.58222" lon="2.9574">
        <ele>20.2</ele>
        <time>2023-08-05T16:20:15Z</time>
      </trkpt>
      <trkpt lat="50.58218" lon="2.95742">
        <ele>20.2</ele>
        <time>2023-08-05T16:20:16Z</time>
      </trkpt>
      <trkpt lat="50.58214" lon="2.95745">
        <ele>20.2</ele>
        <time>2023-08-05T16:20:17Z</time>
      </trkpt>
      <trkpt lat="50.5821" lon="2.95747">
        <ele>20.2</ele>
        <time>2023-08-05T16:20:18Z</time>
      </trkpt>
      <trkpt lat="50.58206" lon="2.95749">
        <ele>20.2</ele>
        <time>2023-08-05T16:20:19Z</time>
      </trkpt>
      <trkpt lat="50.58197" lon="2.9575">
        <ele>20.2</ele>
        <time>2023-08-05T16:20:21Z</time>
      </trkpt>
      <trkpt lat="50.58193" lon="2.95749">
        <ele>20.2</ele>
        <time>2023-08-05T16:20:22Z</time>
      </trkpt>
      <trkpt lat="50.58188" lon="2.95747">
        <ele>20.2</ele>
        <time>2023-08-05T16:20:23Z</time>
      </trkpt>
      <trkpt lat="50.58185" lon="2.95745">
        <ele>20.2</ele>
        <time>2023-08-05T16:20:24Z</time>
      </trkpt>
      <trkpt lat="50.58181" lon="2.95742">
        <ele>20.2</ele>
        <time>2023-08-05T16:20:25Z</time>
      </trkpt>
      <trkpt lat="50.58177" lon="2.95739">
        <ele>20.2</ele>
        <time>2023-08-05T16:20:26Z</time>
      </trkpt>
      <trkpt lat="50.58173" lon="2.95737">
        <ele>20.2</ele>
        <time>2023-08-05T16:20:27Z</time>
      </trkpt>
      <trkpt lat="50.58169" lon="2.95736">
        <ele>20.2</ele>
        <time>2023-08-05T16:20:28Z</time>
      </trkpt>
      <trkpt lat="50.58147" lon="2.95738">
        <ele>20.2</ele>
        <time>2023-08-05T16:20:33Z</time>
      </trkpt>
      <trkpt lat="50.58143" lon="2.95739">
        <ele>20.2</ele>
        <time>2023-08-05T16:20:34Z</time>
      </trkpt>
      <trkpt lat="50.58123" lon="2.95753">
        <ele>20</ele>
        <time>2023-08-05T16:20:39Z</time>
      </trkpt>
      <trkpt lat="50.58091" lon="2.95776">
        <ele>20</ele>
        <time>2023-08-05T16:20:47Z</time>
      </trkpt>
      <trkpt lat="50.58088" lon="2.95779">
        <ele>20</ele>
        <time>2023-08-05T16:20:48Z</time>
      </trkpt>
      <trkpt lat="50.58084" lon="2.95783">
        <ele>20</ele>
        <time>2023-08-05T16:20:49Z</time>
      </trkpt>
      <trkpt lat="50.58081" lon="2.95786">
        <ele>20</ele>
        <time>2023-08-05T16:20:50Z</time>
      </trkpt>
      <trkpt lat="50.58077" lon="2.9579">
        <ele>20.2</ele>
        <time>2023-08-05T16:20:51Z</time>
      </trkpt>
      <trkpt lat="50.58057" lon="2.95816">
        <ele>20.2</ele>
        <time>2023-08-05T16:20:57Z</time>
      </trkpt>
      <trkpt lat="50.58048" lon="2.9583">
        <ele>20.4</ele>
        <time>2023-08-05T16:21:00Z</time>
      </trkpt>
      <trkpt lat="50.58043" lon="2.95841">
        <ele>20.4</ele>
        <time>2023-08-05T16:21:02Z</time>
      </trkpt>
      <trkpt lat="50.58041" lon="2.95847">
        <ele>20.2</ele>
        <time>2023-08-05T16:21:03Z</time>
      </trkpt>
      <trkpt lat="50.58039" lon="2.95854">
        <ele>20.2</ele>
        <time>2023-08-05T16:21:04Z</time>
      </trkpt>
      <trkpt lat="50.58029" lon="2.95894">
        <ele>20.2</ele>
        <time>2023-08-05T16:21:10Z</time>
      </trkpt>
      <trkpt lat="50.58018" lon="2.95938">
        <ele>20</ele>
        <time>2023-08-05T16:21:17Z</time>
      </trkpt>
      <trkpt lat="50.58017" lon="2.95944">
        <ele>20</ele>
        <time>2023-08-05T16:21:18Z</time>
      </trkpt>
      <trkpt lat="50.58016" lon="2.9595">
        <ele>20</ele>
        <time>2023-08-05T16:21:19Z</time>
      </trkpt>
      <trkpt lat="50.58015" lon="2.95956">
        <ele>19.8</ele>
        <time>2023-08-05T16:21:20Z</time>
      </trkpt>
      <trkpt lat="50.58013" lon="2.95961">
        <ele>19.8</ele>
        <time>2023-08-05T16:21:21Z</time>
      </trkpt>
      <trkpt lat="50.58012" lon="2.95967">
        <ele>19.8</ele>
        <time>2023-08-05T16:21:22Z</time>
      </trkpt>
      <trkpt lat="50.5801" lon="2.95972">
        <ele>19.8</ele>
        <time>2023-08-05T16:21:23Z</time>
      </trkpt>
      <trkpt lat="50.58008" lon="2.95978">
        <ele>20</ele>
        <time>2023-08-05T16:21:24Z</time>
      </trkpt>
      <trkpt lat="50.58007" lon="2.95983">
        <ele>20</ele>
        <time>2023-08-05T16:21:25Z</time>
      </trkpt>
      <trkpt lat="50.58005" lon="2.95989">
        <ele>20</ele>
        <time>2023-08-05T16:21:26Z</time>
      </trkpt>
      <trkpt lat="50.58004" lon="2.95994">
        <ele>20</ele>
        <time>2023-08-05T16:21:27Z</time>
      </trkpt>
      <trkpt lat="50.58002" lon="2.95999">
        <ele>20.2</ele>
        <time>2023-08-05T16:21:28Z</time>
      </trkpt>
      <trkpt lat="50.57999" lon="2.96003">
        <ele>20.2</ele>
        <time>2023-08-05T16:21:29Z</time>
      </trkpt>
      <trkpt lat="50.57997" lon="2.96008">
        <ele>20.2</ele>
        <time>2023-08-05T16:21:30Z</time>
      </trkpt>
      <trkpt lat="50.57995" lon="2.96012">
        <ele>20.2</ele>
        <time>2023-08-05T16:21:31Z</time>
      </trkpt>
      <trkpt lat="50.57993" lon="2.96017">
        <ele>20.2</ele>
        <time>2023-08-05T16:21:32Z</time>
      </trkpt>
      <trkpt lat="50.57978" lon="2.96062">
        <ele>20</ele>
        <time>2023-08-05T16:21:39Z</time>
      </trkpt>
      <trkpt lat="50.5797" lon="2.96086">
        <ele>20</ele>
        <time>2023-08-05T16:21:43Z</time>
      </trkpt>
      <trkpt lat="50.57968" lon="2.96091">
        <ele>20</ele>
        <time>2023-08-05T16:21:44Z</time>
      </trkpt>
      <trkpt lat="50.57966" lon="2.96096">
        <ele>20</ele>
        <time>2023-08-05T16:21:45Z</time>
      </trkpt>
      <trkpt lat="50.57964" lon="2.96101">
        <ele>20</ele>
        <time>2023-08-05T16:21:46Z</time>
      </trkpt>
      <trkpt lat="50.57954" lon="2.96126">
        <ele>20</ele>
        <time>2023-08-05T16:21:50Z</time>
      </trkpt>
      <trkpt lat="50.57946" lon="2.96144">
        <ele>20</ele>
        <time>2023-08-05T16:21:53Z</time>
      </trkpt>
      <trkpt lat="50.57943" lon="2.96151">
        <ele>20</ele>
        <time>2023-08-05T16:21:54Z</time>
      </trkpt>
      <trkpt lat="50.57936" lon="2.96163">
        <ele>20</ele>
        <time>2023-08-05T16:21:56Z</time>
      </trkpt>
      <trkpt lat="50.57916" lon="2.96196">
        <ele>20</ele>
        <time>2023-08-05T16:22:02Z</time>
      </trkpt>
      <trkpt lat="50.57912" lon="2.96201">
        <ele>20</ele>
        <time>2023-08-05T16:22:03Z</time>
      </trkpt>
      <trkpt lat="50.57908" lon="2.96207">
        <ele>20</ele>
        <time>2023-08-05T16:22:04Z</time>
      </trkpt>
      <trkpt lat="50.57904" lon="2.96212">
        <ele>20</ele>
        <time>2023-08-05T16:22:05Z</time>
      </trkpt>
      <trkpt lat="50.57896" lon="2.96223">
        <ele>20</ele>
        <time>2023-08-05T16:22:07Z</time>
      </trkpt>
      <trkpt lat="50.57887" lon="2.96236">
        <ele>20.2</ele>
        <time>2023-08-05T16:22:09Z</time>
      </trkpt>
      <trkpt lat="50.57882" lon="2.96242">
        <ele>20.4</ele>
        <time>2023-08-05T16:22:10Z</time>
      </trkpt>
      <trkpt lat="50.57874" lon="2.96253">
        <ele>20.2</ele>
        <time>2023-08-05T16:22:12Z</time>
      </trkpt>
      <trkpt lat="50.57858" lon="2.96274">
        <ele>20.2</ele>
        <time>2023-08-05T16:22:16Z</time>
      </trkpt>
      <trkpt lat="50.57853" lon="2.9628">
        <ele>20.2</ele>
        <time>2023-08-05T16:22:17Z</time>
      </trkpt>
      <trkpt lat="50.57848" lon="2.96287">
        <ele>20</ele>
        <time>2023-08-05T16:22:18Z</time>
      </trkpt>
      <trkpt lat="50.57839" lon="2.96303">
        <ele>20</ele>
        <time>2023-08-05T16:22:21Z</time>
      </trkpt>
      <trkpt lat="50.57835" lon="2.96318">
        <ele>19.8</ele>
        <time>2023-08-05T16:22:23Z</time>
      </trkpt>
      <trkpt lat="50.57834" lon="2.96327">
        <ele>19.8</ele>
        <time>2023-08-05T16:22:24Z</time>
      </trkpt>
      <trkpt lat="50.57833" lon="2.96335">
        <ele>19.8</ele>
        <time>2023-08-05T16:22:25Z</time>
      </trkpt>
      <trkpt lat="50.57834" lon="2.96343">
        <ele>19.8</ele>
        <time>2023-08-05T16:22:26Z</time>
      </trkpt>
      <trkpt lat="50.57834" lon="2.96351">
        <ele>19.8</ele>
        <time>2023-08-05T16:22:27Z</time>
      </trkpt>
      <trkpt lat="50.57838" lon="2.9639">
        <ele>19.2</ele>
        <time>2023-08-05T16:22:32Z</time>
      </trkpt>
      <trkpt lat="50.57838" lon="2.96397">
        <ele>19.2</ele>
        <time>2023-08-05T16:22:33Z</time>
      </trkpt>
      <trkpt lat="50.57838" lon="2.96404">
        <ele>19.2</ele>
        <time>2023-08-05T16:22:34Z</time>
      </trkpt>
      <trkpt lat="50.57838" lon="2.96412">
        <ele>19</ele>
        <time>2023-08-05T16:22:35Z</time>
      </trkpt>
      <trkpt lat="50.57838" lon="2.9642">
        <ele>19</ele>
        <time>2023-08-05T16:22:36Z</time>
      </trkpt>
      <trkpt lat="50.57838" lon="2.96427">
        <ele>19</ele>
        <time>2023-08-05T16:22:37Z</time>
      </trkpt>
      <trkpt lat="50.5784" lon="2.9644">
        <ele>19</ele>
        <time>2023-08-05T16:22:39Z</time>
      </trkpt>
      <trkpt lat="50.57843" lon="2.96446">
        <ele>19</ele>
        <time>2023-08-05T16:22:40Z</time>
      </trkpt>
      <trkpt lat="50.57845" lon="2.96451">
        <ele>19</ele>
        <time>2023-08-05T16:22:41Z</time>
      </trkpt>
      <trkpt lat="50.57848" lon="2.96457">
        <ele>19</ele>
        <time>2023-08-05T16:22:42Z</time>
      </trkpt>
      <trkpt lat="50.57851" lon="2.96462">
        <ele>19</ele>
        <time>2023-08-05T16:22:43Z</time>
      </trkpt>
      <trkpt lat="50.57854" lon="2.96467">
        <ele>19</ele>
        <time>2023-08-05T16:22:44Z</time>
      </trkpt>
      <trkpt lat="50.57863" lon="2.96483">
        <ele>19.2</ele>
        <time>2023-08-05T16:22:47Z</time>
      </trkpt>
      <trkpt lat="50.5787" lon="2.96492">
        <ele>19.2</ele>
        <time>2023-08-05T16:22:49Z</time>
      </trkpt>
      <trkpt lat="50.57874" lon="2.96497">
        <ele>19.2</ele>
        <time>2023-08-05T16:22:50Z</time>
      </trkpt>
      <trkpt lat="50.57878" lon="2.96503">
        <ele>19.4</ele>
        <time>2023-08-05T16:22:51Z</time>
      </trkpt>
      <trkpt lat="50.57898" lon="2.96537">
        <ele>19.8</ele>
        <time>2023-08-05T16:22:57Z</time>
      </trkpt>
      <trkpt lat="50.57901" lon="2.96542">
        <ele>19.8</ele>
        <time>2023-08-05T16:22:58Z</time>
      </trkpt>
      <trkpt lat="50.57904" lon="2.96547">
        <ele>19.8</ele>
        <time>2023-08-05T16:22:59Z</time>
      </trkpt>
      <trkpt lat="50.57907" lon="2.96552">
        <ele>19.8</ele>
        <time>2023-08-05T16:23:00Z</time>
      </trkpt>
      <trkpt lat="50.57909" lon="2.96557">
        <ele>19.8</ele>
        <time>2023-08-05T16:23:01Z</time>
      </trkpt>
      <trkpt lat="50.57911" lon="2.96564">
        <ele>19.8</ele>
        <time>2023-08-05T16:23:02Z</time>
      </trkpt>
      <trkpt lat="50.57914" lon="2.96571">
        <ele>19.8</ele>
        <time>2023-08-05T16:23:03Z</time>
      </trkpt>
      <trkpt lat="50.57917" lon="2.96592">
        <ele>19.8</ele>
        <time>2023-08-05T16:23:06Z</time>
      </trkpt>
      <trkpt lat="50.57917" lon="2.96599">
        <ele>19.8</ele>
        <time>2023-08-05T16:23:07Z</time>
      </trkpt>
      <trkpt lat="50.57916" lon="2.96604">
        <ele>19.8</ele>
        <time>2023-08-05T16:23:08Z</time>
      </trkpt>
      <trkpt lat="50.57916" lon="2.96611">
        <ele>19.8</ele>
        <time>2023-08-05T16:23:09Z</time>
      </trkpt>
      <trkpt lat="50.57918" lon="2.96619">
        <ele>19.8</ele>
        <time>2023-08-05T16:23:10Z</time>
      </trkpt>
      <trkpt lat="50.57919" lon="2.96626">
        <ele>19.8</ele>
        <time>2023-08-05T16:23:11Z</time>
      </trkpt>
      <trkpt lat="50.57919" lon="2.96635">
        <ele>19.8</ele>
        <time>2023-08-05T16:23:12Z</time>
      </trkpt>
      <trkpt lat="50.57919" lon="2.96662">
        <ele>19.4</ele>
        <time>2023-08-05T16:23:15Z</time>
      </trkpt>
      <trkpt lat="50.57915" lon="2.96688">
        <ele>19.2</ele>
        <time>2023-08-05T16:23:18Z</time>
      </trkpt>
      <trkpt lat="50.57913" lon="2.96699">
        <ele>19.2</ele>
        <time>2023-08-05T16:23:19Z</time>
      </trkpt>
      <trkpt lat="50.5791" lon="2.96709">
        <ele>19.2</ele>
        <time>2023-08-05T16:23:20Z</time>
      </trkpt>
      <trkpt lat="50.57906" lon="2.96723">
        <ele>19.4</ele>
        <time>2023-08-05T16:23:22Z</time>
      </trkpt>
      <trkpt lat="50.579" lon="2.96734">
        <ele>19.4</ele>
        <time>2023-08-05T16:23:24Z</time>
      </trkpt>
      <trkpt lat="50.57896" lon="2.96743">
        <ele>19.4</ele>
        <time>2023-08-05T16:23:25Z</time>
      </trkpt>
      <trkpt lat="50.57887" lon="2.96756">
        <ele>19.4</ele>
        <time>2023-08-05T16:23:27Z</time>
      </trkpt>
      <trkpt lat="50.57882" lon="2.96764">
        <ele>19.4</ele>
        <time>2023-08-05T16:23:28Z</time>
      </trkpt>
      <trkpt lat="50.57878" lon="2.96769">
        <ele>19.4</ele>
        <time>2023-08-05T16:23:29Z</time>
      </trkpt>
      <trkpt lat="50.57874" lon="2.96775">
        <ele>19.4</ele>
        <time>2023-08-05T16:23:30Z</time>
      </trkpt>
      <trkpt lat="50.5787" lon="2.96779">
        <ele>19.4</ele>
        <time>2023-08-05T16:23:31Z</time>
      </trkpt>
      <trkpt lat="50.57867" lon="2.96784">
        <ele>19.2</ele>
        <time>2023-08-05T16:23:32Z</time>
      </trkpt>
      <trkpt lat="50.57863" lon="2.96789">
        <ele>19.2</ele>
        <time>2023-08-05T16:23:33Z</time>
      </trkpt>
      <trkpt lat="50.57858" lon="2.96794">
        <ele>19.2</ele>
        <time>2023-08-05T16:23:34Z</time>
      </trkpt>
      <trkpt lat="50.57839" lon="2.96812">
        <ele>19.2</ele>
        <time>2023-08-05T16:23:38Z</time>
      </trkpt>
      <trkpt lat="50.57835" lon="2.96815">
        <ele>19.2</ele>
        <time>2023-08-05T16:23:39Z</time>
      </trkpt>
      <trkpt lat="50.5783" lon="2.9682">
        <ele>19.2</ele>
        <time>2023-08-05T16:23:40Z</time>
      </trkpt>
      <trkpt lat="50.57825" lon="2.96823">
        <ele>19.2</ele>
        <time>2023-08-05T16:23:41Z</time>
      </trkpt>
      <trkpt lat="50.57816" lon="2.96829">
        <ele>19.2</ele>
        <time>2023-08-05T16:23:43Z</time>
      </trkpt>
      <trkpt lat="50.57812" lon="2.96838">
        <ele>19.2</ele>
        <time>2023-08-05T16:23:45Z</time>
      </trkpt>
      <trkpt lat="50.57814" lon="2.96842">
        <ele>19.2</ele>
        <time>2023-08-05T16:23:46Z</time>
      </trkpt>
      <trkpt lat="50.57815" lon="2.96846">
        <ele>19.2</ele>
        <time>2023-08-05T16:23:47Z</time>
      </trkpt>
      <trkpt lat="50.57817" lon="2.96849">
        <ele>19.2</ele>
        <time>2023-08-05T16:23:48Z</time>
      </trkpt>
      <trkpt lat="50.57819" lon="2.96854">
        <ele>19</ele>
        <time>2023-08-05T16:23:49Z</time>
      </trkpt>
      <trkpt lat="50.57823" lon="2.96863">
        <ele>19</ele>
        <time>2023-08-05T16:23:51Z</time>
      </trkpt>
      <trkpt lat="50.57824" lon="2.96867">
        <ele>19.2</ele>
        <time>2023-08-05T16:23:52Z</time>
      </trkpt>
      <trkpt lat="50.57826" lon="2.96871">
        <ele>19.2</ele>
        <time>2023-08-05T16:23:53Z</time>
      </trkpt>
      <trkpt lat="50.57827" lon="2.96875">
        <ele>19.2</ele>
        <time>2023-08-05T16:23:54Z</time>
      </trkpt>
      <trkpt lat="50.57829" lon="2.96878">
        <ele>19.2</ele>
        <time>2023-08-05T16:23:55Z</time>
      </trkpt>
      <trkpt lat="50.5783" lon="2.96882">
        <ele>19.8</ele>
        <time>2023-08-05T16:23:56Z</time>
      </trkpt>
      <trkpt lat="50.57831" lon="2.96885">
        <ele>19.8</ele>
        <time>2023-08-05T16:23:57Z</time>
      </trkpt>
      <trkpt lat="50.57832" lon="2.96889">
        <ele>20.4</ele>
        <time>2023-08-05T16:23:58Z</time>
      </trkpt>
      <trkpt lat="50.57834" lon="2.96893">
        <ele>20.4</ele>
        <time>2023-08-05T16:23:59Z</time>
      </trkpt>
      <trkpt lat="50.57835" lon="2.96896">
        <ele>20.6</ele>
        <time>2023-08-05T16:24:00Z</time>
      </trkpt>
      <trkpt lat="50.57837" lon="2.96899">
        <ele>21</ele>
        <time>2023-08-05T16:24:01Z</time>
      </trkpt>
      <trkpt lat="50.57839" lon="2.96903">
        <ele>21.2</ele>
        <time>2023-08-05T16:24:02Z</time>
      </trkpt>
      <trkpt lat="50.57841" lon="2.96909">
        <ele>21.2</ele>
        <time>2023-08-05T16:24:03Z</time>
      </trkpt>
      <trkpt lat="50.57843" lon="2.96916">
        <ele>21.2</ele>
        <time>2023-08-05T16:24:04Z</time>
      </trkpt>
      <trkpt lat="50.57849" lon="2.96934">
        <ele>21.2</ele>
        <time>2023-08-05T16:24:06Z</time>
      </trkpt>
      <trkpt lat="50.57856" lon="2.96949">
        <ele>21.2</ele>
        <time>2023-08-05T16:24:08Z</time>
      </trkpt>
      <trkpt lat="50.57869" lon="2.96968">
        <ele>20.4</ele>
        <time>2023-08-05T16:24:11Z</time>
      </trkpt>
      <trkpt lat="50.57877" lon="2.96978">
        <ele>20</ele>
        <time>2023-08-05T16:24:13Z</time>
      </trkpt>
      <trkpt lat="50.57882" lon="2.96986">
        <ele>20</ele>
        <time>2023-08-05T16:24:14Z</time>
      </trkpt>
      <trkpt lat="50.57885" lon="2.96994">
        <ele>19.8</ele>
        <time>2023-08-05T16:24:15Z</time>
      </trkpt>
      <trkpt lat="50.57889" lon="2.97003">
        <ele>19.8</ele>
        <time>2023-08-05T16:24:16Z</time>
      </trkpt>
      <trkpt lat="50.57891" lon="2.97012">
        <ele>19.8</ele>
        <time>2023-08-05T16:24:17Z</time>
      </trkpt>
      <trkpt lat="50.57892" lon="2.9703">
        <ele>19.8</ele>
        <time>2023-08-05T16:24:19Z</time>
      </trkpt>
      <trkpt lat="50.57891" lon="2.97041">
        <ele>19.8</ele>
        <time>2023-08-05T16:24:20Z</time>
      </trkpt>
      <trkpt lat="50.57888" lon="2.97048">
        <ele>19.8</ele>
        <time>2023-08-05T16:24:21Z</time>
      </trkpt>
      <trkpt lat="50.57885" lon="2.97055">
        <ele>19.8</ele>
        <time>2023-08-05T16:24:22Z</time>
      </trkpt>
      <trkpt lat="50.57881" lon="2.97064">
        <ele>19.4</ele>
        <time>2023-08-05T16:24:23Z</time>
      </trkpt>
      <trkpt lat="50.57878" lon="2.97072">
        <ele>19.4</ele>
        <time>2023-08-05T16:24:24Z</time>
      </trkpt>
      <trkpt lat="50.57869" lon="2.97095">
        <ele>19.2</ele>
        <time>2023-08-05T16:24:27Z</time>
      </trkpt>
      <trkpt lat="50.57867" lon="2.97106">
        <ele>19.4</ele>
        <time>2023-08-05T16:24:29Z</time>
      </trkpt>
      <trkpt lat="50.57864" lon="2.97114">
        <ele>19.4</ele>
        <time>2023-08-05T16:24:30Z</time>
      </trkpt>
      <trkpt lat="50.5786" lon="2.97129">
        <ele>19.4</ele>
        <time>2023-08-05T16:24:32Z</time>
      </trkpt>
      <trkpt lat="50.57858" lon="2.97135">
        <ele>19.4</ele>
        <time>2023-08-05T16:24:33Z</time>
      </trkpt>
      <trkpt lat="50.57855" lon="2.97143">
        <ele>19.4</ele>
        <time>2023-08-05T16:24:34Z</time>
      </trkpt>
      <trkpt lat="50.57853" lon="2.97151">
        <ele>19.8</ele>
        <time>2023-08-05T16:24:35Z</time>
      </trkpt>
      <trkpt lat="50.5785" lon="2.97159">
        <ele>19.8</ele>
        <time>2023-08-05T16:24:36Z</time>
      </trkpt>
      <trkpt lat="50.57849" lon="2.97167">
        <ele>19.8</ele>
        <time>2023-08-05T16:24:37Z</time>
      </trkpt>
      <trkpt lat="50.57848" lon="2.97174">
        <ele>19.8</ele>
        <time>2023-08-05T16:24:38Z</time>
      </trkpt>
      <trkpt lat="50.57848" lon="2.97185">
        <ele>19.8</ele>
        <time>2023-08-05T16:24:39Z</time>
      </trkpt>
      <trkpt lat="50.57844" lon="2.97215">
        <ele>19.8</ele>
        <time>2023-08-05T16:24:42Z</time>
      </trkpt>
      <trkpt lat="50.57842" lon="2.97224">
        <ele>19.8</ele>
        <time>2023-08-05T16:24:43Z</time>
      </trkpt>
      <trkpt lat="50.57839" lon="2.97234">
        <ele>19.8</ele>
        <time>2023-08-05T16:24:44Z</time>
      </trkpt>
      <trkpt lat="50.57838" lon="2.97242">
        <ele>19.8</ele>
        <time>2023-08-05T16:24:45Z</time>
      </trkpt>
      <trkpt lat="50.57838" lon="2.9725">
        <ele>20</ele>
        <time>2023-08-05T16:24:46Z</time>
      </trkpt>
      <trkpt lat="50.57836" lon="2.97265">
        <ele>20</ele>
        <time>2023-08-05T16:24:48Z</time>
      </trkpt>
      <trkpt lat="50.57834" lon="2.97275">
        <ele>20.4</ele>
        <time>2023-08-05T16:24:49Z</time>
      </trkpt>
      <trkpt lat="50.57829" lon="2.97293">
        <ele>20.4</ele>
        <time>2023-08-05T16:24:51Z</time>
      </trkpt>
      <trkpt lat="50.57828" lon="2.97302">
        <ele>20.4</ele>
        <time>2023-08-05T16:24:52Z</time>
      </trkpt>
      <trkpt lat="50.57827" lon="2.9731">
        <ele>20.4</ele>
        <time>2023-08-05T16:24:53Z</time>
      </trkpt>
      <trkpt lat="50.57826" lon="2.97317">
        <ele>20.4</ele>
        <time>2023-08-05T16:24:54Z</time>
      </trkpt>
      <trkpt lat="50.57818" lon="2.97339">
        <ele>20.4</ele>
        <time>2023-08-05T16:24:57Z</time>
      </trkpt>
      <trkpt lat="50.57814" lon="2.97347">
        <ele>20.4</ele>
        <time>2023-08-05T16:24:58Z</time>
      </trkpt>
      <trkpt lat="50.5781" lon="2.97354">
        <ele>20.4</ele>
        <time>2023-08-05T16:24:59Z</time>
      </trkpt>
      <trkpt lat="50.57807" lon="2.9736">
        <ele>20.6</ele>
        <time>2023-08-05T16:25:00Z</time>
      </trkpt>
      <trkpt lat="50.57799" lon="2.97371">
        <ele>21</ele>
        <time>2023-08-05T16:25:02Z</time>
      </trkpt>
      <trkpt lat="50.57791" lon="2.97382">
        <ele>21</ele>
        <time>2023-08-05T16:25:04Z</time>
      </trkpt>
      <trkpt lat="50.57788" lon="2.97397">
        <ele>21</ele>
        <time>2023-08-05T16:25:06Z</time>
      </trkpt>
      <trkpt lat="50.57789" lon="2.97405">
        <ele>21</ele>
        <time>2023-08-05T16:25:07Z</time>
      </trkpt>
      <trkpt lat="50.57789" lon="2.97422">
        <ele>21.2</ele>
        <time>2023-08-05T16:25:09Z</time>
      </trkpt>
      <trkpt lat="50.57789" lon="2.97432">
        <ele>21.2</ele>
        <time>2023-08-05T16:25:10Z</time>
      </trkpt>
      <trkpt lat="50.57786" lon="2.97453">
        <ele>20.8</ele>
        <time>2023-08-05T16:25:12Z</time>
      </trkpt>
      <trkpt lat="50.57785" lon="2.97473">
        <ele>20.6</ele>
        <time>2023-08-05T16:25:14Z</time>
      </trkpt>
      <trkpt lat="50.57786" lon="2.97482">
        <ele>20.4</ele>
        <time>2023-08-05T16:25:15Z</time>
      </trkpt>
      <trkpt lat="50.57787" lon="2.9749">
        <ele>20.2</ele>
        <time>2023-08-05T16:25:16Z</time>
      </trkpt>
      <trkpt lat="50.5779" lon="2.97496">
        <ele>20</ele>
        <time>2023-08-05T16:25:17Z</time>
      </trkpt>
      <trkpt lat="50.57793" lon="2.97501">
        <ele>19.8</ele>
        <time>2023-08-05T16:25:18Z</time>
      </trkpt>
      <trkpt lat="50.57796" lon="2.97507">
        <ele>19.6</ele>
        <time>2023-08-05T16:25:19Z</time>
      </trkpt>
      <trkpt lat="50.578" lon="2.97512">
        <ele>19.4</ele>
        <time>2023-08-05T16:25:20Z</time>
      </trkpt>
      <trkpt lat="50.57804" lon="2.97516">
        <ele>19.4</ele>
        <time>2023-08-05T16:25:21Z</time>
      </trkpt>
      <trkpt lat="50.57823" lon="2.9754">
        <ele>19</ele>
        <time>2023-08-05T16:25:26Z</time>
      </trkpt>
      <trkpt lat="50.57854" lon="2.97576">
        <ele>18.4</ele>
        <time>2023-08-05T16:25:33Z</time>
      </trkpt>
      <trkpt lat="50.57895" lon="2.97607">
        <ele>18</ele>
        <time>2023-08-05T16:25:41Z</time>
      </trkpt>
      <trkpt lat="50.57913" lon="2.9762">
        <ele>18.4</ele>
        <time>2023-08-05T16:25:45Z</time>
      </trkpt>
      <trkpt lat="50.57917" lon="2.97624">
        <ele>18.6</ele>
        <time>2023-08-05T16:25:46Z</time>
      </trkpt>
      <trkpt lat="50.57922" lon="2.97628">
        <ele>18.6</ele>
        <time>2023-08-05T16:25:47Z</time>
      </trkpt>
      <trkpt lat="50.57926" lon="2.97631">
        <ele>18.8</ele>
        <time>2023-08-05T16:25:48Z</time>
      </trkpt>
      <trkpt lat="50.57931" lon="2.97635">
        <ele>18.8</ele>
        <time>2023-08-05T16:25:49Z</time>
      </trkpt>
      <trkpt lat="50.57935" lon="2.97639">
        <ele>19</ele>
        <time>2023-08-05T16:25:50Z</time>
      </trkpt>
      <trkpt lat="50.57962" lon="2.97659">
        <ele>19.4</ele>
        <time>2023-08-05T16:25:56Z</time>
      </trkpt>
      <trkpt lat="50.5797" lon="2.97665">
        <ele>19.8</ele>
        <time>2023-08-05T16:25:58Z</time>
      </trkpt>
      <trkpt lat="50.57973" lon="2.97668">
        <ele>19.8</ele>
        <time>2023-08-05T16:25:59Z</time>
      </trkpt>
      <trkpt lat="50.57976" lon="2.97671">
        <ele>20</ele>
        <time>2023-08-05T16:26:00Z</time>
      </trkpt>
      <trkpt lat="50.57978" lon="2.97675">
        <ele>20.2</ele>
        <time>2023-08-05T16:26:01Z</time>
      </trkpt>
      <trkpt lat="50.5798" lon="2.97678">
        <ele>20.2</ele>
        <time>2023-08-05T16:26:02Z</time>
      </trkpt>
      <trkpt lat="50.57983" lon="2.9768">
        <ele>20.4</ele>
        <time>2023-08-05T16:26:03Z</time>
      </trkpt>
      <trkpt lat="50.57985" lon="2.97681">
        <ele>20.6</ele>
        <time>2023-08-05T16:26:04Z</time>
      </trkpt>
      <trkpt lat="50.57987" lon="2.97683">
        <ele>20.6</ele>
        <time>2023-08-05T16:26:05Z</time>
      </trkpt>
      <trkpt lat="50.57989" lon="2.97685">
        <ele>21.2</ele>
        <time>2023-08-05T16:26:06Z</time>
      </trkpt>
      <trkpt lat="50.5799" lon="2.97689">
        <ele>21.4</ele>
        <time>2023-08-05T16:26:07Z</time>
      </trkpt>
      <trkpt lat="50.5799" lon="2.97693">
        <ele>21.6</ele>
        <time>2023-08-05T16:26:08Z</time>
      </trkpt>
      <trkpt lat="50.57987" lon="2.97705">
        <ele>22.4</ele>
        <time>2023-08-05T16:26:11Z</time>
      </trkpt>
      <trkpt lat="50.57988" lon="2.9771">
        <ele>22.8</ele>
        <time>2023-08-05T16:26:12Z</time>
      </trkpt>
      <trkpt lat="50.57988" lon="2.97714">
        <ele>23</ele>
        <time>2023-08-05T16:26:13Z</time>
      </trkpt>
      <trkpt lat="50.57989" lon="2.97719">
        <ele>23.2</ele>
        <time>2023-08-05T16:26:14Z</time>
      </trkpt>
      <trkpt lat="50.57988" lon="2.97723">
        <ele>23.2</ele>
        <time>2023-08-05T16:26:15Z</time>
      </trkpt>
      <trkpt lat="50.57988" lon="2.97727">
        <ele>23.4</ele>
        <time>2023-08-05T16:26:16Z</time>
      </trkpt>
      <trkpt lat="50.57987" lon="2.97731">
        <ele>23.6</ele>
        <time>2023-08-05T16:26:17Z</time>
      </trkpt>
      <trkpt lat="50.57987" lon="2.97735">
        <ele>23.8</ele>
        <time>2023-08-05T16:26:18Z</time>
      </trkpt>
      <trkpt lat="50.57986" lon="2.97739">
        <ele>24</ele>
        <time>2023-08-05T16:26:19Z</time>
      </trkpt>
      <trkpt lat="50.57985" lon="2.97744">
        <ele>24.4</ele>
        <time>2023-08-05T16:26:20Z</time>
      </trkpt>
      <trkpt lat="50.57984" lon="2.97748">
        <ele>24.6</ele>
        <time>2023-08-05T16:26:21Z</time>
      </trkpt>
      <trkpt lat="50.57983" lon="2.97752">
        <ele>25</ele>
        <time>2023-08-05T16:26:22Z</time>
      </trkpt>
      <trkpt lat="50.57982" lon="2.97757">
        <ele>25</ele>
        <time>2023-08-05T16:26:23Z</time>
      </trkpt>
      <trkpt lat="50.57981" lon="2.97761">
        <ele>25</ele>
        <time>2023-08-05T16:26:24Z</time>
      </trkpt>
      <trkpt lat="50.5798" lon="2.97765">
        <ele>25.2</ele>
        <time>2023-08-05T16:26:25Z</time>
      </trkpt>
      <trkpt lat="50.57979" lon="2.9777">
        <ele>25.4</ele>
        <time>2023-08-05T16:26:26Z</time>
      </trkpt>
      <trkpt lat="50.57978" lon="2.97774">
        <ele>25.6</ele>
        <time>2023-08-05T16:26:27Z</time>
      </trkpt>
      <trkpt lat="50.57977" lon="2.97779">
        <ele>25.8</ele>
        <time>2023-08-05T16:26:28Z</time>
      </trkpt>
      <trkpt lat="50.57976" lon="2.97783">
        <ele>25.8</ele>
        <time>2023-08-05T16:26:29Z</time>
      </trkpt>
      <trkpt lat="50.57975" lon="2.97788">
        <ele>26.2</ele>
        <time>2023-08-05T16:26:30Z</time>
      </trkpt>
      <trkpt lat="50.57974" lon="2.97793">
        <ele>26.2</ele>
        <time>2023-08-05T16:26:31Z</time>
      </trkpt>
      <trkpt lat="50.57973" lon="2.97798">
        <ele>26.4</ele>
        <time>2023-08-05T16:26:32Z</time>
      </trkpt>
      <trkpt lat="50.57972" lon="2.97803">
        <ele>26.4</ele>
        <time>2023-08-05T16:26:33Z</time>
      </trkpt>
      <trkpt lat="50.5797" lon="2.97808">
        <ele>26.4</ele>
        <time>2023-08-05T16:26:34Z</time>
      </trkpt>
      <trkpt lat="50.57969" lon="2.97814">
        <ele>26.4</ele>
        <time>2023-08-05T16:26:35Z</time>
      </trkpt>
      <trkpt lat="50.57968" lon="2.97819">
        <ele>26.4</ele>
        <time>2023-08-05T16:26:36Z</time>
      </trkpt>
      <trkpt lat="50.57967" lon="2.97824">
        <ele>26.8</ele>
        <time>2023-08-05T16:26:37Z</time>
      </trkpt>
      <trkpt lat="50.57965" lon="2.97829">
        <ele>26.8</ele>
        <time>2023-08-05T16:26:38Z</time>
      </trkpt>
      <trkpt lat="50.57964" lon="2.97834">
        <ele>26.8</ele>
        <time>2023-08-05T16:26:39Z</time>
      </trkpt>
      <trkpt lat="50.57963" lon="2.97839">
        <ele>27</ele>
        <time>2023-08-05T16:26:40Z</time>
      </trkpt>
      <trkpt lat="50.57962" lon="2.97844">
        <ele>27</ele>
        <time>2023-08-05T16:26:41Z</time>
      </trkpt>
      <trkpt lat="50.57961" lon="2.9785">
        <ele>27</ele>
        <time>2023-08-05T16:26:42Z</time>
      </trkpt>
      <trkpt lat="50.57959" lon="2.97855">
        <ele>27</ele>
        <time>2023-08-05T16:26:43Z</time>
      </trkpt>
      <trkpt lat="50.57958" lon="2.9786">
        <ele>27</ele>
        <time>2023-08-05T16:26:44Z</time>
      </trkpt>
      <trkpt lat="50.57957" lon="2.97866">
        <ele>27</ele>
        <time>2023-08-05T16:26:45Z</time>
      </trkpt>
      <trkpt lat="50.57956" lon="2.97872">
        <ele>27</ele>
        <time>2023-08-05T16:26:46Z</time>
      </trkpt>
      <trkpt lat="50.57954" lon="2.97878">
        <ele>27</ele>
        <time>2023-08-05T16:26:47Z</time>
      </trkpt>
      <trkpt lat="50.57952" lon="2.97884">
        <ele>27</ele>
        <time>2023-08-05T16:26:48Z</time>
      </trkpt>
      <trkpt lat="50.57951" lon="2.9789">
        <ele>27</ele>
        <time>2023-08-05T16:26:49Z</time>
      </trkpt>
      <trkpt lat="50.57949" lon="2.97897">
        <ele>27</ele>
        <time>2023-08-05T16:26:50Z</time>
      </trkpt>
      <trkpt lat="50.57946" lon="2.97903">
        <ele>27</ele>
        <time>2023-08-05T16:26:51Z</time>
      </trkpt>
      <trkpt lat="50.57943" lon="2.97907">
        <ele>27</ele>
        <time>2023-08-05T16:26:52Z</time>
      </trkpt>
      <trkpt lat="50.57939" lon="2.97911">
        <ele>26.6</ele>
        <time>2023-08-05T16:26:53Z</time>
      </trkpt>
      <trkpt lat="50.57935" lon="2.97914">
        <ele>26.4</ele>
        <time>2023-08-05T16:26:54Z</time>
      </trkpt>
      <trkpt lat="50.5793" lon="2.97917">
        <ele>26.2</ele>
        <time>2023-08-05T16:26:55Z</time>
      </trkpt>
      <trkpt lat="50.57925" lon="2.97919">
        <ele>26</ele>
        <time>2023-08-05T16:26:56Z</time>
      </trkpt>
      <trkpt lat="50.57906" lon="2.97919">
        <ele>25.2</ele>
        <time>2023-08-05T16:26:59Z</time>
      </trkpt>
      <trkpt lat="50.57898" lon="2.97921">
        <ele>25</ele>
        <time>2023-08-05T16:27:00Z</time>
      </trkpt>
      <trkpt lat="50.57882" lon="2.97923">
        <ele>24.4</ele>
        <time>2023-08-05T16:27:02Z</time>
      </trkpt>
      <trkpt lat="50.57874" lon="2.97922">
        <ele>23.8</ele>
        <time>2023-08-05T16:27:03Z</time>
      </trkpt>
      <trkpt lat="50.57859" lon="2.9792">
        <ele>23</ele>
        <time>2023-08-05T16:27:05Z</time>
      </trkpt>
      <trkpt lat="50.57852" lon="2.97919">
        <ele>22.2</ele>
        <time>2023-08-05T16:27:06Z</time>
      </trkpt>
      <trkpt lat="50.57845" lon="2.97917">
        <ele>22</ele>
        <time>2023-08-05T16:27:07Z</time>
      </trkpt>
      <trkpt lat="50.57839" lon="2.97914">
        <ele>21.6</ele>
        <time>2023-08-05T16:27:08Z</time>
      </trkpt>
      <trkpt lat="50.57833" lon="2.97912">
        <ele>21.4</ele>
        <time>2023-08-05T16:27:09Z</time>
      </trkpt>
      <trkpt lat="50.57821" lon="2.97908">
        <ele>21.2</ele>
        <time>2023-08-05T16:27:11Z</time>
      </trkpt>
      <trkpt lat="50.57815" lon="2.97906">
        <ele>21</ele>
        <time>2023-08-05T16:27:12Z</time>
      </trkpt>
      <trkpt lat="50.57809" lon="2.97904">
        <ele>20.8</ele>
        <time>2023-08-05T16:27:13Z</time>
      </trkpt>
      <trkpt lat="50.57803" lon="2.97901">
        <ele>20.8</ele>
        <time>2023-08-05T16:27:14Z</time>
      </trkpt>
      <trkpt lat="50.57797" lon="2.97898">
        <ele>20.6</ele>
        <time>2023-08-05T16:27:15Z</time>
      </trkpt>
      <trkpt lat="50.57791" lon="2.97895">
        <ele>20.6</ele>
        <time>2023-08-05T16:27:16Z</time>
      </trkpt>
      <trkpt lat="50.57785" lon="2.97892">
        <ele>20.6</ele>
        <time>2023-08-05T16:27:17Z</time>
      </trkpt>
      <trkpt lat="50.57773" lon="2.97884">
        <ele>20.4</ele>
        <time>2023-08-05T16:27:19Z</time>
      </trkpt>
      <trkpt lat="50.5774" lon="2.97861">
        <ele>20.6</ele>
        <time>2023-08-05T16:27:25Z</time>
      </trkpt>
      <trkpt lat="50.57698" lon="2.97824">
        <ele>20.4</ele>
        <time>2023-08-05T16:27:32Z</time>
      </trkpt>
      <trkpt lat="50.57685" lon="2.97807">
        <ele>20</ele>
        <time>2023-08-05T16:27:35Z</time>
      </trkpt>
      <trkpt lat="50.57681" lon="2.97801">
        <ele>20</ele>
        <time>2023-08-05T16:27:36Z</time>
      </trkpt>
      <trkpt lat="50.57676" lon="2.97795">
        <ele>20.2</ele>
        <time>2023-08-05T16:27:37Z</time>
      </trkpt>
      <trkpt lat="50.57673" lon="2.97788">
        <ele>20.2</ele>
        <time>2023-08-05T16:27:38Z</time>
      </trkpt>
      <trkpt lat="50.5767" lon="2.9778">
        <ele>20.2</ele>
        <time>2023-08-05T16:27:39Z</time>
      </trkpt>
      <trkpt lat="50.57667" lon="2.97772">
        <ele>20.2</ele>
        <time>2023-08-05T16:27:40Z</time>
      </trkpt>
      <trkpt lat="50.57664" lon="2.97764">
        <ele>20.2</ele>
        <time>2023-08-05T16:27:41Z</time>
      </trkpt>
      <trkpt lat="50.5766" lon="2.97757">
        <ele>20.2</ele>
        <time>2023-08-05T16:27:42Z</time>
      </trkpt>
      <trkpt lat="50.57647" lon="2.97738">
        <ele>20.4</ele>
        <time>2023-08-05T16:27:45Z</time>
      </trkpt>
      <trkpt lat="50.57631" lon="2.97722">
        <ele>20.4</ele>
        <time>2023-08-05T16:27:48Z</time>
      </trkpt>
      <trkpt lat="50.57622" lon="2.97711">
        <ele>20.4</ele>
        <time>2023-08-05T16:27:50Z</time>
      </trkpt>
      <trkpt lat="50.57617" lon="2.97706">
        <ele>20.4</ele>
        <time>2023-08-05T16:27:51Z</time>
      </trkpt>
      <trkpt lat="50.57613" lon="2.97702">
        <ele>20.6</ele>
        <time>2023-08-05T16:27:52Z</time>
      </trkpt>
      <trkpt lat="50.57609" lon="2.97697">
        <ele>20.6</ele>
        <time>2023-08-05T16:27:53Z</time>
      </trkpt>
      <trkpt lat="50.57604" lon="2.97692">
        <ele>20.6</ele>
        <time>2023-08-05T16:27:54Z</time>
      </trkpt>
      <trkpt lat="50.57601" lon="2.97686">
        <ele>20.6</ele>
        <time>2023-08-05T16:27:55Z</time>
      </trkpt>
      <trkpt lat="50.57597" lon="2.97678">
        <ele>20.4</ele>
        <time>2023-08-05T16:27:56Z</time>
      </trkpt>
      <trkpt lat="50.57589" lon="2.97664">
        <ele>20.4</ele>
        <time>2023-08-05T16:27:58Z</time>
      </trkpt>
      <trkpt lat="50.57581" lon="2.97649">
        <ele>20.4</ele>
        <time>2023-08-05T16:28:00Z</time>
      </trkpt>
      <trkpt lat="50.57577" lon="2.97641">
        <ele>20.2</ele>
        <time>2023-08-05T16:28:01Z</time>
      </trkpt>
      <trkpt lat="50.57573" lon="2.97633">
        <ele>20.2</ele>
        <time>2023-08-05T16:28:02Z</time>
      </trkpt>
      <trkpt lat="50.57568" lon="2.97624">
        <ele>20.2</ele>
        <time>2023-08-05T16:28:03Z</time>
      </trkpt>
      <trkpt lat="50.57543" lon="2.97589">
        <ele>20.4</ele>
        <time>2023-08-05T16:28:08Z</time>
      </trkpt>
      <trkpt lat="50.57533" lon="2.97578">
        <ele>20.4</ele>
        <time>2023-08-05T16:28:10Z</time>
      </trkpt>
      <trkpt lat="50.57524" lon="2.97569">
        <ele>20.2</ele>
        <time>2023-08-05T16:28:12Z</time>
      </trkpt>
      <trkpt lat="50.57518" lon="2.97564">
        <ele>20.2</ele>
        <time>2023-08-05T16:28:13Z</time>
      </trkpt>
      <trkpt lat="50.57505" lon="2.97551">
        <ele>20.2</ele>
        <time>2023-08-05T16:28:16Z</time>
      </trkpt>
      <trkpt lat="50.57501" lon="2.97547">
        <ele>20</ele>
        <time>2023-08-05T16:28:17Z</time>
      </trkpt>
      <trkpt lat="50.57496" lon="2.97542">
        <ele>20</ele>
        <time>2023-08-05T16:28:18Z</time>
      </trkpt>
      <trkpt lat="50.57492" lon="2.97538">
        <ele>20</ele>
        <time>2023-08-05T16:28:19Z</time>
      </trkpt>
      <trkpt lat="50.57488" lon="2.97534">
        <ele>20</ele>
        <time>2023-08-05T16:28:20Z</time>
      </trkpt>
      <trkpt lat="50.57463" lon="2.97506">
        <ele>20</ele>
        <time>2023-08-05T16:28:25Z</time>
      </trkpt>
      <trkpt lat="50.57458" lon="2.975">
        <ele>20</ele>
        <time>2023-08-05T16:28:26Z</time>
      </trkpt>
      <trkpt lat="50.57442" lon="2.97479">
        <ele>20</ele>
        <time>2023-08-05T16:28:30Z</time>
      </trkpt>
      <trkpt lat="50.57439" lon="2.97475">
        <ele>20</ele>
        <time>2023-08-05T16:28:31Z</time>
      </trkpt>
      <trkpt lat="50.57435" lon="2.97469">
        <ele>20</ele>
        <time>2023-08-05T16:28:32Z</time>
      </trkpt>
      <trkpt lat="50.5743" lon="2.97462">
        <ele>20</ele>
        <time>2023-08-05T16:28:33Z</time>
      </trkpt>
      <trkpt lat="50.57418" lon="2.97448">
        <ele>20</ele>
        <time>2023-08-05T16:28:36Z</time>
      </trkpt>
      <trkpt lat="50.5741" lon="2.97438">
        <ele>20</ele>
        <time>2023-08-05T16:28:38Z</time>
      </trkpt>
      <trkpt lat="50.57406" lon="2.97432">
        <ele>20</ele>
        <time>2023-08-05T16:28:39Z</time>
      </trkpt>
      <trkpt lat="50.57402" lon="2.97426">
        <ele>20</ele>
        <time>2023-08-05T16:28:40Z</time>
      </trkpt>
      <trkpt lat="50.57398" lon="2.9742">
        <ele>20</ele>
        <time>2023-08-05T16:28:41Z</time>
      </trkpt>
      <trkpt lat="50.57392" lon="2.97413">
        <ele>20</ele>
        <time>2023-08-05T16:28:43Z</time>
      </trkpt>
      <trkpt lat="50.57388" lon="2.9741">
        <ele>20</ele>
        <time>2023-08-05T16:28:44Z</time>
      </trkpt>
      <trkpt lat="50.57383" lon="2.97405">
        <ele>20.2</ele>
        <time>2023-08-05T16:28:45Z</time>
      </trkpt>
      <trkpt lat="50.57377" lon="2.97398">
        <ele>20.2</ele>
        <time>2023-08-05T16:28:46Z</time>
      </trkpt>
      <trkpt lat="50.57373" lon="2.97393">
        <ele>20.4</ele>
        <time>2023-08-05T16:28:47Z</time>
      </trkpt>
      <trkpt lat="50.57358" lon="2.97372">
        <ele>20.4</ele>
        <time>2023-08-05T16:28:51Z</time>
      </trkpt>
      <trkpt lat="50.57354" lon="2.97367">
        <ele>20.4</ele>
        <time>2023-08-05T16:28:52Z</time>
      </trkpt>
      <trkpt lat="50.57328" lon="2.97331">
        <ele>20.6</ele>
        <time>2023-08-05T16:28:59Z</time>
      </trkpt>
      <trkpt lat="50.57306" lon="2.97303">
        <ele>20.6</ele>
        <time>2023-08-05T16:29:05Z</time>
      </trkpt>
      <trkpt lat="50.57302" lon="2.97297">
        <ele>20.6</ele>
        <time>2023-08-05T16:29:06Z</time>
      </trkpt>
      <trkpt lat="50.57295" lon="2.97288">
        <ele>20.6</ele>
        <time>2023-08-05T16:29:08Z</time>
      </trkpt>
      <trkpt lat="50.57291" lon="2.97283">
        <ele>20.6</ele>
        <time>2023-08-05T16:29:09Z</time>
      </trkpt>
      <trkpt lat="50.57283" lon="2.97272">
        <ele>20.6</ele>
        <time>2023-08-05T16:29:11Z</time>
      </trkpt>
      <trkpt lat="50.5728" lon="2.97266">
        <ele>20.6</ele>
        <time>2023-08-05T16:29:12Z</time>
      </trkpt>
      <trkpt lat="50.57276" lon="2.97262">
        <ele>20.6</ele>
        <time>2023-08-05T16:29:13Z</time>
      </trkpt>
      <trkpt lat="50.57245" lon="2.97223">
        <ele>20.6</ele>
        <time>2023-08-05T16:29:21Z</time>
      </trkpt>
      <trkpt lat="50.57205" lon="2.97167">
        <ele>20.8</ele>
        <time>2023-08-05T16:29:32Z</time>
      </trkpt>
      <trkpt lat="50.57201" lon="2.97163">
        <ele>20.8</ele>
        <time>2023-08-05T16:29:33Z</time>
      </trkpt>
      <trkpt lat="50.57192" lon="2.9716">
        <ele>20.8</ele>
        <time>2023-08-05T16:29:35Z</time>
      </trkpt>
      <trkpt lat="50.57187" lon="2.97162">
        <ele>20.8</ele>
        <time>2023-08-05T16:29:36Z</time>
      </trkpt>
      <trkpt lat="50.57183" lon="2.97167">
        <ele>20.8</ele>
        <time>2023-08-05T16:29:37Z</time>
      </trkpt>
      <trkpt lat="50.57172" lon="2.97185">
        <ele>20</ele>
        <time>2023-08-05T16:29:40Z</time>
      </trkpt>
      <trkpt lat="50.57165" lon="2.97195">
        <ele>19.8</ele>
        <time>2023-08-05T16:29:42Z</time>
      </trkpt>
      <trkpt lat="50.57159" lon="2.97197">
        <ele>19.6</ele>
        <time>2023-08-05T16:29:44Z</time>
      </trkpt>
      <trkpt lat="50.57157" lon="2.97196">
        <ele>19.4</ele>
        <time>2023-08-05T16:29:45Z</time>
      </trkpt>
      <trkpt lat="50.57155" lon="2.97194">
        <ele>19.4</ele>
        <time>2023-08-05T16:29:46Z</time>
      </trkpt>
      <trkpt lat="50.57154" lon="2.97193">
        <ele>19.2</ele>
        <time>2023-08-05T16:29:47Z</time>
      </trkpt>
      <trkpt lat="50.57153" lon="2.9719">
        <ele>19.2</ele>
        <time>2023-08-05T16:29:48Z</time>
      </trkpt>
      <trkpt lat="50.57151" lon="2.97188">
        <ele>19.2</ele>
        <time>2023-08-05T16:29:49Z</time>
      </trkpt>
      <trkpt lat="50.57147" lon="2.97183">
        <ele>19.2</ele>
        <time>2023-08-05T16:29:51Z</time>
      </trkpt>
      <trkpt lat="50.57144" lon="2.97182">
        <ele>19.2</ele>
        <time>2023-08-05T16:29:52Z</time>
      </trkpt>
      <trkpt lat="50.57142" lon="2.97184">
        <ele>19.2</ele>
        <time>2023-08-05T16:29:53Z</time>
      </trkpt>
      <trkpt lat="50.57134" lon="2.97195">
        <ele>19.2</ele>
        <time>2023-08-05T16:29:56Z</time>
      </trkpt>
      <trkpt lat="50.57124" lon="2.97213">
        <ele>19.4</ele>
        <time>2023-08-05T16:30:00Z</time>
      </trkpt>
      <trkpt lat="50.57121" lon="2.97218">
        <ele>19.4</ele>
        <time>2023-08-05T16:30:01Z</time>
      </trkpt>
      <trkpt lat="50.57115" lon="2.97227">
        <ele>19.6</ele>
        <time>2023-08-05T16:30:03Z</time>
      </trkpt>
      <trkpt lat="50.57111" lon="2.97234">
        <ele>19.6</ele>
        <time>2023-08-05T16:30:05Z</time>
      </trkpt>
      <trkpt lat="50.57108" lon="2.97238">
        <ele>19.6</ele>
        <time>2023-08-05T16:30:06Z</time>
      </trkpt>
      <trkpt lat="50.57105" lon="2.97242">
        <ele>19.6</ele>
        <time>2023-08-05T16:30:07Z</time>
      </trkpt>
      <trkpt lat="50.57101" lon="2.97247">
        <ele>19.6</ele>
        <time>2023-08-05T16:30:08Z</time>
      </trkpt>
      <trkpt lat="50.57097" lon="2.97253">
        <ele>19.8</ele>
        <time>2023-08-05T16:30:09Z</time>
      </trkpt>
      <trkpt lat="50.57079" lon="2.97277">
        <ele>20.2</ele>
        <time>2023-08-05T16:30:14Z</time>
      </trkpt>
      <trkpt lat="50.57076" lon="2.97282">
        <ele>20.2</ele>
        <time>2023-08-05T16:30:15Z</time>
      </trkpt>
      <trkpt lat="50.57066" lon="2.97298">
        <ele>20.2</ele>
        <time>2023-08-05T16:30:18Z</time>
      </trkpt>
      <trkpt lat="50.57062" lon="2.97302">
        <ele>20.2</ele>
        <time>2023-08-05T16:30:19Z</time>
      </trkpt>
      <trkpt lat="50.57057" lon="2.97308">
        <ele>20.2</ele>
        <time>2023-08-05T16:30:20Z</time>
      </trkpt>
      <trkpt lat="50.57052" lon="2.97315">
        <ele>20.2</ele>
        <time>2023-08-05T16:30:21Z</time>
      </trkpt>
      <trkpt lat="50.57047" lon="2.97322">
        <ele>20.2</ele>
        <time>2023-08-05T16:30:22Z</time>
      </trkpt>
      <trkpt lat="50.5704" lon="2.97332">
        <ele>20.2</ele>
        <time>2023-08-05T16:30:24Z</time>
      </trkpt>
      <trkpt lat="50.57036" lon="2.97337">
        <ele>20.2</ele>
        <time>2023-08-05T16:30:25Z</time>
      </trkpt>
      <trkpt lat="50.57007" lon="2.97381">
        <ele>20.4</ele>
        <time>2023-08-05T16:30:32Z</time>
      </trkpt>
      <trkpt lat="50.56989" lon="2.97408">
        <ele>20.4</ele>
        <time>2023-08-05T16:30:37Z</time>
      </trkpt>
      <trkpt lat="50.56985" lon="2.97413">
        <ele>20.4</ele>
        <time>2023-08-05T16:30:38Z</time>
      </trkpt>
      <trkpt lat="50.56982" lon="2.97418">
        <ele>20.4</ele>
        <time>2023-08-05T16:30:39Z</time>
      </trkpt>
      <trkpt lat="50.56979" lon="2.97423">
        <ele>20.4</ele>
        <time>2023-08-05T16:30:40Z</time>
      </trkpt>
      <trkpt lat="50.56976" lon="2.97428">
        <ele>20.2</ele>
        <time>2023-08-05T16:30:41Z</time>
      </trkpt>
      <trkpt lat="50.56972" lon="2.97434">
        <ele>20.2</ele>
        <time>2023-08-05T16:30:42Z</time>
      </trkpt>
      <trkpt lat="50.56969" lon="2.97439">
        <ele>20</ele>
        <time>2023-08-05T16:30:43Z</time>
      </trkpt>
      <trkpt lat="50.56966" lon="2.97444">
        <ele>20.2</ele>
        <time>2023-08-05T16:30:44Z</time>
      </trkpt>
      <trkpt lat="50.56963" lon="2.97449">
        <ele>20</ele>
        <time>2023-08-05T16:30:45Z</time>
      </trkpt>
      <trkpt lat="50.5696" lon="2.97454">
        <ele>20</ele>
        <time>2023-08-05T16:30:46Z</time>
      </trkpt>
      <trkpt lat="50.56946" lon="2.97475">
        <ele>20</ele>
        <time>2023-08-05T16:30:50Z</time>
      </trkpt>
      <trkpt lat="50.5694" lon="2.97484">
        <ele>19.8</ele>
        <time>2023-08-05T16:30:52Z</time>
      </trkpt>
      <trkpt lat="50.56936" lon="2.97489">
        <ele>20</ele>
        <time>2023-08-05T16:30:53Z</time>
      </trkpt>
      <trkpt lat="50.56933" lon="2.97493">
        <ele>20</ele>
        <time>2023-08-05T16:30:54Z</time>
      </trkpt>
      <trkpt lat="50.5693" lon="2.97498">
        <ele>20</ele>
        <time>2023-08-05T16:30:55Z</time>
      </trkpt>
      <trkpt lat="50.56907" lon="2.97532">
        <ele>20.2</ele>
        <time>2023-08-05T16:31:02Z</time>
      </trkpt>
      <trkpt lat="50.56904" lon="2.97537">
        <ele>20.2</ele>
        <time>2023-08-05T16:31:03Z</time>
      </trkpt>
      <trkpt lat="50.56889" lon="2.97562">
        <ele>20.4</ele>
        <time>2023-08-05T16:31:08Z</time>
      </trkpt>
      <trkpt lat="50.56878" lon="2.97577">
        <ele>20.4</ele>
        <time>2023-08-05T16:31:11Z</time>
      </trkpt>
      <trkpt lat="50.56859" lon="2.97606">
        <ele>20.2</ele>
        <time>2023-08-05T16:31:17Z</time>
      </trkpt>
      <trkpt lat="50.56856" lon="2.9761">
        <ele>20.2</ele>
        <time>2023-08-05T16:31:18Z</time>
      </trkpt>
      <trkpt lat="50.56852" lon="2.97615">
        <ele>20.2</ele>
        <time>2023-08-05T16:31:19Z</time>
      </trkpt>
      <trkpt lat="50.56834" lon="2.97641">
        <ele>20</ele>
        <time>2023-08-05T16:31:24Z</time>
      </trkpt>
      <trkpt lat="50.5683" lon="2.97646">
        <ele>20</ele>
        <time>2023-08-05T16:31:25Z</time>
      </trkpt>
      <trkpt lat="50.56819" lon="2.97665">
        <ele>20.2</ele>
        <time>2023-08-05T16:31:28Z</time>
      </trkpt>
      <trkpt lat="50.56815" lon="2.9767">
        <ele>20.2</ele>
        <time>2023-08-05T16:31:29Z</time>
      </trkpt>
      <trkpt lat="50.56811" lon="2.97676">
        <ele>20.2</ele>
        <time>2023-08-05T16:31:30Z</time>
      </trkpt>
      <trkpt lat="50.56807" lon="2.97683">
        <ele>20.2</ele>
        <time>2023-08-05T16:31:31Z</time>
      </trkpt>
      <trkpt lat="50.568" lon="2.97695">
        <ele>20</ele>
        <time>2023-08-05T16:31:33Z</time>
      </trkpt>
      <trkpt lat="50.56798" lon="2.97701">
        <ele>20</ele>
        <time>2023-08-05T16:31:34Z</time>
      </trkpt>
      <trkpt lat="50.56795" lon="2.97706">
        <ele>20</ele>
        <time>2023-08-05T16:31:35Z</time>
      </trkpt>
      <trkpt lat="50.56791" lon="2.97712">
        <ele>20</ele>
        <time>2023-08-05T16:31:36Z</time>
      </trkpt>
      <trkpt lat="50.56786" lon="2.97718">
        <ele>20</ele>
        <time>2023-08-05T16:31:37Z</time>
      </trkpt>
      <trkpt lat="50.56783" lon="2.97725">
        <ele>20</ele>
        <time>2023-08-05T16:31:38Z</time>
      </trkpt>
      <trkpt lat="50.56776" lon="2.97737">
        <ele>20</ele>
        <time>2023-08-05T16:31:40Z</time>
      </trkpt>
      <trkpt lat="50.56768" lon="2.9775">
        <ele>20</ele>
        <time>2023-08-05T16:31:42Z</time>
      </trkpt>
      <trkpt lat="50.56761" lon="2.97765">
        <ele>20</ele>
        <time>2023-08-05T16:31:44Z</time>
      </trkpt>
      <trkpt lat="50.56751" lon="2.97785">
        <ele>20.2</ele>
        <time>2023-08-05T16:31:47Z</time>
      </trkpt>
      <trkpt lat="50.56748" lon="2.9779">
        <ele>20.2</ele>
        <time>2023-08-05T16:31:48Z</time>
      </trkpt>
      <trkpt lat="50.56744" lon="2.97798">
        <ele>20.2</ele>
        <time>2023-08-05T16:31:49Z</time>
      </trkpt>
      <trkpt lat="50.56741" lon="2.97804">
        <ele>20.2</ele>
        <time>2023-08-05T16:31:50Z</time>
      </trkpt>
      <trkpt lat="50.56735" lon="2.97817">
        <ele>20</ele>
        <time>2023-08-05T16:31:52Z</time>
      </trkpt>
      <trkpt lat="50.56729" lon="2.97827">
        <ele>20</ele>
        <time>2023-08-05T16:31:54Z</time>
      </trkpt>
      <trkpt lat="50.56719" lon="2.97845">
        <ele>20</ele>
        <time>2023-08-05T16:31:57Z</time>
      </trkpt>
      <trkpt lat="50.56706" lon="2.97874">
        <ele>20.2</ele>
        <time>2023-08-05T16:32:02Z</time>
      </trkpt>
      <trkpt lat="50.567" lon="2.97884">
        <ele>20.2</ele>
        <time>2023-08-05T16:32:04Z</time>
      </trkpt>
      <trkpt lat="50.56698" lon="2.97888">
        <ele>20.2</ele>
        <time>2023-08-05T16:32:05Z</time>
      </trkpt>
      <trkpt lat="50.56695" lon="2.97893">
        <ele>20.2</ele>
        <time>2023-08-05T16:32:06Z</time>
      </trkpt>
      <trkpt lat="50.56692" lon="2.97898">
        <ele>20.2</ele>
        <time>2023-08-05T16:32:07Z</time>
      </trkpt>
      <trkpt lat="50.56689" lon="2.97904">
        <ele>20.2</ele>
        <time>2023-08-05T16:32:08Z</time>
      </trkpt>
      <trkpt lat="50.56684" lon="2.97915">
        <ele>20.4</ele>
        <time>2023-08-05T16:32:10Z</time>
      </trkpt>
      <trkpt lat="50.56679" lon="2.97923">
        <ele>20.4</ele>
        <time>2023-08-05T16:32:11Z</time>
      </trkpt>
      <trkpt lat="50.56676" lon="2.97927">
        <ele>20.4</ele>
        <time>2023-08-05T16:32:12Z</time>
      </trkpt>
      <trkpt lat="50.56673" lon="2.97933">
        <ele>20.4</ele>
        <time>2023-08-05T16:32:13Z</time>
      </trkpt>
      <trkpt lat="50.56671" lon="2.97938">
        <ele>20.2</ele>
        <time>2023-08-05T16:32:14Z</time>
      </trkpt>
      <trkpt lat="50.56668" lon="2.97944">
        <ele>20.2</ele>
        <time>2023-08-05T16:32:15Z</time>
      </trkpt>
      <trkpt lat="50.56654" lon="2.97971">
        <ele>20</ele>
        <time>2023-08-05T16:32:19Z</time>
      </trkpt>
      <trkpt lat="50.56642" lon="2.97995">
        <ele>19.8</ele>
        <time>2023-08-05T16:32:22Z</time>
      </trkpt>
      <trkpt lat="50.56633" lon="2.98015">
        <ele>19.8</ele>
        <time>2023-08-05T16:32:25Z</time>
      </trkpt>
      <trkpt lat="50.56624" lon="2.98035">
        <ele>20</ele>
        <time>2023-08-05T16:32:28Z</time>
      </trkpt>
      <trkpt lat="50.56622" lon="2.98041">
        <ele>20</ele>
        <time>2023-08-05T16:32:29Z</time>
      </trkpt>
      <trkpt lat="50.56621" lon="2.98046">
        <ele>20</ele>
        <time>2023-08-05T16:32:30Z</time>
      </trkpt>
      <trkpt lat="50.56617" lon="2.98055">
        <ele>20</ele>
        <time>2023-08-05T16:32:31Z</time>
      </trkpt>
      <trkpt lat="50.56613" lon="2.98064">
        <ele>20</ele>
        <time>2023-08-05T16:32:32Z</time>
      </trkpt>
      <trkpt lat="50.56609" lon="2.98071">
        <ele>20</ele>
        <time>2023-08-05T16:32:33Z</time>
      </trkpt>
      <trkpt lat="50.56603" lon="2.98082">
        <ele>20.2</ele>
        <time>2023-08-05T16:32:35Z</time>
      </trkpt>
      <trkpt lat="50.56598" lon="2.98092">
        <ele>20.6</ele>
        <time>2023-08-05T16:32:37Z</time>
      </trkpt>
      <trkpt lat="50.56594" lon="2.98097">
        <ele>20.6</ele>
        <time>2023-08-05T16:32:38Z</time>
      </trkpt>
      <trkpt lat="50.56589" lon="2.98106">
        <ele>20.8</ele>
        <time>2023-08-05T16:32:39Z</time>
      </trkpt>
      <trkpt lat="50.56586" lon="2.98111">
        <ele>20.8</ele>
        <time>2023-08-05T16:32:40Z</time>
      </trkpt>
      <trkpt lat="50.56581" lon="2.98122">
        <ele>20.8</ele>
        <time>2023-08-05T16:32:42Z</time>
      </trkpt>
      <trkpt lat="50.56574" lon="2.98133">
        <ele>20.8</ele>
        <time>2023-08-05T16:32:44Z</time>
      </trkpt>
      <trkpt lat="50.56569" lon="2.98142">
        <ele>20.8</ele>
        <time>2023-08-05T16:32:45Z</time>
      </trkpt>
      <trkpt lat="50.56563" lon="2.98152">
        <ele>20.8</ele>
        <time>2023-08-05T16:32:47Z</time>
      </trkpt>
      <trkpt lat="50.56557" lon="2.98163">
        <ele>20.8</ele>
        <time>2023-08-05T16:32:49Z</time>
      </trkpt>
      <trkpt lat="50.56552" lon="2.98174">
        <ele>20.8</ele>
        <time>2023-08-05T16:32:51Z</time>
      </trkpt>
      <trkpt lat="50.56539" lon="2.98197">
        <ele>20.8</ele>
        <time>2023-08-05T16:32:55Z</time>
      </trkpt>
      <trkpt lat="50.56536" lon="2.98202">
        <ele>20.4</ele>
        <time>2023-08-05T16:32:56Z</time>
      </trkpt>
      <trkpt lat="50.56512" lon="2.98245">
        <ele>19.8</ele>
        <time>2023-08-05T16:33:04Z</time>
      </trkpt>
      <trkpt lat="50.56508" lon="2.9825">
        <ele>19.8</ele>
        <time>2023-08-05T16:33:05Z</time>
      </trkpt>
      <trkpt lat="50.56505" lon="2.98255">
        <ele>19.8</ele>
        <time>2023-08-05T16:33:06Z</time>
      </trkpt>
      <trkpt lat="50.56489" lon="2.98281">
        <ele>19.8</ele>
        <time>2023-08-05T16:33:11Z</time>
      </trkpt>
      <trkpt lat="50.56487" lon="2.98285">
        <ele>20</ele>
        <time>2023-08-05T16:33:12Z</time>
      </trkpt>
      <trkpt lat="50.56485" lon="2.98288">
        <ele>20</ele>
        <time>2023-08-05T16:33:13Z</time>
      </trkpt>
      <trkpt lat="50.56482" lon="2.98292">
        <ele>20</ele>
        <time>2023-08-05T16:33:14Z</time>
      </trkpt>
      <trkpt lat="50.56479" lon="2.98296">
        <ele>20</ele>
        <time>2023-08-05T16:33:15Z</time>
      </trkpt>
      <trkpt lat="50.56476" lon="2.983">
        <ele>20</ele>
        <time>2023-08-05T16:33:16Z</time>
      </trkpt>
      <trkpt lat="50.56472" lon="2.98305">
        <ele>20</ele>
        <time>2023-08-05T16:33:17Z</time>
      </trkpt>
      <trkpt lat="50.56469" lon="2.98311">
        <ele>20</ele>
        <time>2023-08-05T16:33:18Z</time>
      </trkpt>
      <trkpt lat="50.56443" lon="2.98344">
        <ele>20</ele>
        <time>2023-08-05T16:33:25Z</time>
      </trkpt>
      <trkpt lat="50.5644" lon="2.98348">
        <ele>20</ele>
        <time>2023-08-05T16:33:26Z</time>
      </trkpt>
      <trkpt lat="50.56438" lon="2.98352">
        <ele>20</ele>
        <time>2023-08-05T16:33:27Z</time>
      </trkpt>
      <trkpt lat="50.56435" lon="2.98356">
        <ele>20.2</ele>
        <time>2023-08-05T16:33:28Z</time>
      </trkpt>
      <trkpt lat="50.56432" lon="2.98361">
        <ele>20.2</ele>
        <time>2023-08-05T16:33:29Z</time>
      </trkpt>
      <trkpt lat="50.56422" lon="2.98373">
        <ele>20.4</ele>
        <time>2023-08-05T16:33:32Z</time>
      </trkpt>
      <trkpt lat="50.56419" lon="2.98378">
        <ele>20.2</ele>
        <time>2023-08-05T16:33:33Z</time>
      </trkpt>
      <trkpt lat="50.56415" lon="2.98383">
        <ele>20.2</ele>
        <time>2023-08-05T16:33:34Z</time>
      </trkpt>
      <trkpt lat="50.56412" lon="2.98388">
        <ele>20.2</ele>
        <time>2023-08-05T16:33:35Z</time>
      </trkpt>
      <trkpt lat="50.56409" lon="2.98393">
        <ele>20.2</ele>
        <time>2023-08-05T16:33:36Z</time>
      </trkpt>
      <trkpt lat="50.56406" lon="2.98396">
        <ele>20.2</ele>
        <time>2023-08-05T16:33:37Z</time>
      </trkpt>
      <trkpt lat="50.56403" lon="2.984">
        <ele>20.2</ele>
        <time>2023-08-05T16:33:38Z</time>
      </trkpt>
      <trkpt lat="50.56399" lon="2.98405">
        <ele>20.2</ele>
        <time>2023-08-05T16:33:39Z</time>
      </trkpt>
      <trkpt lat="50.56394" lon="2.98412">
        <ele>20.2</ele>
        <time>2023-08-05T16:33:40Z</time>
      </trkpt>
      <trkpt lat="50.5639" lon="2.98418">
        <ele>20</ele>
        <time>2023-08-05T16:33:41Z</time>
      </trkpt>
      <trkpt lat="50.56384" lon="2.98425">
        <ele>20</ele>
        <time>2023-08-05T16:33:42Z</time>
      </trkpt>
      <trkpt lat="50.56382" lon="2.98429">
        <ele>20</ele>
        <time>2023-08-05T16:33:43Z</time>
      </trkpt>
      <trkpt lat="50.56379" lon="2.98433">
        <ele>20</ele>
        <time>2023-08-05T16:33:44Z</time>
      </trkpt>
      <trkpt lat="50.56376" lon="2.98438">
        <ele>20.2</ele>
        <time>2023-08-05T16:33:45Z</time>
      </trkpt>
      <trkpt lat="50.56373" lon="2.98443">
        <ele>20.2</ele>
        <time>2023-08-05T16:33:46Z</time>
      </trkpt>
      <trkpt lat="50.56364" lon="2.98452">
        <ele>20.2</ele>
        <time>2023-08-05T16:33:48Z</time>
      </trkpt>
      <trkpt lat="50.56345" lon="2.9848">
        <ele>20.2</ele>
        <time>2023-08-05T16:33:54Z</time>
      </trkpt>
      <trkpt lat="50.56341" lon="2.98485">
        <ele>20.2</ele>
        <time>2023-08-05T16:33:55Z</time>
      </trkpt>
      <trkpt lat="50.56331" lon="2.98501">
        <ele>20.2</ele>
        <time>2023-08-05T16:33:59Z</time>
      </trkpt>
      <trkpt lat="50.56328" lon="2.98506">
        <ele>20.2</ele>
        <time>2023-08-05T16:34:00Z</time>
      </trkpt>
      <trkpt lat="50.56326" lon="2.9851">
        <ele>20.2</ele>
        <time>2023-08-05T16:34:01Z</time>
      </trkpt>
      <trkpt lat="50.56323" lon="2.98514">
        <ele>20.2</ele>
        <time>2023-08-05T16:34:02Z</time>
      </trkpt>
      <trkpt lat="50.5632" lon="2.98518">
        <ele>20.4</ele>
        <time>2023-08-05T16:34:03Z</time>
      </trkpt>
      <trkpt lat="50.56318" lon="2.98521">
        <ele>20.4</ele>
        <time>2023-08-05T16:34:04Z</time>
      </trkpt>
      <trkpt lat="50.56315" lon="2.98525">
        <ele>20.4</ele>
        <time>2023-08-05T16:34:05Z</time>
      </trkpt>
      <trkpt lat="50.56306" lon="2.98537">
        <ele>20.6</ele>
        <time>2023-08-05T16:34:08Z</time>
      </trkpt>
      <trkpt lat="50.56304" lon="2.98541">
        <ele>20.6</ele>
        <time>2023-08-05T16:34:09Z</time>
      </trkpt>
      <trkpt lat="50.563" lon="2.98546">
        <ele>20.8</ele>
        <time>2023-08-05T16:34:10Z</time>
      </trkpt>
      <trkpt lat="50.56294" lon="2.98556">
        <ele>20.8</ele>
        <time>2023-08-05T16:34:12Z</time>
      </trkpt>
      <trkpt lat="50.56283" lon="2.98573">
        <ele>20.8</ele>
        <time>2023-08-05T16:34:16Z</time>
      </trkpt>
      <trkpt lat="50.5628" lon="2.98578">
        <ele>20.8</ele>
        <time>2023-08-05T16:34:17Z</time>
      </trkpt>
      <trkpt lat="50.56273" lon="2.98587">
        <ele>20.8</ele>
        <time>2023-08-05T16:34:19Z</time>
      </trkpt>
      <trkpt lat="50.56258" lon="2.98613">
        <ele>20.8</ele>
        <time>2023-08-05T16:34:24Z</time>
      </trkpt>
      <trkpt lat="50.56255" lon="2.98618">
        <ele>21</ele>
        <time>2023-08-05T16:34:25Z</time>
      </trkpt>
      <trkpt lat="50.56252" lon="2.98624">
        <ele>21.2</ele>
        <time>2023-08-05T16:34:26Z</time>
      </trkpt>
      <trkpt lat="50.56249" lon="2.98629">
        <ele>21.2</ele>
        <time>2023-08-05T16:34:27Z</time>
      </trkpt>
      <trkpt lat="50.56247" lon="2.98633">
        <ele>21.2</ele>
        <time>2023-08-05T16:34:28Z</time>
      </trkpt>
      <trkpt lat="50.56244" lon="2.98637">
        <ele>21.2</ele>
        <time>2023-08-05T16:34:29Z</time>
      </trkpt>
      <trkpt lat="50.56241" lon="2.98642">
        <ele>21</ele>
        <time>2023-08-05T16:34:30Z</time>
      </trkpt>
      <trkpt lat="50.56238" lon="2.98647">
        <ele>21</ele>
        <time>2023-08-05T16:34:31Z</time>
      </trkpt>
      <trkpt lat="50.56234" lon="2.98653">
        <ele>21</ele>
        <time>2023-08-05T16:34:32Z</time>
      </trkpt>
      <trkpt lat="50.5623" lon="2.9866">
        <ele>21.2</ele>
        <time>2023-08-05T16:34:33Z</time>
      </trkpt>
      <trkpt lat="50.56222" lon="2.98673">
        <ele>21</ele>
        <time>2023-08-05T16:34:35Z</time>
      </trkpt>
      <trkpt lat="50.56202" lon="2.9872">
        <ele>21.2</ele>
        <time>2023-08-05T16:34:44Z</time>
      </trkpt>
      <trkpt lat="50.56198" lon="2.98728">
        <ele>21</ele>
        <time>2023-08-05T16:34:46Z</time>
      </trkpt>
      <trkpt lat="50.56197" lon="2.98731">
        <ele>21</ele>
        <time>2023-08-05T16:34:47Z</time>
      </trkpt>
      <trkpt lat="50.56194" lon="2.98736">
        <ele>21</ele>
        <time>2023-08-05T16:34:48Z</time>
      </trkpt>
      <trkpt lat="50.56192" lon="2.98741">
        <ele>21</ele>
        <time>2023-08-05T16:34:49Z</time>
      </trkpt>
      <trkpt lat="50.56189" lon="2.98747">
        <ele>21</ele>
        <time>2023-08-05T16:34:50Z</time>
      </trkpt>
      <trkpt lat="50.56182" lon="2.98762">
        <ele>21</ele>
        <time>2023-08-05T16:34:53Z</time>
      </trkpt>
      <trkpt lat="50.56179" lon="2.98768">
        <ele>21</ele>
        <time>2023-08-05T16:34:54Z</time>
      </trkpt>
      <trkpt lat="50.56176" lon="2.98773">
        <ele>21</ele>
        <time>2023-08-05T16:34:55Z</time>
      </trkpt>
      <trkpt lat="50.56165" lon="2.98801">
        <ele>21.2</ele>
        <time>2023-08-05T16:35:00Z</time>
      </trkpt>
      <trkpt lat="50.56163" lon="2.98807">
        <ele>21</ele>
        <time>2023-08-05T16:35:01Z</time>
      </trkpt>
      <trkpt lat="50.5616" lon="2.98812">
        <ele>21</ele>
        <time>2023-08-05T16:35:02Z</time>
      </trkpt>
      <trkpt lat="50.56158" lon="2.98818">
        <ele>21</ele>
        <time>2023-08-05T16:35:03Z</time>
      </trkpt>
      <trkpt lat="50.56147" lon="2.98845">
        <ele>20.6</ele>
        <time>2023-08-05T16:35:07Z</time>
      </trkpt>
      <trkpt lat="50.56138" lon="2.98869">
        <ele>20.4</ele>
        <time>2023-08-05T16:35:11Z</time>
      </trkpt>
      <trkpt lat="50.56128" lon="2.98892">
        <ele>20.4</ele>
        <time>2023-08-05T16:35:14Z</time>
      </trkpt>
      <trkpt lat="50.56125" lon="2.98897">
        <ele>20.2</ele>
        <time>2023-08-05T16:35:15Z</time>
      </trkpt>
      <trkpt lat="50.56124" lon="2.98902">
        <ele>20</ele>
        <time>2023-08-05T16:35:16Z</time>
      </trkpt>
      <trkpt lat="50.5612" lon="2.98914">
        <ele>19.8</ele>
        <time>2023-08-05T16:35:18Z</time>
      </trkpt>
      <trkpt lat="50.56118" lon="2.98918">
        <ele>19.8</ele>
        <time>2023-08-05T16:35:19Z</time>
      </trkpt>
      <trkpt lat="50.56116" lon="2.98924">
        <ele>20</ele>
        <time>2023-08-05T16:35:20Z</time>
      </trkpt>
      <trkpt lat="50.56114" lon="2.98929">
        <ele>19.8</ele>
        <time>2023-08-05T16:35:21Z</time>
      </trkpt>
      <trkpt lat="50.56113" lon="2.98935">
        <ele>19.8</ele>
        <time>2023-08-05T16:35:22Z</time>
      </trkpt>
      <trkpt lat="50.56111" lon="2.9894">
        <ele>19.8</ele>
        <time>2023-08-05T16:35:23Z</time>
      </trkpt>
      <trkpt lat="50.56107" lon="2.9895">
        <ele>20</ele>
        <time>2023-08-05T16:35:25Z</time>
      </trkpt>
      <trkpt lat="50.56101" lon="2.98965">
        <ele>20.2</ele>
        <time>2023-08-05T16:35:28Z</time>
      </trkpt>
      <trkpt lat="50.56099" lon="2.98971">
        <ele>20.2</ele>
        <time>2023-08-05T16:35:29Z</time>
      </trkpt>
      <trkpt lat="50.56097" lon="2.98976">
        <ele>20.2</ele>
        <time>2023-08-05T16:35:30Z</time>
      </trkpt>
      <trkpt lat="50.56093" lon="2.98987">
        <ele>20.6</ele>
        <time>2023-08-05T16:35:32Z</time>
      </trkpt>
      <trkpt lat="50.56083" lon="2.9902">
        <ele>20.8</ele>
        <time>2023-08-05T16:35:37Z</time>
      </trkpt>
      <trkpt lat="50.56078" lon="2.99036">
        <ele>20.6</ele>
        <time>2023-08-05T16:35:40Z</time>
      </trkpt>
      <trkpt lat="50.56072" lon="2.99055">
        <ele>20.6</ele>
        <time>2023-08-05T16:35:43Z</time>
      </trkpt>
      <trkpt lat="50.56067" lon="2.99067">
        <ele>20.6</ele>
        <time>2023-08-05T16:35:45Z</time>
      </trkpt>
      <trkpt lat="50.56065" lon="2.99073">
        <ele>20.6</ele>
        <time>2023-08-05T16:35:46Z</time>
      </trkpt>
      <trkpt lat="50.56063" lon="2.9908">
        <ele>20.4</ele>
        <time>2023-08-05T16:35:47Z</time>
      </trkpt>
      <trkpt lat="50.56051" lon="2.99112">
        <ele>20.2</ele>
        <time>2023-08-05T16:35:52Z</time>
      </trkpt>
      <trkpt lat="50.56044" lon="2.9913">
        <ele>20.4</ele>
        <time>2023-08-05T16:35:55Z</time>
      </trkpt>
      <trkpt lat="50.56041" lon="2.99136">
        <ele>20.4</ele>
        <time>2023-08-05T16:35:56Z</time>
      </trkpt>
      <trkpt lat="50.56038" lon="2.99142">
        <ele>20.4</ele>
        <time>2023-08-05T16:35:57Z</time>
      </trkpt>
      <trkpt lat="50.56034" lon="2.99155">
        <ele>20.6</ele>
        <time>2023-08-05T16:35:59Z</time>
      </trkpt>
      <trkpt lat="50.56032" lon="2.99161">
        <ele>20.4</ele>
        <time>2023-08-05T16:36:00Z</time>
      </trkpt>
      <trkpt lat="50.56021" lon="2.99195">
        <ele>20.2</ele>
        <time>2023-08-05T16:36:06Z</time>
      </trkpt>
      <trkpt lat="50.56017" lon="2.99206">
        <ele>20.4</ele>
        <time>2023-08-05T16:36:08Z</time>
      </trkpt>
      <trkpt lat="50.56015" lon="2.99212">
        <ele>20.4</ele>
        <time>2023-08-05T16:36:09Z</time>
      </trkpt>
      <trkpt lat="50.56013" lon="2.99216">
        <ele>20.4</ele>
        <time>2023-08-05T16:36:10Z</time>
      </trkpt>
      <trkpt lat="50.56012" lon="2.9922">
        <ele>20.4</ele>
        <time>2023-08-05T16:36:11Z</time>
      </trkpt>
      <trkpt lat="50.56011" lon="2.99224">
        <ele>20.4</ele>
        <time>2023-08-05T16:36:12Z</time>
      </trkpt>
      <trkpt lat="50.56009" lon="2.99228">
        <ele>20.4</ele>
        <time>2023-08-05T16:36:13Z</time>
      </trkpt>
      <trkpt lat="50.56007" lon="2.99234">
        <ele>20.6</ele>
        <time>2023-08-05T16:36:14Z</time>
      </trkpt>
      <trkpt lat="50.56003" lon="2.99242">
        <ele>20.4</ele>
        <time>2023-08-05T16:36:16Z</time>
      </trkpt>
      <trkpt lat="50.56002" lon="2.99246">
        <ele>20.6</ele>
        <time>2023-08-05T16:36:17Z</time>
      </trkpt>
      <trkpt lat="50.56" lon="2.9925">
        <ele>20.4</ele>
        <time>2023-08-05T16:36:18Z</time>
      </trkpt>
      <trkpt lat="50.55999" lon="2.99255">
        <ele>20.4</ele>
        <time>2023-08-05T16:36:19Z</time>
      </trkpt>
      <trkpt lat="50.55997" lon="2.9926">
        <ele>20.8</ele>
        <time>2023-08-05T16:36:20Z</time>
      </trkpt>
      <trkpt lat="50.55995" lon="2.99265">
        <ele>20.6</ele>
        <time>2023-08-05T16:36:21Z</time>
      </trkpt>
      <trkpt lat="50.55987" lon="2.99289">
        <ele>21</ele>
        <time>2023-08-05T16:36:26Z</time>
      </trkpt>
      <trkpt lat="50.55979" lon="2.99313">
        <ele>20.8</ele>
        <time>2023-08-05T16:36:31Z</time>
      </trkpt>
      <trkpt lat="50.55977" lon="2.99318">
        <ele>20.8</ele>
        <time>2023-08-05T16:36:32Z</time>
      </trkpt>
      <trkpt lat="50.55977" lon="2.99318">
        <ele>20.8</ele>
        <time>2023-08-05T16:36:33Z</time>
      </trkpt>
      <trkpt lat="50.55958" lon="2.99366">
        <ele>20.8</ele>
        <time>2023-08-05T16:36:40Z</time>
      </trkpt>
      <trkpt lat="50.55944" lon="2.99406">
        <ele>20.6</ele>
        <time>2023-08-05T16:36:46Z</time>
      </trkpt>
      <trkpt lat="50.55942" lon="2.99413">
        <ele>20.8</ele>
        <time>2023-08-05T16:36:47Z</time>
      </trkpt>
      <trkpt lat="50.5594" lon="2.99418">
        <ele>20.8</ele>
        <time>2023-08-05T16:36:48Z</time>
      </trkpt>
      <trkpt lat="50.55937" lon="2.99425">
        <ele>20.8</ele>
        <time>2023-08-05T16:36:49Z</time>
      </trkpt>
      <trkpt lat="50.55931" lon="2.99441">
        <ele>20.8</ele>
        <time>2023-08-05T16:36:52Z</time>
      </trkpt>
      <trkpt lat="50.55929" lon="2.99445">
        <ele>20.8</ele>
        <time>2023-08-05T16:36:53Z</time>
      </trkpt>
      <trkpt lat="50.55927" lon="2.99451">
        <ele>20.8</ele>
        <time>2023-08-05T16:36:54Z</time>
      </trkpt>
      <trkpt lat="50.55924" lon="2.99456">
        <ele>21</ele>
        <time>2023-08-05T16:36:55Z</time>
      </trkpt>
      <trkpt lat="50.55922" lon="2.99462">
        <ele>21</ele>
        <time>2023-08-05T16:36:56Z</time>
      </trkpt>
      <trkpt lat="50.55915" lon="2.99483">
        <ele>21.2</ele>
        <time>2023-08-05T16:37:00Z</time>
      </trkpt>
      <trkpt lat="50.55913" lon="2.99488">
        <ele>21.2</ele>
        <time>2023-08-05T16:37:01Z</time>
      </trkpt>
      <trkpt lat="50.55911" lon="2.99493">
        <ele>21.2</ele>
        <time>2023-08-05T16:37:02Z</time>
      </trkpt>
      <trkpt lat="50.55909" lon="2.99498">
        <ele>21.2</ele>
        <time>2023-08-05T16:37:03Z</time>
      </trkpt>
      <trkpt lat="50.55905" lon="2.9951">
        <ele>21.2</ele>
        <time>2023-08-05T16:37:05Z</time>
      </trkpt>
      <trkpt lat="50.55901" lon="2.99521">
        <ele>21.2</ele>
        <time>2023-08-05T16:37:07Z</time>
      </trkpt>
      <trkpt lat="50.55899" lon="2.99526">
        <ele>21</ele>
        <time>2023-08-05T16:37:08Z</time>
      </trkpt>
      <trkpt lat="50.55898" lon="2.9953">
        <ele>21</ele>
        <time>2023-08-05T16:37:09Z</time>
      </trkpt>
      <trkpt lat="50.55896" lon="2.99535">
        <ele>21</ele>
        <time>2023-08-05T16:37:10Z</time>
      </trkpt>
      <trkpt lat="50.55894" lon="2.9954">
        <ele>21</ele>
        <time>2023-08-05T16:37:11Z</time>
      </trkpt>
      <trkpt lat="50.55893" lon="2.99545">
        <ele>21</ele>
        <time>2023-08-05T16:37:12Z</time>
      </trkpt>
      <trkpt lat="50.55891" lon="2.9955">
        <ele>21</ele>
        <time>2023-08-05T16:37:13Z</time>
      </trkpt>
      <trkpt lat="50.55889" lon="2.99555">
        <ele>21</ele>
        <time>2023-08-05T16:37:14Z</time>
      </trkpt>
      <trkpt lat="50.55885" lon="2.99565">
        <ele>21</ele>
        <time>2023-08-05T16:37:16Z</time>
      </trkpt>
      <trkpt lat="50.55883" lon="2.99571">
        <ele>21</ele>
        <time>2023-08-05T16:37:17Z</time>
      </trkpt>
      <trkpt lat="50.55881" lon="2.99576">
        <ele>21</ele>
        <time>2023-08-05T16:37:18Z</time>
      </trkpt>
      <trkpt lat="50.55869" lon="2.99613">
        <ele>20.6</ele>
        <time>2023-08-05T16:37:25Z</time>
      </trkpt>
      <trkpt lat="50.55863" lon="2.99635">
        <ele>20.6</ele>
        <time>2023-08-05T16:37:29Z</time>
      </trkpt>
      <trkpt lat="50.55856" lon="2.9965">
        <ele>20.8</ele>
        <time>2023-08-05T16:37:32Z</time>
      </trkpt>
      <trkpt lat="50.55854" lon="2.99655">
        <ele>20.8</ele>
        <time>2023-08-05T16:37:33Z</time>
      </trkpt>
      <trkpt lat="50.55853" lon="2.9966">
        <ele>20.8</ele>
        <time>2023-08-05T16:37:34Z</time>
      </trkpt>
      <trkpt lat="50.55841" lon="2.99696">
        <ele>20.8</ele>
        <time>2023-08-05T16:37:40Z</time>
      </trkpt>
      <trkpt lat="50.55825" lon="2.99742">
        <ele>20</ele>
        <time>2023-08-05T16:37:48Z</time>
      </trkpt>
      <trkpt lat="50.55823" lon="2.99747">
        <ele>20.2</ele>
        <time>2023-08-05T16:37:49Z</time>
      </trkpt>
      <trkpt lat="50.55814" lon="2.99772">
        <ele>20.2</ele>
        <time>2023-08-05T16:37:54Z</time>
      </trkpt>
      <trkpt lat="50.55813" lon="2.99776">
        <ele>20.2</ele>
        <time>2023-08-05T16:37:55Z</time>
      </trkpt>
      <trkpt lat="50.55811" lon="2.99781">
        <ele>20.2</ele>
        <time>2023-08-05T16:37:56Z</time>
      </trkpt>
      <trkpt lat="50.55809" lon="2.99786">
        <ele>20.2</ele>
        <time>2023-08-05T16:37:57Z</time>
      </trkpt>
      <trkpt lat="50.55807" lon="2.99791">
        <ele>20.2</ele>
        <time>2023-08-05T16:37:58Z</time>
      </trkpt>
      <trkpt lat="50.55805" lon="2.99796">
        <ele>20.4</ele>
        <time>2023-08-05T16:37:59Z</time>
      </trkpt>
      <trkpt lat="50.55803" lon="2.99801">
        <ele>20.4</ele>
        <time>2023-08-05T16:38:00Z</time>
      </trkpt>
      <trkpt lat="50.55798" lon="2.99812">
        <ele>20.6</ele>
        <time>2023-08-05T16:38:02Z</time>
      </trkpt>
      <trkpt lat="50.55781" lon="2.99849">
        <ele>20.6</ele>
        <time>2023-08-05T16:38:09Z</time>
      </trkpt>
      <trkpt lat="50.55773" lon="2.9987">
        <ele>20.6</ele>
        <time>2023-08-05T16:38:13Z</time>
      </trkpt>
      <trkpt lat="50.55766" lon="2.99882">
        <ele>20.8</ele>
        <time>2023-08-05T16:38:16Z</time>
      </trkpt>
      <trkpt lat="50.55764" lon="2.99887">
        <ele>20.8</ele>
        <time>2023-08-05T16:38:17Z</time>
      </trkpt>
      <trkpt lat="50.55762" lon="2.99892">
        <ele>20.8</ele>
        <time>2023-08-05T16:38:18Z</time>
      </trkpt>
      <trkpt lat="50.5576" lon="2.99897">
        <ele>20.8</ele>
        <time>2023-08-05T16:38:19Z</time>
      </trkpt>
      <trkpt lat="50.55758" lon="2.99902">
        <ele>20.8</ele>
        <time>2023-08-05T16:38:20Z</time>
      </trkpt>
      <trkpt lat="50.55755" lon="2.99908">
        <ele>20.8</ele>
        <time>2023-08-05T16:38:21Z</time>
      </trkpt>
      <trkpt lat="50.55753" lon="2.99913">
        <ele>20.6</ele>
        <time>2023-08-05T16:38:22Z</time>
      </trkpt>
      <trkpt lat="50.55748" lon="2.99923">
        <ele>20.8</ele>
        <time>2023-08-05T16:38:24Z</time>
      </trkpt>
      <trkpt lat="50.55741" lon="2.99937">
        <ele>20.8</ele>
        <time>2023-08-05T16:38:27Z</time>
      </trkpt>
      <trkpt lat="50.55733" lon="2.99952">
        <ele>20.8</ele>
        <time>2023-08-05T16:38:30Z</time>
      </trkpt>
      <trkpt lat="50.55722" lon="2.99977">
        <ele>20.8</ele>
        <time>2023-08-05T16:38:35Z</time>
      </trkpt>
      <trkpt lat="50.55712" lon="2.99998">
        <ele>20.8</ele>
        <time>2023-08-05T16:38:39Z</time>
      </trkpt>
      <trkpt lat="50.5571" lon="3.00003">
        <ele>20.8</ele>
        <time>2023-08-05T16:38:40Z</time>
      </trkpt>
      <trkpt lat="50.55708" lon="3.00008">
        <ele>20.6</ele>
        <time>2023-08-05T16:38:41Z</time>
      </trkpt>
      <trkpt lat="50.55706" lon="3.00013">
        <ele>20.8</ele>
        <time>2023-08-05T16:38:42Z</time>
      </trkpt>
      <trkpt lat="50.55694" lon="3.00036">
        <ele>20.6</ele>
        <time>2023-08-05T16:38:46Z</time>
      </trkpt>
      <trkpt lat="50.55692" lon="3.0004">
        <ele>20.6</ele>
        <time>2023-08-05T16:38:47Z</time>
      </trkpt>
      <trkpt lat="50.5569" lon="3.00044">
        <ele>20.6</ele>
        <time>2023-08-05T16:38:48Z</time>
      </trkpt>
      <trkpt lat="50.55687" lon="3.00051">
        <ele>20.6</ele>
        <time>2023-08-05T16:38:49Z</time>
      </trkpt>
      <trkpt lat="50.55686" lon="3.00058">
        <ele>20.6</ele>
        <time>2023-08-05T16:38:50Z</time>
      </trkpt>
      <trkpt lat="50.55684" lon="3.00063">
        <ele>20.6</ele>
        <time>2023-08-05T16:38:51Z</time>
      </trkpt>
      <trkpt lat="50.55681" lon="3.00067">
        <ele>20.4</ele>
        <time>2023-08-05T16:38:52Z</time>
      </trkpt>
      <trkpt lat="50.55679" lon="3.00072">
        <ele>20.4</ele>
        <time>2023-08-05T16:38:53Z</time>
      </trkpt>
      <trkpt lat="50.55667" lon="3.001">
        <ele>20.6</ele>
        <time>2023-08-05T16:38:58Z</time>
      </trkpt>
      <trkpt lat="50.55661" lon="3.00111">
        <ele>20.6</ele>
        <time>2023-08-05T16:39:00Z</time>
      </trkpt>
      <trkpt lat="50.55659" lon="3.00117">
        <ele>20.8</ele>
        <time>2023-08-05T16:39:01Z</time>
      </trkpt>
      <trkpt lat="50.55637" lon="3.00168">
        <ele>21</ele>
        <time>2023-08-05T16:39:10Z</time>
      </trkpt>
      <trkpt lat="50.55632" lon="3.00178">
        <ele>21</ele>
        <time>2023-08-05T16:39:12Z</time>
      </trkpt>
      <trkpt lat="50.55628" lon="3.0019">
        <ele>20.8</ele>
        <time>2023-08-05T16:39:14Z</time>
      </trkpt>
      <trkpt lat="50.55626" lon="3.00196">
        <ele>20.8</ele>
        <time>2023-08-05T16:39:15Z</time>
      </trkpt>
      <trkpt lat="50.55625" lon="3.00201">
        <ele>20.6</ele>
        <time>2023-08-05T16:39:16Z</time>
      </trkpt>
      <trkpt lat="50.55622" lon="3.00206">
        <ele>20.6</ele>
        <time>2023-08-05T16:39:17Z</time>
      </trkpt>
      <trkpt lat="50.5562" lon="3.00211">
        <ele>20.6</ele>
        <time>2023-08-05T16:39:18Z</time>
      </trkpt>
      <trkpt lat="50.55612" lon="3.00226">
        <ele>20.6</ele>
        <time>2023-08-05T16:39:21Z</time>
      </trkpt>
      <trkpt lat="50.5561" lon="3.00231">
        <ele>20.6</ele>
        <time>2023-08-05T16:39:22Z</time>
      </trkpt>
      <trkpt lat="50.55608" lon="3.00236">
        <ele>20.6</ele>
        <time>2023-08-05T16:39:23Z</time>
      </trkpt>
      <trkpt lat="50.55606" lon="3.00241">
        <ele>20.8</ele>
        <time>2023-08-05T16:39:24Z</time>
      </trkpt>
      <trkpt lat="50.55604" lon="3.00245">
        <ele>20.6</ele>
        <time>2023-08-05T16:39:25Z</time>
      </trkpt>
      <trkpt lat="50.55602" lon="3.00251">
        <ele>20.8</ele>
        <time>2023-08-05T16:39:26Z</time>
      </trkpt>
      <trkpt lat="50.55599" lon="3.00256">
        <ele>20.8</ele>
        <time>2023-08-05T16:39:27Z</time>
      </trkpt>
      <trkpt lat="50.55596" lon="3.00261">
        <ele>20.8</ele>
        <time>2023-08-05T16:39:28Z</time>
      </trkpt>
      <trkpt lat="50.55578" lon="3.00299">
        <ele>20.8</ele>
        <time>2023-08-05T16:39:35Z</time>
      </trkpt>
      <trkpt lat="50.55561" lon="3.00336">
        <ele>20.8</ele>
        <time>2023-08-05T16:39:42Z</time>
      </trkpt>
      <trkpt lat="50.55559" lon="3.00341">
        <ele>20.8</ele>
        <time>2023-08-05T16:39:43Z</time>
      </trkpt>
      <trkpt lat="50.55557" lon="3.00346">
        <ele>20.8</ele>
        <time>2023-08-05T16:39:44Z</time>
      </trkpt>
      <trkpt lat="50.55554" lon="3.00351">
        <ele>20.8</ele>
        <time>2023-08-05T16:39:45Z</time>
      </trkpt>
      <trkpt lat="50.55546" lon="3.00369">
        <ele>21</ele>
        <time>2023-08-05T16:39:48Z</time>
      </trkpt>
      <trkpt lat="50.55543" lon="3.00375">
        <ele>21</ele>
        <time>2023-08-05T16:39:49Z</time>
      </trkpt>
      <trkpt lat="50.5554" lon="3.00381">
        <ele>21</ele>
        <time>2023-08-05T16:39:50Z</time>
      </trkpt>
      <trkpt lat="50.55539" lon="3.00385">
        <ele>21</ele>
        <time>2023-08-05T16:39:51Z</time>
      </trkpt>
      <trkpt lat="50.55538" lon="3.00389">
        <ele>21</ele>
        <time>2023-08-05T16:39:52Z</time>
      </trkpt>
      <trkpt lat="50.55535" lon="3.00394">
        <ele>21</ele>
        <time>2023-08-05T16:39:53Z</time>
      </trkpt>
      <trkpt lat="50.55529" lon="3.00406">
        <ele>21</ele>
        <time>2023-08-05T16:39:55Z</time>
      </trkpt>
      <trkpt lat="50.55524" lon="3.00416">
        <ele>21</ele>
        <time>2023-08-05T16:39:57Z</time>
      </trkpt>
      <trkpt lat="50.55522" lon="3.00422">
        <ele>21</ele>
        <time>2023-08-05T16:39:58Z</time>
      </trkpt>
      <trkpt lat="50.55519" lon="3.00428">
        <ele>21</ele>
        <time>2023-08-05T16:39:59Z</time>
      </trkpt>
      <trkpt lat="50.55517" lon="3.00433">
        <ele>21</ele>
        <time>2023-08-05T16:40:00Z</time>
      </trkpt>
      <trkpt lat="50.55515" lon="3.00438">
        <ele>21</ele>
        <time>2023-08-05T16:40:01Z</time>
      </trkpt>
      <trkpt lat="50.55504" lon="3.00463">
        <ele>21</ele>
        <time>2023-08-05T16:40:05Z</time>
      </trkpt>
      <trkpt lat="50.55503" lon="3.00471">
        <ele>21</ele>
        <time>2023-08-05T16:40:06Z</time>
      </trkpt>
      <trkpt lat="50.55501" lon="3.00476">
        <ele>21</ele>
        <time>2023-08-05T16:40:07Z</time>
      </trkpt>
      <trkpt lat="50.55497" lon="3.00482">
        <ele>21</ele>
        <time>2023-08-05T16:40:08Z</time>
      </trkpt>
      <trkpt lat="50.55494" lon="3.0049">
        <ele>21</ele>
        <time>2023-08-05T16:40:09Z</time>
      </trkpt>
      <trkpt lat="50.55482" lon="3.00516">
        <ele>21</ele>
        <time>2023-08-05T16:40:14Z</time>
      </trkpt>
      <trkpt lat="50.5548" lon="3.0052">
        <ele>21.2</ele>
        <time>2023-08-05T16:40:15Z</time>
      </trkpt>
      <trkpt lat="50.55478" lon="3.00524">
        <ele>21.2</ele>
        <time>2023-08-05T16:40:16Z</time>
      </trkpt>
      <trkpt lat="50.55477" lon="3.00529">
        <ele>21.2</ele>
        <time>2023-08-05T16:40:17Z</time>
      </trkpt>
      <trkpt lat="50.55475" lon="3.00533">
        <ele>21.2</ele>
        <time>2023-08-05T16:40:18Z</time>
      </trkpt>
      <trkpt lat="50.55473" lon="3.00537">
        <ele>21.2</ele>
        <time>2023-08-05T16:40:19Z</time>
      </trkpt>
      <trkpt lat="50.5547" lon="3.00542">
        <ele>21.2</ele>
        <time>2023-08-05T16:40:20Z</time>
      </trkpt>
      <trkpt lat="50.55462" lon="3.00561">
        <ele>21.4</ele>
        <time>2023-08-05T16:40:24Z</time>
      </trkpt>
      <trkpt lat="50.55459" lon="3.00566">
        <ele>21.4</ele>
        <time>2023-08-05T16:40:25Z</time>
      </trkpt>
      <trkpt lat="50.55443" lon="3.00599">
        <ele>21.4</ele>
        <time>2023-08-05T16:40:31Z</time>
      </trkpt>
      <trkpt lat="50.55441" lon="3.00604">
        <ele>21.4</ele>
        <time>2023-08-05T16:40:32Z</time>
      </trkpt>
      <trkpt lat="50.55424" lon="3.00645">
        <ele>21</ele>
        <time>2023-08-05T16:40:39Z</time>
      </trkpt>
      <trkpt lat="50.55413" lon="3.00667">
        <ele>21</ele>
        <time>2023-08-05T16:40:43Z</time>
      </trkpt>
      <trkpt lat="50.55408" lon="3.00679">
        <ele>21</ele>
        <time>2023-08-05T16:40:45Z</time>
      </trkpt>
      <trkpt lat="50.55405" lon="3.00684">
        <ele>21</ele>
        <time>2023-08-05T16:40:46Z</time>
      </trkpt>
      <trkpt lat="50.55402" lon="3.0069">
        <ele>21</ele>
        <time>2023-08-05T16:40:47Z</time>
      </trkpt>
      <trkpt lat="50.55389" lon="3.0072">
        <ele>21.2</ele>
        <time>2023-08-05T16:40:52Z</time>
      </trkpt>
      <trkpt lat="50.55386" lon="3.00725">
        <ele>21.4</ele>
        <time>2023-08-05T16:40:53Z</time>
      </trkpt>
      <trkpt lat="50.55382" lon="3.00733">
        <ele>21.4</ele>
        <time>2023-08-05T16:40:54Z</time>
      </trkpt>
      <trkpt lat="50.55379" lon="3.00738">
        <ele>21.4</ele>
        <time>2023-08-05T16:40:55Z</time>
      </trkpt>
      <trkpt lat="50.55377" lon="3.00742">
        <ele>21.6</ele>
        <time>2023-08-05T16:40:56Z</time>
      </trkpt>
      <trkpt lat="50.55374" lon="3.00747">
        <ele>21.6</ele>
        <time>2023-08-05T16:40:57Z</time>
      </trkpt>
      <trkpt lat="50.55374" lon="3.00752">
        <ele>21.6</ele>
        <time>2023-08-05T16:40:58Z</time>
      </trkpt>
      <trkpt lat="50.55372" lon="3.00758">
        <ele>21.6</ele>
        <time>2023-08-05T16:40:59Z</time>
      </trkpt>
      <trkpt lat="50.5537" lon="3.00764">
        <ele>21.6</ele>
        <time>2023-08-05T16:41:00Z</time>
      </trkpt>
      <trkpt lat="50.55367" lon="3.00769">
        <ele>21.6</ele>
        <time>2023-08-05T16:41:01Z</time>
      </trkpt>
      <trkpt lat="50.55365" lon="3.00775">
        <ele>21.6</ele>
        <time>2023-08-05T16:41:02Z</time>
      </trkpt>
      <trkpt lat="50.55361" lon="3.00779">
        <ele>21.6</ele>
        <time>2023-08-05T16:41:03Z</time>
      </trkpt>
      <trkpt lat="50.55357" lon="3.00784">
        <ele>21.6</ele>
        <time>2023-08-05T16:41:04Z</time>
      </trkpt>
      <trkpt lat="50.55354" lon="3.0079">
        <ele>21.4</ele>
        <time>2023-08-05T16:41:05Z</time>
      </trkpt>
      <trkpt lat="50.55351" lon="3.00797">
        <ele>21.4</ele>
        <time>2023-08-05T16:41:06Z</time>
      </trkpt>
      <trkpt lat="50.55346" lon="3.00809">
        <ele>21.4</ele>
        <time>2023-08-05T16:41:08Z</time>
      </trkpt>
      <trkpt lat="50.55344" lon="3.00814">
        <ele>21.4</ele>
        <time>2023-08-05T16:41:09Z</time>
      </trkpt>
      <trkpt lat="50.55343" lon="3.0082">
        <ele>21.2</ele>
        <time>2023-08-05T16:41:10Z</time>
      </trkpt>
      <trkpt lat="50.55338" lon="3.00832">
        <ele>21.2</ele>
        <time>2023-08-05T16:41:12Z</time>
      </trkpt>
      <trkpt lat="50.55332" lon="3.00843">
        <ele>21.4</ele>
        <time>2023-08-05T16:41:14Z</time>
      </trkpt>
      <trkpt lat="50.5533" lon="3.00848">
        <ele>21.4</ele>
        <time>2023-08-05T16:41:15Z</time>
      </trkpt>
      <trkpt lat="50.55323" lon="3.00863">
        <ele>21.4</ele>
        <time>2023-08-05T16:41:18Z</time>
      </trkpt>
      <trkpt lat="50.55321" lon="3.00867">
        <ele>21.4</ele>
        <time>2023-08-05T16:41:19Z</time>
      </trkpt>
      <trkpt lat="50.55318" lon="3.00872">
        <ele>21.4</ele>
        <time>2023-08-05T16:41:20Z</time>
      </trkpt>
      <trkpt lat="50.55314" lon="3.00881">
        <ele>21.4</ele>
        <time>2023-08-05T16:41:22Z</time>
      </trkpt>
      <trkpt lat="50.55312" lon="3.00885">
        <ele>21.2</ele>
        <time>2023-08-05T16:41:23Z</time>
      </trkpt>
      <trkpt lat="50.55308" lon="3.00891">
        <ele>21.2</ele>
        <time>2023-08-05T16:41:24Z</time>
      </trkpt>
      <trkpt lat="50.55296" lon="3.00922">
        <ele>21.2</ele>
        <time>2023-08-05T16:41:29Z</time>
      </trkpt>
      <trkpt lat="50.55294" lon="3.00927">
        <ele>21.2</ele>
        <time>2023-08-05T16:41:30Z</time>
      </trkpt>
      <trkpt lat="50.55289" lon="3.00938">
        <ele>21.2</ele>
        <time>2023-08-05T16:41:32Z</time>
      </trkpt>
      <trkpt lat="50.5528" lon="3.00958">
        <ele>21.4</ele>
        <time>2023-08-05T16:41:35Z</time>
      </trkpt>
      <trkpt lat="50.55277" lon="3.00964">
        <ele>21.4</ele>
        <time>2023-08-05T16:41:36Z</time>
      </trkpt>
      <trkpt lat="50.55275" lon="3.0097">
        <ele>21.6</ele>
        <time>2023-08-05T16:41:37Z</time>
      </trkpt>
      <trkpt lat="50.55272" lon="3.00976">
        <ele>21.6</ele>
        <time>2023-08-05T16:41:38Z</time>
      </trkpt>
      <trkpt lat="50.55265" lon="3.00993">
        <ele>21.4</ele>
        <time>2023-08-05T16:41:41Z</time>
      </trkpt>
      <trkpt lat="50.55262" lon="3.00998">
        <ele>21.4</ele>
        <time>2023-08-05T16:41:42Z</time>
      </trkpt>
      <trkpt lat="50.55242" lon="3.01028">
        <ele>21.4</ele>
        <time>2023-08-05T16:41:47Z</time>
      </trkpt>
      <trkpt lat="50.55234" lon="3.01045">
        <ele>21.4</ele>
        <time>2023-08-05T16:41:50Z</time>
      </trkpt>
      <trkpt lat="50.55232" lon="3.01052">
        <ele>21.4</ele>
        <time>2023-08-05T16:41:51Z</time>
      </trkpt>
      <trkpt lat="50.55225" lon="3.01073">
        <ele>21.4</ele>
        <time>2023-08-05T16:41:54Z</time>
      </trkpt>
      <trkpt lat="50.55224" lon="3.01078">
        <ele>21.4</ele>
        <time>2023-08-05T16:41:55Z</time>
      </trkpt>
      <trkpt lat="50.55222" lon="3.01083">
        <ele>21.4</ele>
        <time>2023-08-05T16:41:56Z</time>
      </trkpt>
      <trkpt lat="50.55218" lon="3.01091">
        <ele>21.2</ele>
        <time>2023-08-05T16:41:58Z</time>
      </trkpt>
      <trkpt lat="50.55217" lon="3.01097">
        <ele>21</ele>
        <time>2023-08-05T16:41:59Z</time>
      </trkpt>
      <trkpt lat="50.55217" lon="3.01102">
        <ele>21.2</ele>
        <time>2023-08-05T16:42:00Z</time>
      </trkpt>
      <trkpt lat="50.55215" lon="3.01111">
        <ele>21.2</ele>
        <time>2023-08-05T16:42:01Z</time>
      </trkpt>
      <trkpt lat="50.5521" lon="3.01119">
        <ele>21.2</ele>
        <time>2023-08-05T16:42:02Z</time>
      </trkpt>
      <trkpt lat="50.55204" lon="3.0113">
        <ele>21.2</ele>
        <time>2023-08-05T16:42:04Z</time>
      </trkpt>
      <trkpt lat="50.55202" lon="3.01135">
        <ele>21.2</ele>
        <time>2023-08-05T16:42:05Z</time>
      </trkpt>
      <trkpt lat="50.552" lon="3.01141">
        <ele>21.2</ele>
        <time>2023-08-05T16:42:06Z</time>
      </trkpt>
      <trkpt lat="50.55198" lon="3.01147">
        <ele>21.2</ele>
        <time>2023-08-05T16:42:07Z</time>
      </trkpt>
      <trkpt lat="50.55197" lon="3.01152">
        <ele>21.2</ele>
        <time>2023-08-05T16:42:08Z</time>
      </trkpt>
      <trkpt lat="50.55195" lon="3.01157">
        <ele>21.2</ele>
        <time>2023-08-05T16:42:09Z</time>
      </trkpt>
      <trkpt lat="50.55187" lon="3.0118">
        <ele>21.4</ele>
        <time>2023-08-05T16:42:13Z</time>
      </trkpt>
      <trkpt lat="50.55184" lon="3.01188">
        <ele>21.4</ele>
        <time>2023-08-05T16:42:15Z</time>
      </trkpt>
      <trkpt lat="50.55182" lon="3.01193">
        <ele>21.4</ele>
        <time>2023-08-05T16:42:16Z</time>
      </trkpt>
      <trkpt lat="50.5518" lon="3.01198">
        <ele>21.4</ele>
        <time>2023-08-05T16:42:17Z</time>
      </trkpt>
      <trkpt lat="50.55173" lon="3.01218">
        <ele>21.4</ele>
        <time>2023-08-05T16:42:21Z</time>
      </trkpt>
      <trkpt lat="50.55172" lon="3.01224">
        <ele>21.4</ele>
        <time>2023-08-05T16:42:22Z</time>
      </trkpt>
      <trkpt lat="50.55172" lon="3.0123">
        <ele>21.4</ele>
        <time>2023-08-05T16:42:23Z</time>
      </trkpt>
      <trkpt lat="50.55167" lon="3.01248">
        <ele>21.2</ele>
        <time>2023-08-05T16:42:27Z</time>
      </trkpt>
      <trkpt lat="50.55167" lon="3.01253">
        <ele>21.2</ele>
        <time>2023-08-05T16:42:28Z</time>
      </trkpt>
      <trkpt lat="50.55166" lon="3.01258">
        <ele>21.2</ele>
        <time>2023-08-05T16:42:29Z</time>
      </trkpt>
      <trkpt lat="50.55163" lon="3.01269">
        <ele>21.2</ele>
        <time>2023-08-05T16:42:31Z</time>
      </trkpt>
      <trkpt lat="50.5516" lon="3.01276">
        <ele>21.2</ele>
        <time>2023-08-05T16:42:32Z</time>
      </trkpt>
      <trkpt lat="50.55149" lon="3.01301">
        <ele>21</ele>
        <time>2023-08-05T16:42:36Z</time>
      </trkpt>
      <trkpt lat="50.55133" lon="3.01364">
        <ele>21.2</ele>
        <time>2023-08-05T16:42:44Z</time>
      </trkpt>
      <trkpt lat="50.55124" lon="3.01388">
        <ele>21.2</ele>
        <time>2023-08-05T16:42:48Z</time>
      </trkpt>
      <trkpt lat="50.55124" lon="3.01393">
        <ele>21.2</ele>
        <time>2023-08-05T16:42:49Z</time>
      </trkpt>
      <trkpt lat="50.55122" lon="3.01399">
        <ele>21.2</ele>
        <time>2023-08-05T16:42:50Z</time>
      </trkpt>
      <trkpt lat="50.5512" lon="3.01406">
        <ele>21.2</ele>
        <time>2023-08-05T16:42:51Z</time>
      </trkpt>
      <trkpt lat="50.55113" lon="3.01428">
        <ele>21.4</ele>
        <time>2023-08-05T16:42:54Z</time>
      </trkpt>
      <trkpt lat="50.55111" lon="3.01436">
        <ele>21.4</ele>
        <time>2023-08-05T16:42:55Z</time>
      </trkpt>
      <trkpt lat="50.55109" lon="3.01443">
        <ele>21.4</ele>
        <time>2023-08-05T16:42:56Z</time>
      </trkpt>
      <trkpt lat="50.55106" lon="3.01458">
        <ele>21.6</ele>
        <time>2023-08-05T16:42:58Z</time>
      </trkpt>
      <trkpt lat="50.55102" lon="3.01471">
        <ele>21.6</ele>
        <time>2023-08-05T16:43:00Z</time>
      </trkpt>
      <trkpt lat="50.55099" lon="3.01479">
        <ele>21.6</ele>
        <time>2023-08-05T16:43:01Z</time>
      </trkpt>
      <trkpt lat="50.55093" lon="3.01496">
        <ele>21.6</ele>
        <time>2023-08-05T16:43:03Z</time>
      </trkpt>
      <trkpt lat="50.55086" lon="3.01523">
        <ele>21.8</ele>
        <time>2023-08-05T16:43:07Z</time>
      </trkpt>
      <trkpt lat="50.55085" lon="3.01528">
        <ele>21.8</ele>
        <time>2023-08-05T16:43:08Z</time>
      </trkpt>
      <trkpt lat="50.55074" lon="3.01557">
        <ele>21.8</ele>
        <time>2023-08-05T16:43:12Z</time>
      </trkpt>
      <trkpt lat="50.55067" lon="3.01582">
        <ele>21.8</ele>
        <time>2023-08-05T16:43:16Z</time>
      </trkpt>
      <trkpt lat="50.55066" lon="3.01588">
        <ele>21.8</ele>
        <time>2023-08-05T16:43:17Z</time>
      </trkpt>
      <trkpt lat="50.55063" lon="3.01595">
        <ele>21.8</ele>
        <time>2023-08-05T16:43:18Z</time>
      </trkpt>
      <trkpt lat="50.55055" lon="3.01625">
        <ele>21.8</ele>
        <time>2023-08-05T16:43:22Z</time>
      </trkpt>
      <trkpt lat="50.55053" lon="3.01632">
        <ele>21.8</ele>
        <time>2023-08-05T16:43:23Z</time>
      </trkpt>
      <trkpt lat="50.55051" lon="3.01639">
        <ele>21.8</ele>
        <time>2023-08-05T16:43:24Z</time>
      </trkpt>
      <trkpt lat="50.5505" lon="3.01646">
        <ele>21.8</ele>
        <time>2023-08-05T16:43:25Z</time>
      </trkpt>
      <trkpt lat="50.55049" lon="3.01653">
        <ele>21.8</ele>
        <time>2023-08-05T16:43:26Z</time>
      </trkpt>
      <trkpt lat="50.55039" lon="3.01681">
        <ele>21.8</ele>
        <time>2023-08-05T16:43:30Z</time>
      </trkpt>
      <trkpt lat="50.55035" lon="3.01689">
        <ele>21.8</ele>
        <time>2023-08-05T16:43:31Z</time>
      </trkpt>
      <trkpt lat="50.55027" lon="3.01711">
        <ele>21.6</ele>
        <time>2023-08-05T16:43:34Z</time>
      </trkpt>
      <trkpt lat="50.55027" lon="3.01718">
        <ele>21.6</ele>
        <time>2023-08-05T16:43:35Z</time>
      </trkpt>
      <trkpt lat="50.55026" lon="3.01725">
        <ele>21.4</ele>
        <time>2023-08-05T16:43:36Z</time>
      </trkpt>
      <trkpt lat="50.55023" lon="3.0174">
        <ele>21.4</ele>
        <time>2023-08-05T16:43:38Z</time>
      </trkpt>
      <trkpt lat="50.55011" lon="3.01774">
        <ele>21.2</ele>
        <time>2023-08-05T16:43:43Z</time>
      </trkpt>
      <trkpt lat="50.55008" lon="3.01781">
        <ele>21.2</ele>
        <time>2023-08-05T16:43:44Z</time>
      </trkpt>
      <trkpt lat="50.55002" lon="3.01804">
        <ele>21.2</ele>
        <time>2023-08-05T16:43:47Z</time>
      </trkpt>
      <trkpt lat="50.55" lon="3.0181">
        <ele>21.2</ele>
        <time>2023-08-05T16:43:48Z</time>
      </trkpt>
      <trkpt lat="50.54997" lon="3.01814">
        <ele>21.2</ele>
        <time>2023-08-05T16:43:49Z</time>
      </trkpt>
      <trkpt lat="50.54996" lon="3.0182">
        <ele>21</ele>
        <time>2023-08-05T16:43:50Z</time>
      </trkpt>
      <trkpt lat="50.54994" lon="3.01826">
        <ele>21</ele>
        <time>2023-08-05T16:43:51Z</time>
      </trkpt>
      <trkpt lat="50.54992" lon="3.01832">
        <ele>21.2</ele>
        <time>2023-08-05T16:43:52Z</time>
      </trkpt>
      <trkpt lat="50.5499" lon="3.01838">
        <ele>21.2</ele>
        <time>2023-08-05T16:43:53Z</time>
      </trkpt>
      <trkpt lat="50.54988" lon="3.01856">
        <ele>21.4</ele>
        <time>2023-08-05T16:43:56Z</time>
      </trkpt>
      <trkpt lat="50.54988" lon="3.01862">
        <ele>21.4</ele>
        <time>2023-08-05T16:43:57Z</time>
      </trkpt>
      <trkpt lat="50.54987" lon="3.01866">
        <ele>21.4</ele>
        <time>2023-08-05T16:43:58Z</time>
      </trkpt>
      <trkpt lat="50.54987" lon="3.0187">
        <ele>21.4</ele>
        <time>2023-08-05T16:43:59Z</time>
      </trkpt>
      <trkpt lat="50.54984" lon="3.01875">
        <ele>21.4</ele>
        <time>2023-08-05T16:44:00Z</time>
      </trkpt>
      <trkpt lat="50.54983" lon="3.01879">
        <ele>21.4</ele>
        <time>2023-08-05T16:44:01Z</time>
      </trkpt>
      <trkpt lat="50.54982" lon="3.01884">
        <ele>21.6</ele>
        <time>2023-08-05T16:44:02Z</time>
      </trkpt>
      <trkpt lat="50.54979" lon="3.01889">
        <ele>21.6</ele>
        <time>2023-08-05T16:44:03Z</time>
      </trkpt>
      <trkpt lat="50.54977" lon="3.01894">
        <ele>21.6</ele>
        <time>2023-08-05T16:44:04Z</time>
      </trkpt>
      <trkpt lat="50.54974" lon="3.01904">
        <ele>21.8</ele>
        <time>2023-08-05T16:44:06Z</time>
      </trkpt>
      <trkpt lat="50.54972" lon="3.01909">
        <ele>21.8</ele>
        <time>2023-08-05T16:44:07Z</time>
      </trkpt>
      <trkpt lat="50.54967" lon="3.01925">
        <ele>21.8</ele>
        <time>2023-08-05T16:44:10Z</time>
      </trkpt>
      <trkpt lat="50.54957" lon="3.01953">
        <ele>21.8</ele>
        <time>2023-08-05T16:44:15Z</time>
      </trkpt>
      <trkpt lat="50.54957" lon="3.01959">
        <ele>21.8</ele>
        <time>2023-08-05T16:44:16Z</time>
      </trkpt>
      <trkpt lat="50.54943" lon="3.02008">
        <ele>22</ele>
        <time>2023-08-05T16:44:23Z</time>
      </trkpt>
      <trkpt lat="50.54933" lon="3.02042">
        <ele>22</ele>
        <time>2023-08-05T16:44:28Z</time>
      </trkpt>
      <trkpt lat="50.54932" lon="3.02049">
        <ele>22</ele>
        <time>2023-08-05T16:44:29Z</time>
      </trkpt>
      <trkpt lat="50.54929" lon="3.02056">
        <ele>22</ele>
        <time>2023-08-05T16:44:30Z</time>
      </trkpt>
      <trkpt lat="50.54928" lon="3.02061">
        <ele>22</ele>
        <time>2023-08-05T16:44:31Z</time>
      </trkpt>
      <trkpt lat="50.54925" lon="3.02067">
        <ele>22</ele>
        <time>2023-08-05T16:44:32Z</time>
      </trkpt>
      <trkpt lat="50.54922" lon="3.02074">
        <ele>21.8</ele>
        <time>2023-08-05T16:44:33Z</time>
      </trkpt>
      <trkpt lat="50.5492" lon="3.02084">
        <ele>21.8</ele>
        <time>2023-08-05T16:44:35Z</time>
      </trkpt>
      <trkpt lat="50.54919" lon="3.02089">
        <ele>21.8</ele>
        <time>2023-08-05T16:44:36Z</time>
      </trkpt>
      <trkpt lat="50.54917" lon="3.02094">
        <ele>21.8</ele>
        <time>2023-08-05T16:44:37Z</time>
      </trkpt>
      <trkpt lat="50.54915" lon="3.02098">
        <ele>21.8</ele>
        <time>2023-08-05T16:44:38Z</time>
      </trkpt>
      <trkpt lat="50.54914" lon="3.02103">
        <ele>21.8</ele>
        <time>2023-08-05T16:44:39Z</time>
      </trkpt>
      <trkpt lat="50.54913" lon="3.02109">
        <ele>21.8</ele>
        <time>2023-08-05T16:44:40Z</time>
      </trkpt>
      <trkpt lat="50.54913" lon="3.02113">
        <ele>21.8</ele>
        <time>2023-08-05T16:44:41Z</time>
      </trkpt>
      <trkpt lat="50.54912" lon="3.02118">
        <ele>21.8</ele>
        <time>2023-08-05T16:44:42Z</time>
      </trkpt>
      <trkpt lat="50.54911" lon="3.02122">
        <ele>21.6</ele>
        <time>2023-08-05T16:44:43Z</time>
      </trkpt>
      <trkpt lat="50.54909" lon="3.02127">
        <ele>21.6</ele>
        <time>2023-08-05T16:44:44Z</time>
      </trkpt>
      <trkpt lat="50.54904" lon="3.02138">
        <ele>21.6</ele>
        <time>2023-08-05T16:44:46Z</time>
      </trkpt>
      <trkpt lat="50.54901" lon="3.02143">
        <ele>21.6</ele>
        <time>2023-08-05T16:44:47Z</time>
      </trkpt>
      <trkpt lat="50.54899" lon="3.02153">
        <ele>21.6</ele>
        <time>2023-08-05T16:44:48Z</time>
      </trkpt>
      <trkpt lat="50.549" lon="3.02157">
        <ele>21.6</ele>
        <time>2023-08-05T16:44:49Z</time>
      </trkpt>
      <trkpt lat="50.54901" lon="3.0216">
        <ele>21.6</ele>
        <time>2023-08-05T16:44:50Z</time>
      </trkpt>
      <trkpt lat="50.54902" lon="3.02162">
        <ele>21.6</ele>
        <time>2023-08-05T16:44:51Z</time>
      </trkpt>
      <trkpt lat="50.54904" lon="3.02164">
        <ele>21.6</ele>
        <time>2023-08-05T16:44:52Z</time>
      </trkpt>
      <trkpt lat="50.54906" lon="3.02166">
        <ele>21.6</ele>
        <time>2023-08-05T16:44:53Z</time>
      </trkpt>
      <trkpt lat="50.54909" lon="3.02168">
        <ele>21.6</ele>
        <time>2023-08-05T16:44:54Z</time>
      </trkpt>
      <trkpt lat="50.5491" lon="3.02171">
        <ele>21.6</ele>
        <time>2023-08-05T16:44:55Z</time>
      </trkpt>
      <trkpt lat="50.54911" lon="3.02178">
        <ele>21.8</ele>
        <time>2023-08-05T16:44:57Z</time>
      </trkpt>
      <trkpt lat="50.54911" lon="3.0218">
        <ele>21.8</ele>
        <time>2023-08-05T16:44:58Z</time>
      </trkpt>
      <trkpt lat="50.54911" lon="3.02182">
        <ele>21.8</ele>
        <time>2023-08-05T16:44:59Z</time>
      </trkpt>
      <trkpt lat="50.5491" lon="3.02185">
        <ele>22</ele>
        <time>2023-08-05T16:45:00Z</time>
      </trkpt>
      <trkpt lat="50.54909" lon="3.02189">
        <ele>22</ele>
        <time>2023-08-05T16:45:01Z</time>
      </trkpt>
      <trkpt lat="50.54909" lon="3.02193">
        <ele>22.2</ele>
        <time>2023-08-05T16:45:02Z</time>
      </trkpt>
      <trkpt lat="50.54908" lon="3.02198">
        <ele>22.4</ele>
        <time>2023-08-05T16:45:03Z</time>
      </trkpt>
      <trkpt lat="50.54907" lon="3.02201">
        <ele>22.4</ele>
        <time>2023-08-05T16:45:04Z</time>
      </trkpt>
      <trkpt lat="50.54898" lon="3.02223">
        <ele>22.8</ele>
        <time>2023-08-05T16:45:10Z</time>
      </trkpt>
      <trkpt lat="50.54887" lon="3.02256">
        <ele>23.2</ele>
        <time>2023-08-05T16:45:18Z</time>
      </trkpt>
      <trkpt lat="50.54887" lon="3.0226">
        <ele>23.2</ele>
        <time>2023-08-05T16:45:19Z</time>
      </trkpt>
      <trkpt lat="50.54884" lon="3.02268">
        <ele>23.4</ele>
        <time>2023-08-05T16:45:21Z</time>
      </trkpt>
      <trkpt lat="50.54878" lon="3.02278">
        <ele>24</ele>
        <time>2023-08-05T16:45:24Z</time>
      </trkpt>
      <trkpt lat="50.54876" lon="3.02278">
        <ele>24</ele>
        <time>2023-08-05T16:45:25Z</time>
      </trkpt>
      <trkpt lat="50.54874" lon="3.02278">
        <ele>24.2</ele>
        <time>2023-08-05T16:45:26Z</time>
      </trkpt>
      <trkpt lat="50.54871" lon="3.02277">
        <ele>24.2</ele>
        <time>2023-08-05T16:45:27Z</time>
      </trkpt>
      <trkpt lat="50.54869" lon="3.02275">
        <ele>24.6</ele>
        <time>2023-08-05T16:45:28Z</time>
      </trkpt>
      <trkpt lat="50.54867" lon="3.02273">
        <ele>24.6</ele>
        <time>2023-08-05T16:45:29Z</time>
      </trkpt>
      <trkpt lat="50.54865" lon="3.0227">
        <ele>25</ele>
        <time>2023-08-05T16:45:30Z</time>
      </trkpt>
      <trkpt lat="50.54862" lon="3.02267">
        <ele>25</ele>
        <time>2023-08-05T16:45:31Z</time>
      </trkpt>
      <trkpt lat="50.5486" lon="3.02264">
        <ele>25.2</ele>
        <time>2023-08-05T16:45:32Z</time>
      </trkpt>
      <trkpt lat="50.54854" lon="3.02254">
        <ele>25.4</ele>
        <time>2023-08-05T16:45:35Z</time>
      </trkpt>
      <trkpt lat="50.54852" lon="3.0225">
        <ele>25.4</ele>
        <time>2023-08-05T16:45:36Z</time>
      </trkpt>
      <trkpt lat="50.54851" lon="3.02246">
        <ele>25.4</ele>
        <time>2023-08-05T16:45:37Z</time>
      </trkpt>
      <trkpt lat="50.54848" lon="3.02243">
        <ele>25.4</ele>
        <time>2023-08-05T16:45:38Z</time>
      </trkpt>
      <trkpt lat="50.54846" lon="3.02239">
        <ele>25.6</ele>
        <time>2023-08-05T16:45:39Z</time>
      </trkpt>
      <trkpt lat="50.54843" lon="3.02236">
        <ele>25.8</ele>
        <time>2023-08-05T16:45:40Z</time>
      </trkpt>
      <trkpt lat="50.54841" lon="3.02233">
        <ele>25.8</ele>
        <time>2023-08-05T16:45:41Z</time>
      </trkpt>
      <trkpt lat="50.54839" lon="3.0223">
        <ele>25.8</ele>
        <time>2023-08-05T16:45:42Z</time>
      </trkpt>
      <trkpt lat="50.54836" lon="3.02226">
        <ele>25.8</ele>
        <time>2023-08-05T16:45:43Z</time>
      </trkpt>
      <trkpt lat="50.54833" lon="3.02222">
        <ele>25.6</ele>
        <time>2023-08-05T16:45:44Z</time>
      </trkpt>
      <trkpt lat="50.54828" lon="3.02215">
        <ele>25.6</ele>
        <time>2023-08-05T16:45:46Z</time>
      </trkpt>
      <trkpt lat="50.54826" lon="3.02211">
        <ele>25.6</ele>
        <time>2023-08-05T16:45:47Z</time>
      </trkpt>
      <trkpt lat="50.54824" lon="3.02208">
        <ele>25.6</ele>
        <time>2023-08-05T16:45:48Z</time>
      </trkpt>
      <trkpt lat="50.54822" lon="3.02204">
        <ele>25.4</ele>
        <time>2023-08-05T16:45:49Z</time>
      </trkpt>
      <trkpt lat="50.54817" lon="3.02197">
        <ele>25.2</ele>
        <time>2023-08-05T16:45:51Z</time>
      </trkpt>
      <trkpt lat="50.54801" lon="3.02178">
        <ele>25.6</ele>
        <time>2023-08-05T16:45:56Z</time>
      </trkpt>
      <trkpt lat="50.54795" lon="3.02169">
        <ele>25.6</ele>
        <time>2023-08-05T16:45:58Z</time>
      </trkpt>
      <trkpt lat="50.54792" lon="3.02164">
        <ele>25.8</ele>
        <time>2023-08-05T16:45:59Z</time>
      </trkpt>
      <trkpt lat="50.54788" lon="3.02159">
        <ele>25.8</ele>
        <time>2023-08-05T16:46:00Z</time>
      </trkpt>
      <trkpt lat="50.54783" lon="3.02154">
        <ele>25.8</ele>
        <time>2023-08-05T16:46:01Z</time>
      </trkpt>
      <trkpt lat="50.54776" lon="3.02149">
        <ele>25.8</ele>
        <time>2023-08-05T16:46:03Z</time>
      </trkpt>
      <trkpt lat="50.54771" lon="3.0215">
        <ele>25.8</ele>
        <time>2023-08-05T16:46:05Z</time>
      </trkpt>
      <trkpt lat="50.5477" lon="3.02153">
        <ele>25.8</ele>
        <time>2023-08-05T16:46:06Z</time>
      </trkpt>
      <trkpt lat="50.54768" lon="3.02155">
        <ele>25.8</ele>
        <time>2023-08-05T16:46:07Z</time>
      </trkpt>
      <trkpt lat="50.54766" lon="3.02157">
        <ele>25.8</ele>
        <time>2023-08-05T16:46:08Z</time>
      </trkpt>
      <trkpt lat="50.54762" lon="3.02163">
        <ele>25.8</ele>
        <time>2023-08-05T16:46:10Z</time>
      </trkpt>
      <trkpt lat="50.5476" lon="3.02166">
        <ele>25.6</ele>
        <time>2023-08-05T16:46:11Z</time>
      </trkpt>
      <trkpt lat="50.54754" lon="3.02171">
        <ele>25.6</ele>
        <time>2023-08-05T16:46:13Z</time>
      </trkpt>
      <trkpt lat="50.54742" lon="3.02186">
        <ele>25.8</ele>
        <time>2023-08-05T16:46:17Z</time>
      </trkpt>
      <trkpt lat="50.54738" lon="3.0219">
        <ele>25.8</ele>
        <time>2023-08-05T16:46:18Z</time>
      </trkpt>
      <trkpt lat="50.54735" lon="3.02195">
        <ele>26</ele>
        <time>2023-08-05T16:46:19Z</time>
      </trkpt>
      <trkpt lat="50.5473" lon="3.0221">
        <ele>26</ele>
        <time>2023-08-05T16:46:22Z</time>
      </trkpt>
      <trkpt lat="50.54726" lon="3.02215">
        <ele>26</ele>
        <time>2023-08-05T16:46:23Z</time>
      </trkpt>
      <trkpt lat="50.54716" lon="3.02234">
        <ele>26.2</ele>
        <time>2023-08-05T16:46:27Z</time>
      </trkpt>
      <trkpt lat="50.54706" lon="3.02252">
        <ele>26.2</ele>
        <time>2023-08-05T16:46:31Z</time>
      </trkpt>
      <trkpt lat="50.54703" lon="3.02256">
        <ele>26.2</ele>
        <time>2023-08-05T16:46:32Z</time>
      </trkpt>
      <trkpt lat="50.54701" lon="3.02261">
        <ele>26.2</ele>
        <time>2023-08-05T16:46:33Z</time>
      </trkpt>
      <trkpt lat="50.5469" lon="3.02281">
        <ele>26.2</ele>
        <time>2023-08-05T16:46:37Z</time>
      </trkpt>
      <trkpt lat="50.54677" lon="3.02304">
        <ele>26.4</ele>
        <time>2023-08-05T16:46:42Z</time>
      </trkpt>
      <trkpt lat="50.54673" lon="3.02312">
        <ele>26.4</ele>
        <time>2023-08-05T16:46:44Z</time>
      </trkpt>
      <trkpt lat="50.5467" lon="3.02317">
        <ele>26.4</ele>
        <time>2023-08-05T16:46:45Z</time>
      </trkpt>
      <trkpt lat="50.54666" lon="3.02322">
        <ele>26.6</ele>
        <time>2023-08-05T16:46:46Z</time>
      </trkpt>
      <trkpt lat="50.54663" lon="3.02327">
        <ele>26.6</ele>
        <time>2023-08-05T16:46:47Z</time>
      </trkpt>
      <trkpt lat="50.54661" lon="3.02331">
        <ele>26.6</ele>
        <time>2023-08-05T16:46:48Z</time>
      </trkpt>
      <trkpt lat="50.5466" lon="3.02335">
        <ele>26.6</ele>
        <time>2023-08-05T16:46:49Z</time>
      </trkpt>
      <trkpt lat="50.54658" lon="3.0234">
        <ele>26.6</ele>
        <time>2023-08-05T16:46:50Z</time>
      </trkpt>
      <trkpt lat="50.54654" lon="3.02345">
        <ele>26.6</ele>
        <time>2023-08-05T16:46:51Z</time>
      </trkpt>
      <trkpt lat="50.54651" lon="3.02349">
        <ele>26.6</ele>
        <time>2023-08-05T16:46:52Z</time>
      </trkpt>
      <trkpt lat="50.54635" lon="3.02378">
        <ele>27</ele>
        <time>2023-08-05T16:46:58Z</time>
      </trkpt>
      <trkpt lat="50.54631" lon="3.02383">
        <ele>27</ele>
        <time>2023-08-05T16:46:59Z</time>
      </trkpt>
      <trkpt lat="50.54621" lon="3.024">
        <ele>27</ele>
        <time>2023-08-05T16:47:03Z</time>
      </trkpt>
      <trkpt lat="50.54618" lon="3.02404">
        <ele>27.2</ele>
        <time>2023-08-05T16:47:04Z</time>
      </trkpt>
      <trkpt lat="50.54615" lon="3.0241">
        <ele>27</ele>
        <time>2023-08-05T16:47:05Z</time>
      </trkpt>
      <trkpt lat="50.54595" lon="3.02441">
        <ele>27.2</ele>
        <time>2023-08-05T16:47:11Z</time>
      </trkpt>
      <trkpt lat="50.54573" lon="3.02476">
        <ele>27.4</ele>
        <time>2023-08-05T16:47:18Z</time>
      </trkpt>
      <trkpt lat="50.54562" lon="3.02498">
        <ele>27.4</ele>
        <time>2023-08-05T16:47:23Z</time>
      </trkpt>
      <trkpt lat="50.5456" lon="3.02502">
        <ele>27.4</ele>
        <time>2023-08-05T16:47:24Z</time>
      </trkpt>
      <trkpt lat="50.54558" lon="3.02506">
        <ele>27.4</ele>
        <time>2023-08-05T16:47:25Z</time>
      </trkpt>
      <trkpt lat="50.54558" lon="3.0251">
        <ele>27.4</ele>
        <time>2023-08-05T16:47:26Z</time>
      </trkpt>
      <trkpt lat="50.54559" lon="3.02513">
        <ele>27.4</ele>
        <time>2023-08-05T16:47:27Z</time>
      </trkpt>
      <trkpt lat="50.54559" lon="3.02517">
        <ele>27.4</ele>
        <time>2023-08-05T16:47:28Z</time>
      </trkpt>
      <trkpt lat="50.54558" lon="3.0252">
        <ele>27.4</ele>
        <time>2023-08-05T16:47:29Z</time>
      </trkpt>
      <trkpt lat="50.54557" lon="3.02523">
        <ele>27.6</ele>
        <time>2023-08-05T16:47:30Z</time>
      </trkpt>
      <trkpt lat="50.54555" lon="3.02525">
        <ele>27.6</ele>
        <time>2023-08-05T16:47:31Z</time>
      </trkpt>
      <trkpt lat="50.54553" lon="3.02526">
        <ele>27.8</ele>
        <time>2023-08-05T16:47:32Z</time>
      </trkpt>
      <trkpt lat="50.54543" lon="3.02511">
        <ele>28.2</ele>
        <time>2023-08-05T16:47:38Z</time>
      </trkpt>
      <trkpt lat="50.54518" lon="3.02482">
        <ele>28.4</ele>
        <time>2023-08-05T16:47:48Z</time>
      </trkpt>
      <trkpt lat="50.54503" lon="3.02461">
        <ele>28.4</ele>
        <time>2023-08-05T16:47:55Z</time>
      </trkpt>
      <trkpt lat="50.54502" lon="3.0246">
        <ele>28.4</ele>
        <time>2023-08-05T16:47:56Z</time>
      </trkpt>
      <trkpt lat="50.54501" lon="3.02458">
        <ele>28.4</ele>
        <time>2023-08-05T16:47:57Z</time>
      </trkpt>
      <trkpt lat="50.545" lon="3.02457">
        <ele>28.4</ele>
        <time>2023-08-05T16:47:58Z</time>
      </trkpt>
      <trkpt lat="50.54499" lon="3.02456">
        <ele>28.4</ele>
        <time>2023-08-05T16:47:59Z</time>
      </trkpt>
      <trkpt lat="50.54498" lon="3.02455">
        <ele>28.4</ele>
        <time>2023-08-05T16:48:00Z</time>
      </trkpt>
      <trkpt lat="50.54497" lon="3.02454">
        <ele>28.4</ele>
        <time>2023-08-05T16:48:01Z</time>
      </trkpt>
      <trkpt lat="50.54496" lon="3.02452">
        <ele>28.4</ele>
        <time>2023-08-05T16:48:02Z</time>
      </trkpt>
      <trkpt lat="50.54495" lon="3.02451">
        <ele>28.2</ele>
        <time>2023-08-05T16:48:03Z</time>
      </trkpt>
      <trkpt lat="50.54487" lon="3.02445">
        <ele>28.2</ele>
        <time>2023-08-05T16:48:07Z</time>
      </trkpt>
      <trkpt lat="50.54485" lon="3.02445">
        <ele>28.2</ele>
        <time>2023-08-05T16:48:08Z</time>
      </trkpt>
      <trkpt lat="50.54481" lon="3.02445">
        <ele>28.2</ele>
        <time>2023-08-05T16:48:09Z</time>
      </trkpt>
      <trkpt lat="50.54478" lon="3.02446">
        <ele>28.2</ele>
        <time>2023-08-05T16:48:10Z</time>
      </trkpt>
      <trkpt lat="50.54476" lon="3.02449">
        <ele>28.2</ele>
        <time>2023-08-05T16:48:11Z</time>
      </trkpt>
      <trkpt lat="50.5447" lon="3.02456">
        <ele>28</ele>
        <time>2023-08-05T16:48:13Z</time>
      </trkpt>
      <trkpt lat="50.54467" lon="3.02459">
        <ele>28</ele>
        <time>2023-08-05T16:48:14Z</time>
      </trkpt>
      <trkpt lat="50.54455" lon="3.02478">
        <ele>28.2</ele>
        <time>2023-08-05T16:48:19Z</time>
      </trkpt>
      <trkpt lat="50.54441" lon="3.02495">
        <ele>28.6</ele>
        <time>2023-08-05T16:48:24Z</time>
      </trkpt>
      <trkpt lat="50.54439" lon="3.02499">
        <ele>28.8</ele>
        <time>2023-08-05T16:48:25Z</time>
      </trkpt>
      <trkpt lat="50.5442" lon="3.0253">
        <ele>29</ele>
        <time>2023-08-05T16:48:32Z</time>
      </trkpt>
      <trkpt lat="50.54402" lon="3.02563">
        <ele>29</ele>
        <time>2023-08-05T16:48:39Z</time>
      </trkpt>
      <trkpt lat="50.54397" lon="3.0257">
        <ele>29</ele>
        <time>2023-08-05T16:48:41Z</time>
      </trkpt>
      <trkpt lat="50.54396" lon="3.02572">
        <ele>29</ele>
        <time>2023-08-05T16:48:42Z</time>
      </trkpt>
      <trkpt lat="50.54396" lon="3.02574">
        <ele>29</ele>
        <time>2023-08-05T16:48:43Z</time>
      </trkpt>
      <trkpt lat="50.54397" lon="3.02575">
        <ele>29</ele>
        <time>2023-08-05T16:48:44Z</time>
      </trkpt>
      <trkpt lat="50.54398" lon="3.02574">
        <ele>29</ele>
        <time>2023-08-05T16:48:45Z</time>
      </trkpt>
      <trkpt lat="50.54399" lon="3.02573">
        <ele>29</ele>
        <time>2023-08-05T16:48:46Z</time>
      </trkpt>
      <trkpt lat="50.544" lon="3.0257">
        <ele>29</ele>
        <time>2023-08-05T16:48:47Z</time>
      </trkpt>
      <trkpt lat="50.54407" lon="3.02556">
        <ele>29.2</ele>
        <time>2023-08-05T16:48:51Z</time>
      </trkpt>
      <trkpt lat="50.54411" lon="3.02544">
        <ele>29.2</ele>
        <time>2023-08-05T16:48:54Z</time>
      </trkpt>
      <trkpt lat="50.54411" lon="3.02539">
        <ele>29.4</ele>
        <time>2023-08-05T16:48:55Z</time>
      </trkpt>
      <trkpt lat="50.54409" lon="3.02536">
        <ele>29.6</ele>
        <time>2023-08-05T16:48:56Z</time>
      </trkpt>
      <trkpt lat="50.54407" lon="3.02534">
        <ele>29.6</ele>
        <time>2023-08-05T16:48:57Z</time>
      </trkpt>
      <trkpt lat="50.54405" lon="3.02533">
        <ele>29.6</ele>
        <time>2023-08-05T16:48:58Z</time>
      </trkpt>
      <trkpt lat="50.54402" lon="3.02532">
        <ele>29.6</ele>
        <time>2023-08-05T16:48:59Z</time>
      </trkpt>
      <trkpt lat="50.544" lon="3.02531">
        <ele>29.6</ele>
        <time>2023-08-05T16:49:00Z</time>
      </trkpt>
      <trkpt lat="50.54399" lon="3.0253">
        <ele>29.6</ele>
        <time>2023-08-05T16:49:01Z</time>
      </trkpt>
      <trkpt lat="50.54397" lon="3.02529">
        <ele>29.6</ele>
        <time>2023-08-05T16:49:02Z</time>
      </trkpt>
      <trkpt lat="50.54395" lon="3.02528">
        <ele>29.6</ele>
        <time>2023-08-05T16:49:03Z</time>
      </trkpt>
      <trkpt lat="50.54393" lon="3.02527">
        <ele>29.6</ele>
        <time>2023-08-05T16:49:04Z</time>
      </trkpt>
      <trkpt lat="50.5439" lon="3.02526">
        <ele>29.6</ele>
        <time>2023-08-05T16:49:05Z</time>
      </trkpt>
      <trkpt lat="50.54387" lon="3.02525">
        <ele>29.6</ele>
        <time>2023-08-05T16:49:06Z</time>
      </trkpt>
      <trkpt lat="50.54385" lon="3.02524">
        <ele>29.6</ele>
        <time>2023-08-05T16:49:07Z</time>
      </trkpt>
      <trkpt lat="50.54372" lon="3.02521">
        <ele>29.8</ele>
        <time>2023-08-05T16:49:12Z</time>
      </trkpt>
      <trkpt lat="50.54369" lon="3.02523">
        <ele>29.8</ele>
        <time>2023-08-05T16:49:13Z</time>
      </trkpt>
      <trkpt lat="50.54368" lon="3.02525">
        <ele>30</ele>
        <time>2023-08-05T16:49:14Z</time>
      </trkpt>
      <trkpt lat="50.54366" lon="3.02528">
        <ele>30</ele>
        <time>2023-08-05T16:49:15Z</time>
      </trkpt>
      <trkpt lat="50.54364" lon="3.02537">
        <ele>30</ele>
        <time>2023-08-05T16:49:17Z</time>
      </trkpt>
      <trkpt lat="50.54363" lon="3.02542">
        <ele>30</ele>
        <time>2023-08-05T16:49:18Z</time>
      </trkpt>
      <trkpt lat="50.54362" lon="3.02547">
        <ele>30</ele>
        <time>2023-08-05T16:49:19Z</time>
      </trkpt>
      <trkpt lat="50.54353" lon="3.02573">
        <ele>29.6</ele>
        <time>2023-08-05T16:49:25Z</time>
      </trkpt>
      <trkpt lat="50.54344" lon="3.02584">
        <ele>29.6</ele>
        <time>2023-08-05T16:49:28Z</time>
      </trkpt>
      <trkpt lat="50.5434" lon="3.02586">
        <ele>29.6</ele>
        <time>2023-08-05T16:49:29Z</time>
      </trkpt>
      <trkpt lat="50.54337" lon="3.02588">
        <ele>29.6</ele>
        <time>2023-08-05T16:49:30Z</time>
      </trkpt>
      <trkpt lat="50.54322" lon="3.02607">
        <ele>29.4</ele>
        <time>2023-08-05T16:49:35Z</time>
      </trkpt>
      <trkpt lat="50.54292" lon="3.02655">
        <ele>30</ele>
        <time>2023-08-05T16:49:45Z</time>
      </trkpt>
      <trkpt lat="50.54286" lon="3.02664">
        <ele>30</ele>
        <time>2023-08-05T16:49:47Z</time>
      </trkpt>
      <trkpt lat="50.5428" lon="3.02669">
        <ele>30</ele>
        <time>2023-08-05T16:49:49Z</time>
      </trkpt>
      <trkpt lat="50.54276" lon="3.0267">
        <ele>30</ele>
        <time>2023-08-05T16:49:50Z</time>
      </trkpt>
      <trkpt lat="50.54272" lon="3.02669">
        <ele>30</ele>
        <time>2023-08-05T16:49:51Z</time>
      </trkpt>
      <trkpt lat="50.54268" lon="3.02668">
        <ele>29.8</ele>
        <time>2023-08-05T16:49:52Z</time>
      </trkpt>
      <trkpt lat="50.54264" lon="3.02667">
        <ele>29.8</ele>
        <time>2023-08-05T16:49:53Z</time>
      </trkpt>
      <trkpt lat="50.5426" lon="3.02666">
        <ele>29.8</ele>
        <time>2023-08-05T16:49:54Z</time>
      </trkpt>
      <trkpt lat="50.54256" lon="3.02666">
        <ele>29.8</ele>
        <time>2023-08-05T16:49:55Z</time>
      </trkpt>
      <trkpt lat="50.54253" lon="3.02668">
        <ele>29.8</ele>
        <time>2023-08-05T16:49:56Z</time>
      </trkpt>
      <trkpt lat="50.54249" lon="3.0267">
        <ele>29.8</ele>
        <time>2023-08-05T16:49:57Z</time>
      </trkpt>
      <trkpt lat="50.54245" lon="3.02672">
        <ele>29.8</ele>
        <time>2023-08-05T16:49:58Z</time>
      </trkpt>
      <trkpt lat="50.54241" lon="3.02674">
        <ele>29.8</ele>
        <time>2023-08-05T16:49:59Z</time>
      </trkpt>
      <trkpt lat="50.54225" lon="3.02682">
        <ele>30.2</ele>
        <time>2023-08-05T16:50:03Z</time>
      </trkpt>
      <trkpt lat="50.54221" lon="3.02687">
        <ele>30.2</ele>
        <time>2023-08-05T16:50:05Z</time>
      </trkpt>
      <trkpt lat="50.54219" lon="3.02689">
        <ele>30.2</ele>
        <time>2023-08-05T16:50:06Z</time>
      </trkpt>
      <trkpt lat="50.54218" lon="3.02692">
        <ele>30.2</ele>
        <time>2023-08-05T16:50:07Z</time>
      </trkpt>
      <trkpt lat="50.54216" lon="3.02694">
        <ele>30.2</ele>
        <time>2023-08-05T16:50:08Z</time>
      </trkpt>
      <trkpt lat="50.54215" lon="3.02696">
        <ele>30.4</ele>
        <time>2023-08-05T16:50:09Z</time>
      </trkpt>
      <trkpt lat="50.54213" lon="3.02699">
        <ele>30.4</ele>
        <time>2023-08-05T16:50:10Z</time>
      </trkpt>
      <trkpt lat="50.54212" lon="3.02701">
        <ele>30.4</ele>
        <time>2023-08-05T16:50:11Z</time>
      </trkpt>
      <trkpt lat="50.54209" lon="3.02705">
        <ele>30.4</ele>
        <time>2023-08-05T16:50:13Z</time>
      </trkpt>
      <trkpt lat="50.54209" lon="3.02707">
        <ele>30.4</ele>
        <time>2023-08-05T16:50:14Z</time>
      </trkpt>
      <trkpt lat="50.5421" lon="3.0271">
        <ele>30.4</ele>
        <time>2023-08-05T16:50:15Z</time>
      </trkpt>
      <trkpt lat="50.54211" lon="3.02713">
        <ele>30.6</ele>
        <time>2023-08-05T16:50:16Z</time>
      </trkpt>
      <trkpt lat="50.54215" lon="3.02714">
        <ele>30.6</ele>
        <time>2023-08-05T16:50:18Z</time>
      </trkpt>
      <trkpt lat="50.54216" lon="3.02716">
        <ele>30.6</ele>
        <time>2023-08-05T16:50:19Z</time>
      </trkpt>
      <trkpt lat="50.54216" lon="3.02718">
        <ele>30.6</ele>
        <time>2023-08-05T16:50:20Z</time>
      </trkpt>
      <trkpt lat="50.54215" lon="3.02719">
        <ele>30.8</ele>
        <time>2023-08-05T16:50:21Z</time>
      </trkpt>
      <trkpt lat="50.54215" lon="3.02718">
        <ele>30.8</ele>
        <time>2023-08-05T16:50:22Z</time>
      </trkpt>
      <trkpt lat="50.54215" lon="3.02717">
        <ele>30.8</ele>
        <time>2023-08-05T16:50:23Z</time>
      </trkpt>
      <trkpt lat="50.54215" lon="3.02716">
        <ele>30.8</ele>
        <time>2023-08-05T16:50:24Z</time>
      </trkpt>
      <trkpt lat="50.54215" lon="3.02716">
        <ele>30.8</ele>
        <time>2023-08-05T16:50:25Z</time>
      </trkpt>
      <trkpt lat="50.54215" lon="3.02716">
        <ele>30.8</ele>
        <time>2023-08-05T16:50:26Z</time>
      </trkpt>
      <trkpt lat="50.54201" lon="3.02723">
        <ele>32</ele>
        <time>2023-08-05T17:05:07Z</time>
      </trkpt>
      <trkpt lat="50.542" lon="3.02723">
        <ele>32</ele>
        <time>2023-08-05T17:05:08Z</time>
      </trkpt>
      <trkpt lat="50.54198" lon="3.02723">
        <ele>32</ele>
        <time>2023-08-05T17:05:09Z</time>
      </trkpt>
      <trkpt lat="50.54188" lon="3.02725">
        <ele>32</ele>
        <time>2023-08-05T17:05:15Z</time>
      </trkpt>
      <trkpt lat="50.54184" lon="3.02723">
        <ele>32.2</ele>
        <time>2023-08-05T17:05:17Z</time>
      </trkpt>
      <trkpt lat="50.54173" lon="3.0272">
        <ele>32.4</ele>
        <time>2023-08-05T17:05:21Z</time>
      </trkpt>
      <trkpt lat="50.54171" lon="3.02719">
        <ele>32.4</ele>
        <time>2023-08-05T17:05:22Z</time>
      </trkpt>
      <trkpt lat="50.54168" lon="3.02718">
        <ele>32.6</ele>
        <time>2023-08-05T17:05:23Z</time>
      </trkpt>
      <trkpt lat="50.54147" lon="3.02721">
        <ele>32.4</ele>
        <time>2023-08-05T17:05:31Z</time>
      </trkpt>
      <trkpt lat="50.54132" lon="3.02721">
        <ele>32.2</ele>
        <time>2023-08-05T17:05:36Z</time>
      </trkpt>
      <trkpt lat="50.5413" lon="3.02718">
        <ele>32.2</ele>
        <time>2023-08-05T17:05:37Z</time>
      </trkpt>
      <trkpt lat="50.54128" lon="3.02716">
        <ele>32.2</ele>
        <time>2023-08-05T17:05:38Z</time>
      </trkpt>
      <trkpt lat="50.54126" lon="3.02712">
        <ele>32.2</ele>
        <time>2023-08-05T17:05:39Z</time>
      </trkpt>
      <trkpt lat="50.54125" lon="3.02708">
        <ele>32.2</ele>
        <time>2023-08-05T17:05:40Z</time>
      </trkpt>
      <trkpt lat="50.54123" lon="3.02705">
        <ele>32.2</ele>
        <time>2023-08-05T17:05:41Z</time>
      </trkpt>
      <trkpt lat="50.54121" lon="3.02703">
        <ele>32.2</ele>
        <time>2023-08-05T17:05:42Z</time>
      </trkpt>
      <trkpt lat="50.54118" lon="3.02701">
        <ele>32.2</ele>
        <time>2023-08-05T17:05:43Z</time>
      </trkpt>
      <trkpt lat="50.54115" lon="3.02701">
        <ele>32.2</ele>
        <time>2023-08-05T17:05:44Z</time>
      </trkpt>
      <trkpt lat="50.5411" lon="3.02702">
        <ele>32</ele>
        <time>2023-08-05T17:05:46Z</time>
      </trkpt>
      <trkpt lat="50.54107" lon="3.02703">
        <ele>32</ele>
        <time>2023-08-05T17:05:47Z</time>
      </trkpt>
      <trkpt lat="50.54085" lon="3.0271">
        <ele>32.2</ele>
        <time>2023-08-05T17:05:54Z</time>
      </trkpt>
      <trkpt lat="50.54065" lon="3.02709">
        <ele>32.2</ele>
        <time>2023-08-05T17:06:00Z</time>
      </trkpt>
      <trkpt lat="50.54055" lon="3.02699">
        <ele>32.2</ele>
        <time>2023-08-05T17:06:03Z</time>
      </trkpt>
      <trkpt lat="50.54052" lon="3.02694">
        <ele>32</ele>
        <time>2023-08-05T17:06:04Z</time>
      </trkpt>
      <trkpt lat="50.5405" lon="3.02688">
        <ele>32</ele>
        <time>2023-08-05T17:06:05Z</time>
      </trkpt>
      <trkpt lat="50.54048" lon="3.02682">
        <ele>32</ele>
        <time>2023-08-05T17:06:06Z</time>
      </trkpt>
      <trkpt lat="50.54047" lon="3.02677">
        <ele>31.8</ele>
        <time>2023-08-05T17:06:07Z</time>
      </trkpt>
      <trkpt lat="50.54045" lon="3.02671">
        <ele>31.8</ele>
        <time>2023-08-05T17:06:08Z</time>
      </trkpt>
      <trkpt lat="50.54039" lon="3.02648">
        <ele>31.8</ele>
        <time>2023-08-05T17:06:12Z</time>
      </trkpt>
      <trkpt lat="50.54031" lon="3.0261">
        <ele>31.2</ele>
        <time>2023-08-05T17:06:18Z</time>
      </trkpt>
      <trkpt lat="50.5403" lon="3.02596">
        <ele>31</ele>
        <time>2023-08-05T17:06:20Z</time>
      </trkpt>
      <trkpt lat="50.54028" lon="3.0254">
        <ele>31</ele>
        <time>2023-08-05T17:06:28Z</time>
      </trkpt>
      <trkpt lat="50.54025" lon="3.02487">
        <ele>31</ele>
        <time>2023-08-05T17:06:35Z</time>
      </trkpt>
      <trkpt lat="50.54022" lon="3.02426">
        <ele>31.2</ele>
        <time>2023-08-05T17:06:43Z</time>
      </trkpt>
      <trkpt lat="50.54023" lon="3.02419">
        <ele>31.4</ele>
        <time>2023-08-05T17:06:44Z</time>
      </trkpt>
      <trkpt lat="50.54023" lon="3.02411">
        <ele>31.4</ele>
        <time>2023-08-05T17:06:45Z</time>
      </trkpt>
      <trkpt lat="50.54027" lon="3.02367">
        <ele>31.8</ele>
        <time>2023-08-05T17:06:51Z</time>
      </trkpt>
      <trkpt lat="50.54042" lon="3.02322">
        <ele>31.8</ele>
        <time>2023-08-05T17:06:57Z</time>
      </trkpt>
      <trkpt lat="50.54057" lon="3.02293">
        <ele>31.4</ele>
        <time>2023-08-05T17:07:02Z</time>
      </trkpt>
      <trkpt lat="50.5406" lon="3.02288">
        <ele>31.2</ele>
        <time>2023-08-05T17:07:03Z</time>
      </trkpt>
      <trkpt lat="50.54063" lon="3.02282">
        <ele>31.2</ele>
        <time>2023-08-05T17:07:04Z</time>
      </trkpt>
      <trkpt lat="50.54065" lon="3.02277">
        <ele>31</ele>
        <time>2023-08-05T17:07:05Z</time>
      </trkpt>
      <trkpt lat="50.54068" lon="3.02272">
        <ele>31</ele>
        <time>2023-08-05T17:07:06Z</time>
      </trkpt>
      <trkpt lat="50.54071" lon="3.02267">
        <ele>31</ele>
        <time>2023-08-05T17:07:07Z</time>
      </trkpt>
      <trkpt lat="50.54086" lon="3.02239">
        <ele>30.8</ele>
        <time>2023-08-05T17:07:12Z</time>
      </trkpt>
      <trkpt lat="50.54089" lon="3.02234">
        <ele>30.8</ele>
        <time>2023-08-05T17:07:13Z</time>
      </trkpt>
      <trkpt lat="50.54091" lon="3.02229">
        <ele>30.8</ele>
        <time>2023-08-05T17:07:14Z</time>
      </trkpt>
      <trkpt lat="50.54094" lon="3.02224">
        <ele>30.8</ele>
        <time>2023-08-05T17:07:15Z</time>
      </trkpt>
      <trkpt lat="50.54096" lon="3.02219">
        <ele>30.8</ele>
        <time>2023-08-05T17:07:16Z</time>
      </trkpt>
      <trkpt lat="50.54098" lon="3.02215">
        <ele>30.8</ele>
        <time>2023-08-05T17:07:17Z</time>
      </trkpt>
      <trkpt lat="50.54101" lon="3.02211">
        <ele>30.8</ele>
        <time>2023-08-05T17:07:18Z</time>
      </trkpt>
      <trkpt lat="50.54104" lon="3.02208">
        <ele>30.8</ele>
        <time>2023-08-05T17:07:19Z</time>
      </trkpt>
      <trkpt lat="50.54107" lon="3.02206">
        <ele>31</ele>
        <time>2023-08-05T17:07:20Z</time>
      </trkpt>
      <trkpt lat="50.5411" lon="3.02205">
        <ele>31</ele>
        <time>2023-08-05T17:07:21Z</time>
      </trkpt>
      <trkpt lat="50.54113" lon="3.02205">
        <ele>31</ele>
        <time>2023-08-05T17:07:22Z</time>
      </trkpt>
      <trkpt lat="50.54117" lon="3.02206">
        <ele>31</ele>
        <time>2023-08-05T17:07:23Z</time>
      </trkpt>
      <trkpt lat="50.5412" lon="3.02207">
        <ele>31</ele>
        <time>2023-08-05T17:07:24Z</time>
      </trkpt>
      <trkpt lat="50.54124" lon="3.02208">
        <ele>31</ele>
        <time>2023-08-05T17:07:25Z</time>
      </trkpt>
      <trkpt lat="50.54144" lon="3.02213">
        <ele>30.8</ele>
        <time>2023-08-05T17:07:30Z</time>
      </trkpt>
      <trkpt lat="50.54148" lon="3.02214">
        <ele>30.8</ele>
        <time>2023-08-05T17:07:31Z</time>
      </trkpt>
      <trkpt lat="50.54192" lon="3.02223">
        <ele>31</ele>
        <time>2023-08-05T17:07:41Z</time>
      </trkpt>
      <trkpt lat="50.5423" lon="3.02231">
        <ele>31.2</ele>
        <time>2023-08-05T17:07:49Z</time>
      </trkpt>
      <trkpt lat="50.54263" lon="3.02239">
        <ele>31.2</ele>
        <time>2023-08-05T17:07:56Z</time>
      </trkpt>
      <trkpt lat="50.54267" lon="3.0224">
        <ele>31</ele>
        <time>2023-08-05T17:07:57Z</time>
      </trkpt>
      <trkpt lat="50.54271" lon="3.02241">
        <ele>31</ele>
        <time>2023-08-05T17:07:58Z</time>
      </trkpt>
      <trkpt lat="50.54276" lon="3.02242">
        <ele>30.8</ele>
        <time>2023-08-05T17:07:59Z</time>
      </trkpt>
      <trkpt lat="50.5428" lon="3.02242">
        <ele>30.8</ele>
        <time>2023-08-05T17:08:00Z</time>
      </trkpt>
      <trkpt lat="50.54284" lon="3.02243">
        <ele>30.6</ele>
        <time>2023-08-05T17:08:01Z</time>
      </trkpt>
      <trkpt lat="50.54287" lon="3.02244">
        <ele>30.6</ele>
        <time>2023-08-05T17:08:02Z</time>
      </trkpt>
      <trkpt lat="50.5429" lon="3.02245">
        <ele>30.6</ele>
        <time>2023-08-05T17:08:03Z</time>
      </trkpt>
      <trkpt lat="50.54292" lon="3.02246">
        <ele>30.6</ele>
        <time>2023-08-05T17:08:04Z</time>
      </trkpt>
      <trkpt lat="50.54294" lon="3.02247">
        <ele>30.6</ele>
        <time>2023-08-05T17:08:05Z</time>
      </trkpt>
      <trkpt lat="50.54295" lon="3.02248">
        <ele>30.6</ele>
        <time>2023-08-05T17:08:06Z</time>
      </trkpt>
      <trkpt lat="50.54297" lon="3.02248">
        <ele>30.6</ele>
        <time>2023-08-05T17:08:07Z</time>
      </trkpt>
      <trkpt lat="50.54298" lon="3.02248">
        <ele>30.8</ele>
        <time>2023-08-05T17:08:08Z</time>
      </trkpt>
      <trkpt lat="50.543" lon="3.02248">
        <ele>30.8</ele>
        <time>2023-08-05T17:08:09Z</time>
      </trkpt>
      <trkpt lat="50.54316" lon="3.02255">
        <ele>31</ele>
        <time>2023-08-05T17:08:16Z</time>
      </trkpt>
      <trkpt lat="50.54319" lon="3.02255">
        <ele>31.2</ele>
        <time>2023-08-05T17:08:17Z</time>
      </trkpt>
      <trkpt lat="50.54324" lon="3.02256">
        <ele>31</ele>
        <time>2023-08-05T17:08:19Z</time>
      </trkpt>
      <trkpt lat="50.54327" lon="3.02258">
        <ele>31.2</ele>
        <time>2023-08-05T17:08:20Z</time>
      </trkpt>
      <trkpt lat="50.54329" lon="3.02262">
        <ele>31</ele>
        <time>2023-08-05T17:08:21Z</time>
      </trkpt>
      <trkpt lat="50.54332" lon="3.02265">
        <ele>31</ele>
        <time>2023-08-05T17:08:22Z</time>
      </trkpt>
      <trkpt lat="50.54335" lon="3.02268">
        <ele>31.2</ele>
        <time>2023-08-05T17:08:23Z</time>
      </trkpt>
      <trkpt lat="50.54346" lon="3.0228">
        <ele>31</ele>
        <time>2023-08-05T17:08:27Z</time>
      </trkpt>
      <trkpt lat="50.54358" lon="3.02297">
        <ele>31</ele>
        <time>2023-08-05T17:08:33Z</time>
      </trkpt>
      <trkpt lat="50.54362" lon="3.02302">
        <ele>31</ele>
        <time>2023-08-05T17:08:34Z</time>
      </trkpt>
      <trkpt lat="50.54364" lon="3.02305">
        <ele>31</ele>
        <time>2023-08-05T17:08:35Z</time>
      </trkpt>
      <trkpt lat="50.54364" lon="3.02305">
        <ele>31</ele>
        <time>2023-08-05T17:08:36Z</time>
      </trkpt>
      <trkpt lat="50.54366" lon="3.02308">
        <ele>31.2</ele>
        <time>2023-08-05T17:08:37Z</time>
      </trkpt>
      <trkpt lat="50.54369" lon="3.02311">
        <ele>31.2</ele>
        <time>2023-08-05T17:08:38Z</time>
      </trkpt>
      <trkpt lat="50.54373" lon="3.02317">
        <ele>31.2</ele>
        <time>2023-08-05T17:08:39Z</time>
      </trkpt>
      <trkpt lat="50.54399" lon="3.0235">
        <ele>31.2</ele>
        <time>2023-08-05T17:08:49Z</time>
      </trkpt>
      <trkpt lat="50.54427" lon="3.02389">
        <ele>31.2</ele>
        <time>2023-08-05T17:09:00Z</time>
      </trkpt>
      <trkpt lat="50.54447" lon="3.02414">
        <ele>31.2</ele>
        <time>2023-08-05T17:09:06Z</time>
      </trkpt>
      <trkpt lat="50.5445" lon="3.02418">
        <ele>31.2</ele>
        <time>2023-08-05T17:09:08Z</time>
      </trkpt>
      <trkpt lat="50.54455" lon="3.02427">
        <ele>31.2</ele>
        <time>2023-08-05T17:09:09Z</time>
      </trkpt>
      <trkpt lat="50.54457" lon="3.02429">
        <ele>31</ele>
        <time>2023-08-05T17:09:10Z</time>
      </trkpt>
      <trkpt lat="50.54458" lon="3.02432">
        <ele>31</ele>
        <time>2023-08-05T17:09:11Z</time>
      </trkpt>
      <trkpt lat="50.5446" lon="3.02436">
        <ele>31.2</ele>
        <time>2023-08-05T17:09:12Z</time>
      </trkpt>
      <trkpt lat="50.54461" lon="3.02437">
        <ele>31.2</ele>
        <time>2023-08-05T17:09:13Z</time>
      </trkpt>
      <trkpt lat="50.54462" lon="3.0244">
        <ele>31.2</ele>
        <time>2023-08-05T17:09:14Z</time>
      </trkpt>
      <trkpt lat="50.54463" lon="3.02442">
        <ele>31.2</ele>
        <time>2023-08-05T17:09:15Z</time>
      </trkpt>
      <trkpt lat="50.54463" lon="3.02442">
        <ele>31.2</ele>
        <time>2023-08-05T17:09:16Z</time>
      </trkpt>
      <trkpt lat="50.54465" lon="3.02445">
        <ele>31.2</ele>
        <time>2023-08-05T17:09:17Z</time>
      </trkpt>
      <trkpt lat="50.54465" lon="3.02446">
        <ele>31.2</ele>
        <time>2023-08-05T17:09:18Z</time>
      </trkpt>
      <trkpt lat="50.54465" lon="3.02447">
        <ele>31.4</ele>
        <time>2023-08-05T17:09:19Z</time>
      </trkpt>
      <trkpt lat="50.54466" lon="3.02447">
        <ele>31.4</ele>
        <time>2023-08-05T17:09:20Z</time>
      </trkpt>
      <trkpt lat="50.54467" lon="3.02449">
        <ele>31.6</ele>
        <time>2023-08-05T17:09:21Z</time>
      </trkpt>
      <trkpt lat="50.54475" lon="3.02457">
        <ele>31.6</ele>
        <time>2023-08-05T17:09:25Z</time>
      </trkpt>
      <trkpt lat="50.54489" lon="3.02471">
        <ele>31.6</ele>
        <time>2023-08-05T17:09:30Z</time>
      </trkpt>
      <trkpt lat="50.54498" lon="3.02481">
        <ele>31.6</ele>
        <time>2023-08-05T17:09:33Z</time>
      </trkpt>
      <trkpt lat="50.54507" lon="3.02494">
        <ele>31.6</ele>
        <time>2023-08-05T17:09:37Z</time>
      </trkpt>
      <trkpt lat="50.54513" lon="3.025">
        <ele>31.6</ele>
        <time>2023-08-05T17:09:38Z</time>
      </trkpt>
      <trkpt lat="50.54519" lon="3.02507">
        <ele>31.6</ele>
        <time>2023-08-05T17:09:40Z</time>
      </trkpt>
      <trkpt lat="50.54555" lon="3.02554">
        <ele>31.4</ele>
        <time>2023-08-05T17:09:52Z</time>
      </trkpt>
      <trkpt lat="50.5457" lon="3.02571">
        <ele>31.4</ele>
        <time>2023-08-05T17:09:57Z</time>
      </trkpt>
      <trkpt lat="50.54573" lon="3.02575">
        <ele>31.4</ele>
        <time>2023-08-05T17:09:58Z</time>
      </trkpt>
      <trkpt lat="50.54576" lon="3.02579">
        <ele>31.4</ele>
        <time>2023-08-05T17:09:59Z</time>
      </trkpt>
      <trkpt lat="50.54578" lon="3.02583">
        <ele>31.6</ele>
        <time>2023-08-05T17:10:00Z</time>
      </trkpt>
      <trkpt lat="50.54581" lon="3.02586">
        <ele>31.6</ele>
        <time>2023-08-05T17:10:01Z</time>
      </trkpt>
      <trkpt lat="50.54584" lon="3.0259">
        <ele>31.6</ele>
        <time>2023-08-05T17:10:02Z</time>
      </trkpt>
      <trkpt lat="50.54625" lon="3.02639">
        <ele>31.8</ele>
        <time>2023-08-05T17:10:14Z</time>
      </trkpt>
      <trkpt lat="50.54637" lon="3.02653">
        <ele>31.8</ele>
        <time>2023-08-05T17:10:18Z</time>
      </trkpt>
      <trkpt lat="50.5464" lon="3.02656">
        <ele>31.8</ele>
        <time>2023-08-05T17:10:19Z</time>
      </trkpt>
      <trkpt lat="50.54642" lon="3.02659">
        <ele>31.8</ele>
        <time>2023-08-05T17:10:20Z</time>
      </trkpt>
      <trkpt lat="50.54645" lon="3.02663">
        <ele>31.8</ele>
        <time>2023-08-05T17:10:21Z</time>
      </trkpt>
      <trkpt lat="50.54648" lon="3.02666">
        <ele>31.8</ele>
        <time>2023-08-05T17:10:22Z</time>
      </trkpt>
      <trkpt lat="50.54651" lon="3.0267">
        <ele>31.8</ele>
        <time>2023-08-05T17:10:23Z</time>
      </trkpt>
      <trkpt lat="50.54653" lon="3.02673">
        <ele>31.8</ele>
        <time>2023-08-05T17:10:24Z</time>
      </trkpt>
      <trkpt lat="50.54656" lon="3.02677">
        <ele>31.8</ele>
        <time>2023-08-05T17:10:25Z</time>
      </trkpt>
      <trkpt lat="50.54656" lon="3.02677">
        <ele>31.8</ele>
        <time>2023-08-05T17:10:26Z</time>
      </trkpt>
      <trkpt lat="50.54662" lon="3.02683">
        <ele>31.8</ele>
        <time>2023-08-05T17:10:27Z</time>
      </trkpt>
      <trkpt lat="50.54664" lon="3.02686">
        <ele>32</ele>
        <time>2023-08-05T17:10:28Z</time>
      </trkpt>
      <trkpt lat="50.54667" lon="3.02689">
        <ele>32</ele>
        <time>2023-08-05T17:10:29Z</time>
      </trkpt>
      <trkpt lat="50.5467" lon="3.02691">
        <ele>32</ele>
        <time>2023-08-05T17:10:30Z</time>
      </trkpt>
      <trkpt lat="50.54672" lon="3.02693">
        <ele>32</ele>
        <time>2023-08-05T17:10:31Z</time>
      </trkpt>
      <trkpt lat="50.54674" lon="3.02696">
        <ele>32</ele>
        <time>2023-08-05T17:10:32Z</time>
      </trkpt>
      <trkpt lat="50.54676" lon="3.02698">
        <ele>32</ele>
        <time>2023-08-05T17:10:33Z</time>
      </trkpt>
      <trkpt lat="50.54678" lon="3.027">
        <ele>32</ele>
        <time>2023-08-05T17:10:34Z</time>
      </trkpt>
      <trkpt lat="50.54679" lon="3.02702">
        <ele>32.2</ele>
        <time>2023-08-05T17:10:35Z</time>
      </trkpt>
      <trkpt lat="50.54681" lon="3.02703">
        <ele>32.2</ele>
        <time>2023-08-05T17:10:36Z</time>
      </trkpt>
      <trkpt lat="50.54682" lon="3.02705">
        <ele>32.2</ele>
        <time>2023-08-05T17:10:37Z</time>
      </trkpt>
      <trkpt lat="50.54684" lon="3.02707">
        <ele>32.2</ele>
        <time>2023-08-05T17:10:38Z</time>
      </trkpt>
      <trkpt lat="50.54686" lon="3.02709">
        <ele>32.2</ele>
        <time>2023-08-05T17:10:39Z</time>
      </trkpt>
      <trkpt lat="50.54692" lon="3.02714">
        <ele>32.2</ele>
        <time>2023-08-05T17:10:42Z</time>
      </trkpt>
      <trkpt lat="50.54697" lon="3.02717">
        <ele>32.4</ele>
        <time>2023-08-05T17:10:44Z</time>
      </trkpt>
      <trkpt lat="50.54719" lon="3.02735">
        <ele>32.6</ele>
        <time>2023-08-05T17:10:52Z</time>
      </trkpt>
      <trkpt lat="50.54733" lon="3.02745">
        <ele>32.4</ele>
        <time>2023-08-05T17:10:57Z</time>
      </trkpt>
      <trkpt lat="50.54763" lon="3.02771">
        <ele>32.4</ele>
        <time>2023-08-05T17:11:06Z</time>
      </trkpt>
      <trkpt lat="50.54796" lon="3.028">
        <ele>32.4</ele>
        <time>2023-08-05T17:11:16Z</time>
      </trkpt>
      <trkpt lat="50.54824" lon="3.02824">
        <ele>32.6</ele>
        <time>2023-08-05T17:11:24Z</time>
      </trkpt>
      <trkpt lat="50.54846" lon="3.02843">
        <ele>32.6</ele>
        <time>2023-08-05T17:11:30Z</time>
      </trkpt>
      <trkpt lat="50.5487" lon="3.02865">
        <ele>32.8</ele>
        <time>2023-08-05T17:11:37Z</time>
      </trkpt>
      <trkpt lat="50.54883" lon="3.02874">
        <ele>33</ele>
        <time>2023-08-05T17:11:41Z</time>
      </trkpt>
      <trkpt lat="50.54885" lon="3.02876">
        <ele>33</ele>
        <time>2023-08-05T17:11:42Z</time>
      </trkpt>
      <trkpt lat="50.54888" lon="3.02879">
        <ele>33.2</ele>
        <time>2023-08-05T17:11:43Z</time>
      </trkpt>
      <trkpt lat="50.54891" lon="3.02882">
        <ele>33.2</ele>
        <time>2023-08-05T17:11:44Z</time>
      </trkpt>
      <trkpt lat="50.54892" lon="3.02885">
        <ele>33.2</ele>
        <time>2023-08-05T17:11:45Z</time>
      </trkpt>
      <trkpt lat="50.54894" lon="3.02888">
        <ele>33.2</ele>
        <time>2023-08-05T17:11:46Z</time>
      </trkpt>
      <trkpt lat="50.54896" lon="3.02891">
        <ele>33.2</ele>
        <time>2023-08-05T17:11:47Z</time>
      </trkpt>
      <trkpt lat="50.54897" lon="3.02894">
        <ele>33.2</ele>
        <time>2023-08-05T17:11:48Z</time>
      </trkpt>
      <trkpt lat="50.54898" lon="3.02896">
        <ele>33.2</ele>
        <time>2023-08-05T17:11:49Z</time>
      </trkpt>
      <trkpt lat="50.54899" lon="3.02898">
        <ele>33.2</ele>
        <time>2023-08-05T17:11:50Z</time>
      </trkpt>
      <trkpt lat="50.549" lon="3.02899">
        <ele>33.2</ele>
        <time>2023-08-05T17:11:51Z</time>
      </trkpt>
      <trkpt lat="50.54901" lon="3.029">
        <ele>33.2</ele>
        <time>2023-08-05T17:11:52Z</time>
      </trkpt>
      <trkpt lat="50.54901" lon="3.02901">
        <ele>33.2</ele>
        <time>2023-08-05T17:11:53Z</time>
      </trkpt>
      <trkpt lat="50.54901" lon="3.02901">
        <ele>33.2</ele>
        <time>2023-08-05T17:11:54Z</time>
      </trkpt>
      <trkpt lat="50.54901" lon="3.02901">
        <ele>33.2</ele>
        <time>2023-08-05T17:11:55Z</time>
      </trkpt>
    </trkseg>
  </trk>
</gpx>